Darstellungsparameter: Aktuell verwendete Einstellungen:
Skalierung der Graphiken ... ?
xyx+y,   Skalierungsfaktor:      Skalierung: Modus: x, Faktor: 1
Darstellungszeitraum ... ?
Vom - - bis: - -   Zeitraum: 28.01.2019 - 17.02.2019
Min/Max/Avg-Anzeige ... ?
Zeige MMA aktuell
Zeige MMA Monat
Zeige MMA alles
Zeige --A aktuell
Zeige --A Monat
Zeige --A alles
Keine MMA-Anzeige
MMA:
Keine MMA-Graphiken
MMA-Basis: 28.01.2019 - 17.02.2019
Quicknavigation für Darstellung... ?
Tage:      1T, 2T, 3T, 5T -1T -2T -3T -5T +1T +2T +3T +5T
Wochen: 1W, 2W, 3W -1W -2W -3W +1W +2W +3W
Monate: 1M, 3M, 6M -1M -3M -6M +1M +3M +6M
Jahre:    1J, 3J, 5J, 10J -1J -3J -5J -10J +1J +3J +5J +10J
Nutze für die Darstellung ... ?
Originaldaten oder Mittelwerte auf ...
Stundenbasis Tagesbasis Wochenbasis
Monatsbasis Jahresbasis      Datenbasis: Original-Daten
Darstellen als:
Statistik (Auto) Statistik J:M      Darstellung:
Zur Graphik,    zurück zur Übersicht aller Sensoren.
 
Tabellarische Datenbersicht: ?
 
Sensor: Nr:Datum:Temp:Feuchte:Taupunkt:
Aussen-T/F 1 28-01-2019 00:00:00 2.8 C 90 % 1.33 C
2 28-01-2019 00:05:00 2.8 C 90 % 1.33 C
3 28-01-2019 00:10:00 2.8 C 90 % 1.33 C
4 28-01-2019 00:15:00 2.8 C 90 % 1.33 C
5 28-01-2019 00:20:00 2.9 C 90 % 1.43 C
6 28-01-2019 00:25:00 3.1 C 90 % 1.62 C
7 28-01-2019 00:30:00 3.2 C 90 % 1.72 C
8 28-01-2019 00:35:00 3.2 C 90 % 1.72 C
9 28-01-2019 00:40:00 3.2 C 90 % 1.72 C
10 28-01-2019 00:45:00 3.3 C 89 % 1.67 C
11 28-01-2019 00:50:00 3.3 C 89 % 1.67 C
12 28-01-2019 00:55:00 3.4 C 89 % 1.76 C
13 28-01-2019 01:00:00 3.4 C 89 % 1.76 C
14 28-01-2019 01:05:00 3.6 C 88 % 1.8 C
15 28-01-2019 01:10:00 3.6 C 88 % 1.8 C
16 28-01-2019 01:15:00 3.6 C 88 % 1.8 C
17 28-01-2019 01:20:00 3.5 C 88 % 1.7 C
18 28-01-2019 01:25:00 3.4 C 88 % 1.61 C
19 28-01-2019 01:30:00 3.3 C 88 % 1.51 C
20 28-01-2019 01:35:00 3.3 C 88 % 1.51 C
21 28-01-2019 01:40:00 3.3 C 89 % 1.67 C
22 28-01-2019 01:45:00 3.3 C 89 % 1.67 C
23 28-01-2019 01:50:00 3.3 C 89 % 1.67 C
24 28-01-2019 01:55:00 3.3 C 89 % 1.67 C
25 28-01-2019 02:00:00 3.3 C 89 % 1.67 C
Sensor: Nr:Datum:Temp:Feuchte:Taupunkt:
Aussen-T/F 26 28-01-2019 02:05:00 3.4 C 89 % 1.76 C
27 28-01-2019 02:10:00 3.4 C 89 % 1.76 C
28 28-01-2019 02:15:00 3.3 C 89 % 1.67 C
29 28-01-2019 02:20:00 3.3 C 89 % 1.67 C
30 28-01-2019 02:25:00 3.2 C 89 % 1.57 C
31 28-01-2019 02:30:00 3.2 C 89 % 1.57 C
32 28-01-2019 02:35:00 3.1 C 90 % 1.62 C
33 28-01-2019 02:40:00 3.1 C 90 % 1.62 C
34 28-01-2019 02:45:00 3.1 C 90 % 1.62 C
35 28-01-2019 02:50:00 3.1 C 90 % 1.62 C
36 28-01-2019 02:55:00 3.1 C 89 % 1.47 C
37 28-01-2019 03:00:00 3.1 C 89 % 1.47 C
38 28-01-2019 03:05:00 3.2 C 89 % 1.57 C
39 28-01-2019 03:10:00 3.2 C 89 % 1.57 C
40 28-01-2019 03:15:00 3.3 C 89 % 1.67 C
41 28-01-2019 03:20:00 3.3 C 89 % 1.67 C
42 28-01-2019 03:25:00 3.3 C 90 % 1.82 C
43 28-01-2019 03:30:00 3.3 C 90 % 1.82 C
44 28-01-2019 03:35:00 3.3 C 90 % 1.82 C
45 28-01-2019 03:40:00 3.3 C 90 % 1.82 C
46 28-01-2019 03:45:00 3.2 C 91 % 1.88 C
47 28-01-2019 03:50:00 3.2 C 91 % 1.88 C
48 28-01-2019 03:55:00 3.2 C 91 % 1.88 C
49 28-01-2019 04:00:00 3.2 C 91 % 1.88 C
50 28-01-2019 04:05:00 3.2 C 91 % 1.88 C
Sensor: Nr:Datum:Temp:Feuchte:Taupunkt:
Aussen-T/F 51 28-01-2019 04:10:00 3.2 C 91 % 1.88 C
52 28-01-2019 04:15:00 3.1 C 91 % 1.78 C
53 28-01-2019 04:20:00 3.2 C 91 % 1.88 C
54 28-01-2019 04:25:00 3.2 C 91 % 1.88 C
55 28-01-2019 04:30:00 3.2 C 90 % 1.72 C
56 28-01-2019 04:35:00 3.3 C 90 % 1.82 C
57 28-01-2019 04:40:00 3.3 C 90 % 1.82 C
58 28-01-2019 04:45:00 3.3 C 90 % 1.82 C
59 28-01-2019 04:50:00 3.3 C 90 % 1.82 C
60 28-01-2019 04:55:00 3.3 C 90 % 1.82 C
61 28-01-2019 05:00:00 3.2 C 90 % 1.72 C
62 28-01-2019 05:05:00 3.2 C 90 % 1.72 C
63 28-01-2019 05:10:00 3.2 C 90 % 1.72 C
64 28-01-2019 05:15:00 3.3 C 90 % 1.82 C
65 28-01-2019 05:20:00 3.3 C 90 % 1.82 C
66 28-01-2019 05:25:00 3.3 C 90 % 1.82 C
67 28-01-2019 05:30:00 3.3 C 90 % 1.82 C
68 28-01-2019 05:35:00 3.2 C 89 % 1.57 C
69 28-01-2019 05:40:00 3.3 C 89 % 1.67 C
70 28-01-2019 05:45:00 3.3 C 89 % 1.67 C
71 28-01-2019 05:50:00 3.3 C 89 % 1.67 C
72 28-01-2019 05:55:00 3.3 C 89 % 1.67 C
73 28-01-2019 06:00:00 3.3 C 89 % 1.67 C
74 28-01-2019 06:05:00 3.3 C 89 % 1.67 C
75 28-01-2019 06:10:00 3.3 C 89 % 1.67 C
Sensor: Nr:Datum:Temp:Feuchte:Taupunkt:
Aussen-T/F 76 28-01-2019 06:15:00 3.3 C 89 % 1.67 C
77 28-01-2019 06:20:00 3.3 C 89 % 1.67 C
78 28-01-2019 06:25:00 3.3 C 89 % 1.67 C
79 28-01-2019 06:30:00 3.2 C 90 % 1.72 C
80 28-01-2019 06:35:00 3.1 C 90 % 1.62 C
81 28-01-2019 06:40:00 3.1 C 91 % 1.78 C
82 28-01-2019 06:45:00 3 C 91 % 1.68 C
83 28-01-2019 06:50:00 2.9 C 91 % 1.58 C
84 28-01-2019 06:55:00 2.9 C 91 % 1.58 C
85 28-01-2019 07:00:00 2.9 C 92 % 1.73 C
86 28-01-2019 07:05:00 2.9 C 92 % 1.73 C
87 28-01-2019 07:10:00 2.8 C 92 % 1.63 C
88 28-01-2019 07:15:00 2.8 C 92 % 1.63 C
89 28-01-2019 07:20:00 2.7 C 92 % 1.53 C
90 28-01-2019 07:25:00 2.7 C 93 % 1.68 C
91 28-01-2019 07:30:00 2.7 C 93 % 1.68 C
92 28-01-2019 07:35:00 2.7 C 93 % 1.68 C
93 28-01-2019 07:40:00 2.6 C 93 % 1.59 C
94 28-01-2019 07:45:00 2.6 C 93 % 1.59 C
95 28-01-2019 07:50:00 2.6 C 94 % 1.73 C
96 28-01-2019 07:55:00 2.6 C 94 % 1.73 C
97 28-01-2019 08:00:00 2.6 C 93 % 1.59 C
98 28-01-2019 08:05:00 2.5 C 93 % 1.49 C
99 28-01-2019 08:10:00 2.5 C 94 % 1.63 C
100 28-01-2019 08:15:00 2.4 C 94 % 1.54 C
Sensor: Nr:Datum:Temp:Feuchte:Taupunkt:
Aussen-T/F 101 28-01-2019 08:20:00 2.5 C 94 % 1.63 C
102 28-01-2019 08:25:00 2.5 C 94 % 1.63 C
103 28-01-2019 08:30:00 2.5 C 94 % 1.63 C
104 28-01-2019 08:35:00 2.5 C 93 % 1.49 C
105 28-01-2019 08:40:00 2.5 C 93 % 1.49 C
106 28-01-2019 08:45:00 2.5 C 93 % 1.49 C
107 28-01-2019 08:50:00 2.5 C 94 % 1.63 C
108 28-01-2019 08:55:00 2.5 C 94 % 1.63 C
109 28-01-2019 09:00:00 2.4 C 94 % 1.54 C
110 28-01-2019 09:05:00 2.4 C 94 % 1.54 C
111 28-01-2019 09:10:00 2.4 C 94 % 1.54 C
112 28-01-2019 09:15:00 2.3 C 94 % 1.44 C
113 28-01-2019 09:20:00 2.3 C 94 % 1.44 C
114 28-01-2019 09:25:00 2.2 C 94 % 1.34 C
115 28-01-2019 09:30:00 2.1 C 94 % 1.24 C
116 28-01-2019 09:35:00 2.1 C 94 % 1.24 C
117 28-01-2019 09:40:00 2.1 C 95 % 1.38 C
118 28-01-2019 09:45:00 2.2 C 95 % 1.48 C
119 28-01-2019 09:50:00 2.2 C 95 % 1.48 C
120 28-01-2019 09:55:00 2.2 C 95 % 1.48 C
121 28-01-2019 10:00:00 2.2 C 95 % 1.48 C
122 28-01-2019 10:05:00 2.3 C 95 % 1.58 C
123 28-01-2019 10:10:00 2.3 C 95 % 1.58 C
124 28-01-2019 10:15:00 2.3 C 95 % 1.58 C
125 28-01-2019 10:20:00 2.3 C 95 % 1.58 C
Sensor: Nr:Datum:Temp:Feuchte:Taupunkt:
Aussen-T/F 126 28-01-2019 10:25:00 2.3 C 95 % 1.58 C
127 28-01-2019 10:30:00 2.4 C 95 % 1.68 C
128 28-01-2019 10:35:00 2.4 C 95 % 1.68 C
129 28-01-2019 10:40:00 2.5 C 95 % 1.78 C
130 28-01-2019 10:45:00 2.6 C 95 % 1.88 C
131 28-01-2019 10:50:00 2.6 C 95 % 1.88 C
132 28-01-2019 10:55:00 2.7 C 95 % 1.98 C
133 28-01-2019 11:00:00 2.7 C 95 % 1.98 C
134 28-01-2019 11:05:00 2.8 C 95 % 2.08 C
135 28-01-2019 11:10:00 2.8 C 95 % 2.08 C
136 28-01-2019 11:15:00 2.9 C 95 % 2.18 C
137 28-01-2019 11:20:00 2.9 C 95 % 2.18 C
138 28-01-2019 11:25:00 2.9 C 95 % 2.18 C
139 28-01-2019 11:30:00 2.9 C 95 % 2.18 C
140 28-01-2019 11:35:00 2.9 C 95 % 2.18 C
141 28-01-2019 11:40:00 3 C 95 % 2.28 C
142 28-01-2019 11:45:00 3.1 C 95 % 2.38 C
143 28-01-2019 11:50:00 3.1 C 95 % 2.38 C
144 28-01-2019 11:55:00 3.1 C 95 % 2.38 C
145 28-01-2019 12:00:00 3.1 C 95 % 2.38 C
146 28-01-2019 12:05:00 3.2 C 95 % 2.48 C
147 28-01-2019 12:10:00 3.2 C 95 % 2.48 C
148 28-01-2019 12:15:00 3.2 C 95 % 2.48 C
149 28-01-2019 12:20:00 3.3 C 95 % 2.58 C
150 28-01-2019 12:25:00 3.3 C 95 % 2.58 C
Sensor: Nr:Datum:Temp:Feuchte:Taupunkt:
Aussen-T/F 151 28-01-2019 12:30:00 3.3 C 95 % 2.58 C
152 28-01-2019 12:35:00 3.4 C 95 % 2.68 C
153 28-01-2019 12:40:00 3.4 C 94 % 2.53 C
154 28-01-2019 12:45:00 3.4 C 94 % 2.53 C
155 28-01-2019 12:50:00 3.4 C 94 % 2.53 C
156 28-01-2019 12:55:00 3.4 C 94 % 2.53 C
157 28-01-2019 13:00:00 3.3 C 94 % 2.43 C
158 28-01-2019 13:05:00 3.3 C 94 % 2.43 C
159 28-01-2019 13:10:00 3.3 C 95 % 2.58 C
160 28-01-2019 13:15:00 3.4 C 95 % 2.68 C
161 28-01-2019 13:20:00 3.4 C 95 % 2.68 C
162 28-01-2019 13:25:00 3.5 C 95 % 2.78 C
163 28-01-2019 13:30:00 3.6 C 95 % 2.88 C
164 28-01-2019 13:35:00 3.6 C 94 % 2.73 C
165 28-01-2019 13:40:00 3.7 C 94 % 2.83 C
166 28-01-2019 13:45:00 3.8 C 94 % 2.93 C
167 28-01-2019 13:50:00 3.8 C 94 % 2.93 C
168 28-01-2019 13:55:00 3.9 C 93 % 2.87 C
169 28-01-2019 14:00:00 3.9 C 93 % 2.87 C
170 28-01-2019 14:05:00 4 C 92 % 2.82 C
171 28-01-2019 14:10:00 4.1 C 92 % 2.92 C
172 28-01-2019 14:15:00 4.1 C 92 % 2.92 C
173 28-01-2019 14:20:00 4.1 C 92 % 2.92 C
174 28-01-2019 14:25:00 4.1 C 92 % 2.92 C
175 28-01-2019 14:30:00 4.1 C 92 % 2.92 C
Sensor: Nr:Datum:Temp:Feuchte:Taupunkt:
Aussen-T/F 176 28-01-2019 14:35:00 4 C 92 % 2.82 C
177 28-01-2019 14:40:00 4 C 92 % 2.82 C
178 28-01-2019 14:45:00 4 C 92 % 2.82 C
179 28-01-2019 14:50:00 4 C 92 % 2.82 C
180 28-01-2019 14:55:00 4 C 92 % 2.82 C
181 28-01-2019 15:00:00 4 C 91 % 2.67 C
182 28-01-2019 15:05:00 4.1 C 91 % 2.77 C
183 28-01-2019 15:10:00 4.1 C 91 % 2.77 C
184 28-01-2019 15:15:00 4.1 C 90 % 2.61 C
185 28-01-2019 15:20:00 4.1 C 90 % 2.61 C
186 28-01-2019 15:25:00 4.1 C 91 % 2.77 C
187 28-01-2019 15:30:00 4.1 C 91 % 2.77 C
188 28-01-2019 15:35:00 4 C 90 % 2.51 C
189 28-01-2019 15:40:00 3.9 C 91 % 2.57 C
190 28-01-2019 15:45:00 3.9 C 91 % 2.57 C
191 28-01-2019 15:50:00 3.9 C 91 % 2.57 C
192 28-01-2019 15:55:00 3.9 C 90 % 2.41 C
193 28-01-2019 16:00:00 3.9 C 90 % 2.41 C
194 28-01-2019 16:05:00 3.8 C 91 % 2.47 C
195 28-01-2019 16:10:00 3.6 C 91 % 2.27 C
196 28-01-2019 16:15:00 3.5 C 91 % 2.17 C
197 28-01-2019 16:20:00 3.4 C 92 % 2.23 C
198 28-01-2019 16:25:00 3.3 C 92 % 2.13 C
199 28-01-2019 16:30:00 3.3 C 92 % 2.13 C
200 28-01-2019 16:35:00 3.3 C 92 % 2.13 C
Sensor: Nr:Datum:Temp:Feuchte:Taupunkt:
Aussen-T/F 201 28-01-2019 16:40:00 3.3 C 92 % 2.13 C
202 28-01-2019 16:45:00 3.3 C 92 % 2.13 C
203 28-01-2019 16:50:00 3.3 C 92 % 2.13 C
204 28-01-2019 16:55:00 3.3 C 92 % 2.13 C
205 28-01-2019 17:00:00 3.2 C 92 % 2.03 C
206 28-01-2019 17:05:00 3.2 C 92 % 2.03 C
207 28-01-2019 17:10:00 3.1 C 92 % 1.93 C
208 28-01-2019 17:15:00 3.1 C 93 % 2.08 C
209 28-01-2019 17:20:00 3 C 93 % 1.98 C
210 28-01-2019 17:25:00 2.9 C 93 % 1.88 C
211 28-01-2019 17:30:00 2.9 C 93 % 1.88 C
212 28-01-2019 17:35:00 2.9 C 93 % 1.88 C
213 28-01-2019 17:40:00 2.8 C 93 % 1.78 C
214 28-01-2019 17:45:00 2.8 C 93 % 1.78 C
215 28-01-2019 17:50:00 2.9 C 93 % 1.88 C
216 28-01-2019 17:55:00 2.9 C 92 % 1.73 C
217 28-01-2019 18:00:00 2.9 C 92 % 1.73 C
218 28-01-2019 18:05:00 2.8 C 93 % 1.78 C
219 28-01-2019 18:10:00 2.9 C 93 % 1.88 C
220 28-01-2019 18:15:00 2.9 C 93 % 1.88 C
221 28-01-2019 18:20:00 2.9 C 93 % 1.88 C
222 28-01-2019 18:25:00 2.9 C 93 % 1.88 C
223 28-01-2019 18:30:00 2.9 C 93 % 1.88 C
224 28-01-2019 18:35:00 2.8 C 93 % 1.78 C
225 28-01-2019 18:40:00 2.8 C 93 % 1.78 C
Sensor: Nr:Datum:Temp:Feuchte:Taupunkt:
Aussen-T/F 226 28-01-2019 18:45:00 2.7 C 92 % 1.53 C
227 28-01-2019 18:50:00 2.6 C 92 % 1.43 C
228 28-01-2019 18:55:00 2.6 C 92 % 1.43 C
229 28-01-2019 19:00:00 2.6 C 92 % 1.43 C
230 28-01-2019 19:05:00 2.6 C 92 % 1.43 C
231 28-01-2019 19:10:00 2.7 C 91 % 1.38 C
232 28-01-2019 19:15:00 2.8 C 90 % 1.33 C
233 28-01-2019 19:20:00 2.9 C 89 % 1.27 C
234 28-01-2019 19:25:00 3 C 88 % 1.21 C
235 28-01-2019 19:30:00 3.1 C 88 % 1.31 C
236 28-01-2019 19:35:00 3.2 C 87 % 1.25 C
237 28-01-2019 19:40:00 3.2 C 86 % 1.09 C
238 28-01-2019 19:45:00 3.3 C 86 % 1.19 C
239 28-01-2019 19:50:00 3.3 C 88 % 1.51 C
240 28-01-2019 19:55:00 3.3 C 88 % 1.51 C
241 28-01-2019 20:00:00 3.2 C 87 % 1.25 C
242 28-01-2019 20:05:00 3.3 C 86 % 1.19 C
243 28-01-2019 20:10:00 3.5 C 86 % 1.38 C
244 28-01-2019 20:15:00 3.6 C 86 % 1.48 C
245 28-01-2019 20:20:00 3.7 C 85 % 1.42 C
246 28-01-2019 20:25:00 3.7 C 85 % 1.42 C
247 28-01-2019 20:30:00 3.6 C 85 % 1.32 C
248 28-01-2019 20:35:00 3.5 C 86 % 1.38 C
249 28-01-2019 20:40:00 3.4 C 86 % 1.29 C
250 28-01-2019 20:45:00 3.4 C 86 % 1.29 C
Sensor: Nr:Datum:Temp:Feuchte:Taupunkt:
Aussen-T/F 251 28-01-2019 20:50:00 3.4 C 86 % 1.29 C
252 28-01-2019 20:55:00 3.3 C 86 % 1.19 C
253 28-01-2019 21:00:00 3.3 C 87 % 1.35 C
254 28-01-2019 21:05:00 3.3 C 87 % 1.35 C
255 28-01-2019 21:10:00 3.3 C 87 % 1.35 C
256 28-01-2019 21:15:00 3.4 C 86 % 1.29 C
257 28-01-2019 21:20:00 3.4 C 86 % 1.29 C
258 28-01-2019 21:25:00 3.4 C 87 % 1.45 C
259 28-01-2019 21:30:00 3.3 C 87 % 1.35 C
260 28-01-2019 21:35:00 3.3 C 87 % 1.35 C
261 28-01-2019 21:40:00 3.3 C 87 % 1.35 C
262 28-01-2019 21:45:00 3.4 C 87 % 1.45 C
263 28-01-2019 21:50:00 3.4 C 87 % 1.45 C
264 28-01-2019 21:55:00 3.5 C 86 % 1.38 C
265 28-01-2019 22:00:00 3.6 C 86 % 1.48 C
266 28-01-2019 22:05:00 3.6 C 86 % 1.48 C
267 28-01-2019 22:10:00 3.6 C 86 % 1.48 C
268 28-01-2019 22:15:00 3.6 C 86 % 1.48 C
269 28-01-2019 22:20:00 3.5 C 86 % 1.38 C
270 28-01-2019 22:25:00 3.5 C 87 % 1.55 C
271 28-01-2019 22:30:00 3.4 C 87 % 1.45 C
272 28-01-2019 22:35:00 3.4 C 86 % 1.29 C
273 28-01-2019 22:40:00 3.4 C 86 % 1.29 C
274 28-01-2019 22:45:00 3.4 C 86 % 1.29 C
275 28-01-2019 22:50:00 3.4 C 86 % 1.29 C
Sensor: Nr:Datum:Temp:Feuchte:Taupunkt:
Aussen-T/F 276 28-01-2019 22:55:00 3.4 C 86 % 1.29 C
277 28-01-2019 23:00:00 3.5 C 86 % 1.38 C
278 28-01-2019 23:05:00 3.5 C 86 % 1.38 C
279 28-01-2019 23:10:00 3.5 C 86 % 1.38 C
280 28-01-2019 23:15:00 3.4 C 86 % 1.29 C
281 28-01-2019 23:20:00 3.4 C 87 % 1.45 C
282 28-01-2019 23:25:00 3.4 C 87 % 1.45 C
283 28-01-2019 23:30:00 3.3 C 88 % 1.51 C
284 28-01-2019 23:35:00 3.2 C 88 % 1.41 C
285 28-01-2019 23:40:00 3.2 C 88 % 1.41 C
286 28-01-2019 23:45:00 3.1 C 88 % 1.31 C
287 28-01-2019 23:50:00 3 C 88 % 1.21 C
288 28-01-2019 23:55:00 2.9 C 88 % 1.11 C
289 29-01-2019 00:00:00 2.9 C 88 % 1.11 C
290 29-01-2019 00:05:00 2.9 C 88 % 1.11 C
291 29-01-2019 00:10:00 2.8 C 88 % 1.02 C
292 29-01-2019 00:15:00 2.8 C 89 % 1.17 C
293 29-01-2019 00:20:00 2.8 C 89 % 1.17 C
294 29-01-2019 00:25:00 2.7 C 89 % 1.07 C
295 29-01-2019 00:30:00 2.7 C 89 % 1.07 C
296 29-01-2019 00:35:00 2.7 C 89 % 1.07 C
297 29-01-2019 00:40:00 2.7 C 89 % 1.07 C
298 29-01-2019 00:45:00 2.7 C 89 % 1.07 C
299 29-01-2019 00:50:00 2.7 C 89 % 1.07 C
300 29-01-2019 00:55:00 2.6 C 90 % 1.13 C
Sensor: Nr:Datum:Temp:Feuchte:Taupunkt:
Aussen-T/F 301 29-01-2019 01:00:00 2.6 C 90 % 1.13 C
302 29-01-2019 01:05:00 2.6 C 90 % 1.13 C
303 29-01-2019 01:10:00 2.6 C 90 % 1.13 C
304 29-01-2019 01:15:00 2.5 C 90 % 1.03 C
305 29-01-2019 01:20:00 2.6 C 90 % 1.13 C
306 29-01-2019 01:25:00 2.5 C 90 % 1.03 C
307 29-01-2019 01:30:00 2.4 C 91 % 1.08 C
308 29-01-2019 01:35:00 2.3 C 91 % 0.99 C
309 29-01-2019 01:40:00 2.2 C 91 % 0.89 C
310 29-01-2019 01:45:00 2.1 C 92 % 0.94 C
311 29-01-2019 01:50:00 2.1 C 92 % 0.94 C
312 29-01-2019 01:55:00 2.1 C 92 % 0.94 C
313 29-01-2019 02:00:00 2.1 C 92 % 0.94 C
314 29-01-2019 02:05:00 2 C 92 % 0.84 C
315 29-01-2019 02:10:00 1.9 C 92 % 0.74 C
316 29-01-2019 02:15:00 1.9 C 93 % 0.89 C
317 29-01-2019 02:20:00 1.9 C 93 % 0.89 C
318 29-01-2019 02:25:00 1.9 C 93 % 0.89 C
319 29-01-2019 02:30:00 1.9 C 93 % 0.89 C
320 29-01-2019 02:35:00 1.9 C 93 % 0.89 C
321 29-01-2019 02:40:00 1.9 C 93 % 0.89 C
322 29-01-2019 02:45:00 1.9 C 93 % 0.89 C
323 29-01-2019 02:50:00 1.9 C 93 % 0.89 C
324 29-01-2019 02:55:00 1.8 C 93 % 0.79 C
325 29-01-2019 03:00:00 1.7 C 93 % 0.69 C
Sensor: Nr:Datum:Temp:Feuchte:Taupunkt:
Aussen-T/F 326 29-01-2019 03:05:00 1.7 C 93 % 0.69 C
327 29-01-2019 03:10:00 1.7 C 94 % 0.84 C
328 29-01-2019 03:15:00 1.7 C 94 % 0.84 C
329 29-01-2019 03:20:00 1.7 C 94 % 0.84 C
330 29-01-2019 03:25:00 1.6 C 94 % 0.74 C
331 29-01-2019 03:30:00 1.6 C 94 % 0.74 C
332 29-01-2019 03:35:00 1.6 C 94 % 0.74 C
333 29-01-2019 03:40:00 1.6 C 94 % 0.74 C
334 29-01-2019 03:45:00 1.5 C 94 % 0.64 C
335 29-01-2019 03:50:00 1.4 C 94 % 0.54 C
336 29-01-2019 03:55:00 1.3 C 94 % 0.44 C
337 29-01-2019 04:00:00 1.2 C 94 % 0.34 C
338 29-01-2019 04:05:00 1.2 C 94 % 0.34 C
339 29-01-2019 04:10:00 1.1 C 94 % 0.24 C
340 29-01-2019 04:15:00 1.1 C 94 % 0.24 C
341 29-01-2019 04:20:00 1.1 C 94 % 0.24 C
342 29-01-2019 04:25:00 1 C 94 % 0.15 C
343 29-01-2019 04:30:00 1 C 94 % 0.15 C
344 29-01-2019 04:35:00 0.9 C 94 % 0.05 C
345 29-01-2019 04:40:00 0.9 C 94 % 0.05 C
346 29-01-2019 04:45:00 1 C 94 % 0.15 C
347 29-01-2019 04:50:00 1.1 C 94 % 0.24 C
348 29-01-2019 04:55:00 0.9 C 94 % 0.05 C
349 29-01-2019 05:00:00 0.8 C 94 % -0.05 C
350 29-01-2019 05:05:00 0.8 C 94 % -0.05 C
Sensor: Nr:Datum:Temp:Feuchte:Taupunkt:
Aussen-T/F 351 29-01-2019 05:10:00 0.7 C 94 % -0.15 C
352 29-01-2019 05:15:00 0.7 C 94 % -0.15 C
353 29-01-2019 05:20:00 0.7 C 94 % -0.15 C
354 29-01-2019 05:25:00 0.6 C 94 % -0.25 C
355 29-01-2019 05:30:00 0.6 C 94 % -0.25 C
356 29-01-2019 05:35:00 0.6 C 94 % -0.25 C
357 29-01-2019 05:40:00 0.6 C 94 % -0.25 C
358 29-01-2019 05:45:00 0.7 C 95 % -0.01 C
359 29-01-2019 05:50:00 0.7 C 95 % -0.01 C
360 29-01-2019 05:55:00 0.8 C 95 % 0.09 C
361 29-01-2019 06:00:00 0.9 C 95 % 0.19 C
362 29-01-2019 06:05:00 1 C 95 % 0.29 C
363 29-01-2019 06:10:00 1 C 95 % 0.29 C
364 29-01-2019 06:15:00 0.9 C 95 % 0.19 C
365 29-01-2019 06:20:00 0.9 C 94 % 0.05 C
366 29-01-2019 06:25:00 0.9 C 95 % 0.19 C
367 29-01-2019 06:30:00 0.9 C 95 % 0.19 C
368 29-01-2019 06:35:00 0.9 C 95 % 0.19 C
369 29-01-2019 06:40:00 0.9 C 95 % 0.19 C
370 29-01-2019 06:45:00 1 C 95 % 0.29 C
371 29-01-2019 06:50:00 1 C 95 % 0.29 C
372 29-01-2019 06:55:00 1.1 C 94 % 0.24 C
373 29-01-2019 07:00:00 1.1 C 94 % 0.24 C
374 29-01-2019 07:05:00 1.1 C 94 % 0.24 C
375 29-01-2019 07:10:00 1.1 C 94 % 0.24 C
Sensor: Nr:Datum:Temp:Feuchte:Taupunkt:
Aussen-T/F 376 29-01-2019 07:15:00 1.1 C 94 % 0.24 C
377 29-01-2019 07:20:00 1.2 C 94 % 0.34 C
378 29-01-2019 07:25:00 1.1 C 94 % 0.24 C
379 29-01-2019 07:30:00 1.1 C 94 % 0.24 C
380 29-01-2019 07:35:00 1.2 C 94 % 0.34 C
381 29-01-2019 07:40:00 1.2 C 94 % 0.34 C
382 29-01-2019 07:45:00 1.2 C 95 % 0.49 C
383 29-01-2019 07:50:00 1.2 C 94 % 0.34 C
384 29-01-2019 07:55:00 1.2 C 94 % 0.34 C
385 29-01-2019 08:00:00 1.2 C 94 % 0.34 C
386 29-01-2019 08:05:00 1.2 C 94 % 0.34 C
387 29-01-2019 08:10:00 1.2 C 94 % 0.34 C
388 29-01-2019 08:15:00 1.2 C 94 % 0.34 C
389 29-01-2019 08:20:00 1.2 C 94 % 0.34 C
390 29-01-2019 08:25:00 1.2 C 94 % 0.34 C
391 29-01-2019 08:30:00 1.2 C 94 % 0.34 C
392 29-01-2019 08:35:00 1.2 C 94 % 0.34 C
393 29-01-2019 08:40:00 1.2 C 94 % 0.34 C
394 29-01-2019 08:45:00 1.2 C 94 % 0.34 C
395 29-01-2019 08:50:00 1.1 C 94 % 0.24 C
396 29-01-2019 08:55:00 1.1 C 94 % 0.24 C
397 29-01-2019 09:00:00 1 C 94 % 0.15 C
398 29-01-2019 09:05:00 0.9 C 94 % 0.05 C
399 29-01-2019 09:10:00 0.9 C 94 % 0.05 C
400 29-01-2019 09:15:00 0.8 C 94 % -0.05 C
Sensor: Nr:Datum:Temp:Feuchte:Taupunkt:
Aussen-T/F 401 29-01-2019 09:20:00 0.8 C 94 % -0.05 C
402 29-01-2019 09:25:00 0.8 C 94 % -0.05 C
403 29-01-2019 09:30:00 0.9 C 94 % 0.05 C
404 29-01-2019 09:35:00 0.9 C 94 % 0.05 C
405 29-01-2019 09:40:00 1.1 C 94 % 0.24 C
406 29-01-2019 09:45:00 1.2 C 94 % 0.34 C
407 29-01-2019 09:50:00 1.3 C 94 % 0.44 C
408 29-01-2019 09:55:00 1.5 C 94 % 0.64 C
409 29-01-2019 10:00:00 1.6 C 93 % 0.59 C
410 29-01-2019 10:05:00 1.7 C 93 % 0.69 C
411 29-01-2019 10:10:00 1.8 C 92 % 0.64 C
412 29-01-2019 10:15:00 1.9 C 92 % 0.74 C
413 29-01-2019 10:20:00 2 C 92 % 0.84 C
414 29-01-2019 10:25:00 2.1 C 91 % 0.79 C
415 29-01-2019 10:30:00 2.2 C 91 % 0.89 C
416 29-01-2019 10:35:00 2.2 C 90 % 0.73 C
417 29-01-2019 10:40:00 2.3 C 90 % 0.83 C
418 29-01-2019 10:45:00 2.3 C 90 % 0.83 C
419 29-01-2019 10:50:00 2.3 C 89 % 0.68 C
420 29-01-2019 10:55:00 2.4 C 89 % 0.78 C
421 29-01-2019 11:00:00 2.5 C 89 % 0.88 C
422 29-01-2019 11:05:00 2.6 C 89 % 0.97 C
423 29-01-2019 11:10:00 2.7 C 88 % 0.92 C
424 29-01-2019 11:15:00 2.8 C 88 % 1.02 C
425 29-01-2019 11:20:00 2.8 C 88 % 1.02 C
Sensor: Nr:Datum:Temp:Feuchte:Taupunkt:
Aussen-T/F 426 29-01-2019 11:25:00 2.9 C 88 % 1.11 C
427 29-01-2019 11:30:00 2.9 C 88 % 1.11 C
428 29-01-2019 11:35:00 3 C 88 % 1.21 C
429 29-01-2019 11:40:00 3.1 C 87 % 1.15 C
430 29-01-2019 11:45:00 3.2 C 87 % 1.25 C
431 29-01-2019 11:50:00 3.2 C 87 % 1.25 C
432 29-01-2019 11:55:00 3.3 C 87 % 1.35 C
433 29-01-2019 12:00:00 3.4 C 86 % 1.29 C
434 29-01-2019 12:05:00 3.4 C 86 % 1.29 C
435 29-01-2019 12:10:00 3.5 C 86 % 1.38 C
436 29-01-2019 12:15:00 3.5 C 86 % 1.38 C
437 29-01-2019 12:20:00 3.6 C 86 % 1.48 C
438 29-01-2019 12:25:00 3.6 C 86 % 1.48 C
439 29-01-2019 12:30:00 3.7 C 86 % 1.58 C
440 29-01-2019 12:35:00 3.7 C 85 % 1.42 C
441 29-01-2019 12:40:00 3.8 C 85 % 1.52 C
442 29-01-2019 12:45:00 3.8 C 84 % 1.35 C
443 29-01-2019 12:50:00 3.8 C 84 % 1.35 C
444 29-01-2019 12:55:00 3.8 C 84 % 1.35 C
445 29-01-2019 13:00:00 3.8 C 84 % 1.35 C
446 29-01-2019 13:05:00 3.9 C 84 % 1.45 C
447 29-01-2019 13:10:00 3.9 C 84 % 1.45 C
448 29-01-2019 13:15:00 4 C 84 % 1.55 C
449 29-01-2019 13:20:00 4 C 84 % 1.55 C
450 29-01-2019 13:25:00 3.9 C 84 % 1.45 C
Sensor: Nr:Datum:Temp:Feuchte:Taupunkt:
Aussen-T/F 451 29-01-2019 13:30:00 4 C 84 % 1.55 C
452 29-01-2019 13:35:00 4 C 84 % 1.55 C
453 29-01-2019 13:40:00 4.1 C 84 % 1.65 C
454 29-01-2019 13:45:00 4 C 84 % 1.55 C
455 29-01-2019 13:50:00 4 C 83 % 1.38 C
456 29-01-2019 13:55:00 4 C 84 % 1.55 C
457 29-01-2019 14:00:00 4 C 83 % 1.38 C
458 29-01-2019 14:05:00 4.1 C 83 % 1.48 C
459 29-01-2019 14:10:00 4 C 83 % 1.38 C
460 29-01-2019 14:15:00 4 C 83 % 1.38 C
461 29-01-2019 14:20:00 3.9 C 82 % 1.12 C
462 29-01-2019 14:25:00 3.9 C 83 % 1.28 C
463 29-01-2019 14:30:00 3.8 C 83 % 1.19 C
464 29-01-2019 14:35:00 3.7 C 83 % 1.09 C
465 29-01-2019 14:40:00 3.7 C 83 % 1.09 C
466 29-01-2019 14:45:00 3.7 C 83 % 1.09 C
467 29-01-2019 14:50:00 3.7 C 82 % 0.92 C
468 29-01-2019 14:55:00 3.7 C 82 % 0.92 C
469 29-01-2019 15:00:00 3.7 C 81 % 0.75 C
470 29-01-2019 15:05:00 3.7 C 82 % 0.92 C
471 29-01-2019 15:10:00 3.7 C 82 % 0.92 C
472 29-01-2019 15:15:00 3.7 C 82 % 0.92 C
473 29-01-2019 15:20:00 3.8 C 81 % 0.85 C
474 29-01-2019 15:25:00 3.8 C 82 % 1.02 C
475 29-01-2019 15:30:00 3.8 C 82 % 1.02 C
Sensor: Nr:Datum:Temp:Feuchte:Taupunkt:
Aussen-T/F 476 29-01-2019 15:35:00 3.8 C 82 % 1.02 C
477 29-01-2019 15:40:00 3.9 C 81 % 0.95 C
478 29-01-2019 15:45:00 3.9 C 81 % 0.95 C
479 29-01-2019 15:50:00 3.9 C 81 % 0.95 C
480 29-01-2019 15:55:00 3.9 C 81 % 0.95 C
481 29-01-2019 16:00:00 4 C 81 % 1.04 C
482 29-01-2019 16:05:00 3.9 C 80 % 0.77 C
483 29-01-2019 16:10:00 3.9 C 81 % 0.95 C
484 29-01-2019 16:15:00 3.9 C 80 % 0.77 C
485 29-01-2019 16:20:00 3.9 C 80 % 0.77 C
486 29-01-2019 16:25:00 3.8 C 81 % 0.85 C
487 29-01-2019 16:30:00 3.8 C 83 % 1.19 C
488 29-01-2019 16:35:00 3.7 C 81 % 0.75 C
489 29-01-2019 16:40:00 3.7 C 83 % 1.09 C
490 29-01-2019 16:45:00 3.6 C 83 % 0.99 C
491 29-01-2019 16:50:00 3.6 C 83 % 0.99 C
492 29-01-2019 16:55:00 3.4 C 83 % 0.79 C
493 29-01-2019 17:00:00 3.4 C 84 % 0.96 C
494 29-01-2019 17:05:00 3.2 C 84 % 0.76 C
495 29-01-2019 17:10:00 3.1 C 83 % 0.5 C
496 29-01-2019 17:15:00 2.9 C 83 % 0.31 C
497 29-01-2019 17:20:00 2.9 C 84 % 0.47 C
498 29-01-2019 17:25:00 2.8 C 84 % 0.37 C
499 29-01-2019 17:30:00 2.7 C 84 % 0.27 C
500 29-01-2019 17:35:00 2.7 C 85 % 0.44 C
Sensor: Nr:Datum:Temp:Feuchte:Taupunkt:
Aussen-T/F 501 29-01-2019 17:40:00 2.6 C 86 % 0.5 C
502 29-01-2019 17:45:00 2.4 C 86 % 0.3 C
503 29-01-2019 17:50:00 2.4 C 86 % 0.3 C
504 29-01-2019 17:55:00 2.3 C 86 % 0.21 C
505 29-01-2019 18:00:00 2.2 C 86 % 0.11 C
506 29-01-2019 18:05:00 2 C 86 % -0.09 C
507 29-01-2019 18:10:00 1.8 C 86 % -0.29 C
508 29-01-2019 18:15:00 1.7 C 86 % -0.38 C
509 29-01-2019 18:20:00 1.4 C 87 % -0.52 C
510 29-01-2019 18:25:00 1.3 C 87 % -0.62 C
511 29-01-2019 18:30:00 1.1 C 87 % -0.82 C
512 29-01-2019 18:35:00 1 C 88 % -0.76 C
513 29-01-2019 18:40:00 0.9 C 88 % -0.86 C
514 29-01-2019 18:45:00 0.8 C 88 % -0.96 C
515 29-01-2019 18:50:00 0.7 C 89 % -0.9 C
516 29-01-2019 18:55:00 0.7 C 89 % -0.9 C
517 29-01-2019 19:00:00 0.6 C 89 % -1 C
518 29-01-2019 19:05:00 0.6 C 90 % -0.85 C
519 29-01-2019 19:10:00 0.5 C 90 % -0.95 C
520 29-01-2019 19:15:00 0.5 C 90 % -0.95 C
521 29-01-2019 19:20:00 0.4 C 90 % -1.04 C
522 29-01-2019 19:25:00 0.3 C 90 % -1.14 C
523 29-01-2019 19:30:00 0.2 C 90 % -1.24 C
524 29-01-2019 19:35:00 0.1 C 90 % -1.34 C
525 29-01-2019 19:40:00 0.1 C 90 % -1.34 C
Sensor: Nr:Datum:Temp:Feuchte:Taupunkt:
Aussen-T/F 526 29-01-2019 19:45:00 0 C 90 % -1.44 C
527 29-01-2019 19:50:00 -0.1 C 90 % -1.54 C
528 29-01-2019 19:55:00 -0.1 C 90 % -1.54 C
529 29-01-2019 20:00:00 -0.1 C 91 % -1.39 C
530 29-01-2019 20:05:00 -0.2 C 90 % -1.64 C
531 29-01-2019 20:10:00 -0.2 C 91 % -1.49 C
532 29-01-2019 20:15:00 -0.2 C 91 % -1.49 C
533 29-01-2019 20:20:00 -0.3 C 91 % -1.59 C
534 29-01-2019 20:25:00 -0.3 C 91 % -1.59 C
535 29-01-2019 20:30:00 -0.3 C 91 % -1.59 C
536 29-01-2019 20:35:00 -0.3 C 91 % -1.59 C
537 29-01-2019 20:40:00 -0.3 C 91 % -1.59 C
538 29-01-2019 20:45:00 -0.3 C 91 % -1.59 C
539 29-01-2019 20:50:00 -0.3 C 91 % -1.59 C
540 29-01-2019 20:55:00 -0.3 C 91 % -1.59 C
541 29-01-2019 21:00:00 -0.3 C 91 % -1.59 C
542 29-01-2019 21:05:00 -0.3 C 91 % -1.59 C
543 29-01-2019 21:10:00 -0.3 C 91 % -1.59 C
544 29-01-2019 21:15:00 -0.3 C 91 % -1.59 C
545 29-01-2019 21:20:00 -0.3 C 91 % -1.59 C
546 29-01-2019 21:25:00 -0.3 C 91 % -1.59 C
547 29-01-2019 21:30:00 -0.3 C 91 % -1.59 C
548 29-01-2019 21:35:00 -0.3 C 91 % -1.59 C
549 29-01-2019 21:40:00 -0.3 C 91 % -1.59 C
550 29-01-2019 21:45:00 -0.3 C 91 % -1.59 C
Sensor: Nr:Datum:Temp:Feuchte:Taupunkt:
Aussen-T/F 551 29-01-2019 21:50:00 -0.3 C 91 % -1.59 C
552 29-01-2019 21:55:00 -0.3 C 91 % -1.59 C
553 29-01-2019 22:00:00 -0.3 C 91 % -1.59 C
554 29-01-2019 22:05:00 -0.3 C 91 % -1.59 C
555 29-01-2019 22:10:00 -0.3 C 91 % -1.59 C
556 29-01-2019 22:15:00 -0.4 C 91 % -1.69 C
557 29-01-2019 22:20:00 -0.4 C 91 % -1.69 C
558 29-01-2019 22:25:00 -0.4 C 91 % -1.69 C
559 29-01-2019 22:30:00 -0.4 C 91 % -1.69 C
560 29-01-2019 22:35:00 -0.4 C 91 % -1.69 C
561 29-01-2019 22:40:00 -0.4 C 91 % -1.69 C
562 29-01-2019 22:45:00 -0.4 C 92 % -1.54 C
563 29-01-2019 22:50:00 -0.4 C 92 % -1.54 C
564 29-01-2019 22:55:00 -0.4 C 92 % -1.54 C
565 29-01-2019 23:00:00 -0.4 C 92 % -1.54 C
566 29-01-2019 23:05:00 -0.5 C 92 % -1.64 C
567 29-01-2019 23:10:00 -0.5 C 92 % -1.64 C
568 29-01-2019 23:15:00 -0.5 C 92 % -1.64 C
569 29-01-2019 23:20:00 -0.5 C 92 % -1.64 C
570 29-01-2019 23:25:00 -0.6 C 92 % -1.74 C
571 29-01-2019 23:30:00 -0.6 C 92 % -1.74 C
572 29-01-2019 23:35:00 -0.6 C 92 % -1.74 C
573 29-01-2019 23:40:00 -0.6 C 93 % -1.59 C
574 29-01-2019 23:45:00 -0.6 C 93 % -1.59 C
575 29-01-2019 23:50:00 -0.6 C 93 % -1.59 C
Sensor: Nr:Datum:Temp:Feuchte:Taupunkt:
Aussen-T/F 576 29-01-2019 23:55:00 -0.6 C 93 % -1.59 C
577 30-01-2019 00:00:00 -0.6 C 93 % -1.59 C
578 30-01-2019 00:05:00 -0.6 C 93 % -1.59 C
579 30-01-2019 00:10:00 -0.6 C 93 % -1.59 C
580 30-01-2019 00:15:00 -0.6 C 93 % -1.59 C
581 30-01-2019 00:20:00 -0.7 C 93 % -1.69 C
582 30-01-2019 00:25:00 -0.5 C 93 % -1.49 C
583 30-01-2019 00:30:00 -0.4 C 93 % -1.39 C
584 30-01-2019 00:35:00 -0.4 C 93 % -1.39 C
585 30-01-2019 00:40:00 -0.5 C 93 % -1.49 C
586 30-01-2019 00:45:00 -0.5 C 93 % -1.49 C
587 30-01-2019 00:50:00 -0.6 C 93 % -1.59 C
588 30-01-2019 00:55:00 -0.6 C 93 % -1.59 C
589 30-01-2019 01:00:00 -0.6 C 93 % -1.59 C
590 30-01-2019 01:05:00 -0.6 C 93 % -1.59 C
591 30-01-2019 01:10:00 -0.6 C 93 % -1.59 C
592 30-01-2019 01:15:00 -0.7 C 93 % -1.69 C
593 30-01-2019 01:20:00 -0.7 C 93 % -1.69 C
594 30-01-2019 01:25:00 -0.7 C 93 % -1.69 C
595 30-01-2019 01:30:00 -0.7 C 93 % -1.69 C
596 30-01-2019 01:35:00 -0.7 C 93 % -1.69 C
597 30-01-2019 01:40:00 -0.7 C 93 % -1.69 C
598 30-01-2019 01:45:00 -0.7 C 93 % -1.69 C
599 30-01-2019 01:50:00 -0.7 C 93 % -1.69 C
600 30-01-2019 01:55:00 -0.7 C 93 % -1.69 C
Sensor: Nr:Datum:Temp:Feuchte:Taupunkt:
Aussen-T/F 601 30-01-2019 02:00:00 -0.7 C 93 % -1.69 C
602 30-01-2019 02:05:00 -0.8 C 93 % -1.79 C
603 30-01-2019 02:10:00 -0.7 C 93 % -1.69 C
604 30-01-2019 02:15:00 -0.8 C 93 % -1.79 C
605 30-01-2019 02:20:00 -0.7 C 93 % -1.69 C
606 30-01-2019 02:25:00 -0.7 C 93 % -1.69 C
607 30-01-2019 02:30:00 -0.7 C 93 % -1.69 C
608 30-01-2019 02:35:00 -0.7 C 93 % -1.69 C
609 30-01-2019 02:40:00 -0.6 C 93 % -1.59 C
610 30-01-2019 02:45:00 -0.6 C 93 % -1.59 C
611 30-01-2019 02:50:00 -0.6 C 93 % -1.59 C
612 30-01-2019 02:55:00 -0.6 C 93 % -1.59 C
613 30-01-2019 03:00:00 -0.7 C 93 % -1.69 C
614 30-01-2019 03:05:00 -0.7 C 93 % -1.69 C
615 30-01-2019 03:10:00 -0.7 C 93 % -1.69 C
616 30-01-2019 03:15:00 -0.8 C 92 % -1.93 C
617 30-01-2019 03:20:00 -0.8 C 93 % -1.79 C
618 30-01-2019 03:25:00 -0.8 C 93 % -1.79 C
619 30-01-2019 03:30:00 -0.8 C 92 % -1.93 C
620 30-01-2019 03:35:00 -0.8 C 92 % -1.93 C
621 30-01-2019 03:40:00 -0.8 C 92 % -1.93 C
622 30-01-2019 03:45:00 -0.9 C 92 % -2.03 C
623 30-01-2019 03:50:00 -0.9 C 92 % -2.03 C
624 30-01-2019 03:55:00 -0.9 C 92 % -2.03 C
625 30-01-2019 04:00:00 -0.9 C 92 % -2.03 C
Sensor: Nr:Datum:Temp:Feuchte:Taupunkt:
Aussen-T/F 626 30-01-2019 04:05:00 -0.9 C 92 % -2.03 C
627 30-01-2019 04:10:00 -0.9 C 92 % -2.03 C
628 30-01-2019 04:15:00 -0.9 C 92 % -2.03 C
629 30-01-2019 04:20:00 -0.9 C 93 % -1.89 C
630 30-01-2019 04:25:00 -0.9 C 93 % -1.89 C
631 30-01-2019 04:30:00 -0.9 C 93 % -1.89 C
632 30-01-2019 04:35:00 -0.9 C 93 % -1.89 C
633 30-01-2019 04:40:00 -0.9 C 93 % -1.89 C
634 30-01-2019 04:45:00 -0.8 C 93 % -1.79 C
635 30-01-2019 04:50:00 -0.8 C 93 % -1.79 C
636 30-01-2019 04:55:00 -0.8 C 93 % -1.79 C
637 30-01-2019 05:00:00 -0.7 C 93 % -1.69 C
638 30-01-2019 05:05:00 -0.7 C 92 % -1.83 C
639 30-01-2019 05:10:00 -0.6 C 92 % -1.74 C
640 30-01-2019 05:15:00 -0.6 C 92 % -1.74 C
641 30-01-2019 05:20:00 -0.6 C 92 % -1.74 C
642 30-01-2019 05:25:00 -0.6 C 92 % -1.74 C
643 30-01-2019 05:30:00 -0.5 C 92 % -1.64 C
644 30-01-2019 05:35:00 -0.5 C 92 % -1.64 C
645 30-01-2019 05:40:00 -0.4 C 92 % -1.54 C
646 30-01-2019 05:45:00 -0.4 C 92 % -1.54 C
647 30-01-2019 05:50:00 -0.3 C 92 % -1.44 C
648 30-01-2019 05:55:00 -0.3 C 91 % -1.59 C
649 30-01-2019 06:00:00 -0.3 C 91 % -1.59 C
650 30-01-2019 06:05:00 -0.2 C 91 % -1.49 C
Sensor: Nr:Datum:Temp:Feuchte:Taupunkt:
Aussen-T/F 651 30-01-2019 06:10:00 -0.2 C 91 % -1.49 C
652 30-01-2019 06:15:00 -0.2 C 91 % -1.49 C
653 30-01-2019 06:20:00 -0.2 C 91 % -1.49 C
654 30-01-2019 06:25:00 -0.1 C 91 % -1.39 C
655 30-01-2019 06:30:00 -0.1 C 91 % -1.39 C
656 30-01-2019 06:35:00 -0.1 C 90 % -1.54 C
657 30-01-2019 06:40:00 -0.1 C 90 % -1.54 C
658 30-01-2019 06:45:00 0 C 90 % -1.44 C
659 30-01-2019 06:50:00 0.1 C 90 % -1.34 C
660 30-01-2019 06:55:00 0.1 C 90 % -1.34 C
661 30-01-2019 07:00:00 0.2 C 89 % -1.39 C
662 30-01-2019 07:05:00 0.2 C 89 % -1.39 C
663 30-01-2019 07:10:00 0.3 C 88 % -1.45 C
664 30-01-2019 07:15:00 0.3 C 88 % -1.45 C
665 30-01-2019 07:20:00 0.3 C 88 % -1.45 C
666 30-01-2019 07:25:00 0.3 C 88 % -1.45 C
667 30-01-2019 07:30:00 0.4 C 88 % -1.35 C
668 30-01-2019 07:35:00 0.3 C 88 % -1.45 C
669 30-01-2019 07:40:00 0.3 C 88 % -1.45 C
670 30-01-2019 07:45:00 0.4 C 89 % -1.2 C
671 30-01-2019 07:50:00 0.4 C 89 % -1.2 C
672 30-01-2019 07:55:00 0.3 C 90 % -1.14 C
673 30-01-2019 08:00:00 0.3 C 90 % -1.14 C
674 30-01-2019 08:05:00 0.3 C 90 % -1.14 C
675 30-01-2019 08:10:00 0.3 C 91 % -0.99 C
Sensor: Nr:Datum:Temp:Feuchte:Taupunkt:
Aussen-T/F 676 30-01-2019 08:15:00 0.2 C 91 % -1.09 C
677 30-01-2019 08:20:00 0.2 C 91 % -1.09 C
678 30-01-2019 08:25:00 0.2 C 92 % -0.94 C
679 30-01-2019 08:30:00 0.1 C 92 % -1.04 C
680 30-01-2019 08:35:00 0.1 C 92 % -1.04 C
681 30-01-2019 08:40:00 0.1 C 92 % -1.04 C
682 30-01-2019 08:45:00 0.1 C 93 % -0.89 C
683 30-01-2019 08:50:00 0.1 C 93 % -0.89 C
684 30-01-2019 08:55:00 0 C 93 % -0.99 C
685 30-01-2019 09:00:00 0 C 93 % -0.99 C
686 30-01-2019 09:05:00 0 C 93 % -0.99 C
687 30-01-2019 09:10:00 0 C 94 % -0.85 C
688 30-01-2019 09:15:00 0 C 94 % -0.85 C
689 30-01-2019 09:20:00 0 C 94 % -0.85 C
690 30-01-2019 09:25:00 0 C 94 % -0.85 C
691 30-01-2019 09:30:00 0 C 94 % -0.85 C
692 30-01-2019 09:35:00 0 C 94 % -0.85 C
693 30-01-2019 09:40:00 0 C 94 % -0.85 C
694 30-01-2019 09:45:00 0.1 C 94 % -0.75 C
695 30-01-2019 09:50:00 0.1 C 94 % -0.75 C
696 30-01-2019 09:55:00 0.1 C 94 % -0.75 C
697 30-01-2019 10:00:00 0.1 C 94 % -0.75 C
698 30-01-2019 10:05:00 0.1 C 94 % -0.75 C
699 30-01-2019 10:10:00 0.1 C 94 % -0.75 C
700 30-01-2019 10:15:00 0.2 C 94 % -0.65 C
Sensor: Nr:Datum:Temp:Feuchte:Taupunkt:
Aussen-T/F 701 30-01-2019 10:20:00 0.2 C 94 % -0.65 C
702 30-01-2019 10:25:00 0.3 C 94 % -0.55 C
703 30-01-2019 10:30:00 0.3 C 94 % -0.55 C
704 30-01-2019 10:35:00 0.4 C 94 % -0.45 C
705 30-01-2019 10:40:00 0.4 C 94 % -0.45 C
706 30-01-2019 10:45:00 0.4 C 94 % -0.45 C
707 30-01-2019 10:50:00 0.5 C 94 % -0.35 C
708 30-01-2019 10:55:00 0.6 C 94 % -0.25 C
709 30-01-2019 11:00:00 0.6 C 94 % -0.25 C
710 30-01-2019 11:05:00 0.7 C 94 % -0.15 C
711 30-01-2019 11:10:00 0.7 C 94 % -0.15 C
712 30-01-2019 11:15:00 0.8 C 94 % -0.05 C
713 30-01-2019 11:20:00 0.8 C 94 % -0.05 C
714 30-01-2019 11:25:00 0.8 C 94 % -0.05 C
715 30-01-2019 11:30:00 0.9 C 94 % 0.05 C
716 30-01-2019 11:35:00 0.9 C 94 % 0.05 C
717 30-01-2019 11:40:00 0.9 C 94 % 0.05 C
718 30-01-2019 11:45:00 0.9 C 94 % 0.05 C
719 30-01-2019 11:50:00 0.9 C 94 % 0.05 C
720 30-01-2019 11:55:00 1 C 94 % 0.15 C
721 30-01-2019 12:00:00 1.1 C 94 % 0.24 C
722 30-01-2019 12:05:00 1.1 C 94 % 0.24 C
723 30-01-2019 12:10:00 1.2 C 94 % 0.34 C
724 30-01-2019 12:15:00 1.2 C 94 % 0.34 C
725 30-01-2019 12:20:00 1.3 C 95 % 0.59 C
Sensor: Nr:Datum:Temp:Feuchte:Taupunkt:
Aussen-T/F 726 30-01-2019 12:25:00 1.4 C 94 % 0.54 C
727 30-01-2019 12:30:00 1.4 C 94 % 0.54 C
728 30-01-2019 12:35:00 1.5 C 94 % 0.64 C
729 30-01-2019 12:40:00 1.6 C 94 % 0.74 C
730 30-01-2019 12:45:00 1.7 C 94 % 0.84 C
731 30-01-2019 12:50:00 1.7 C 94 % 0.84 C
732 30-01-2019 12:55:00 1.7 C 94 % 0.84 C
733 30-01-2019 13:00:00 1.7 C 94 % 0.84 C
734 30-01-2019 13:05:00 1.7 C 94 % 0.84 C
735 30-01-2019 13:10:00 1.6 C 94 % 0.74 C
736 30-01-2019 13:15:00 1.6 C 94 % 0.74 C
737 30-01-2019 13:20:00 1.6 C 94 % 0.74 C
738 30-01-2019 13:25:00 1.6 C 94 % 0.74 C
739 30-01-2019 13:30:00 1.7 C 94 % 0.84 C
740 30-01-2019 13:35:00 1.7 C 94 % 0.84 C
741 30-01-2019 13:40:00 1.7 C 94 % 0.84 C
742 30-01-2019 13:45:00 1.7 C 94 % 0.84 C
743 30-01-2019 13:50:00 1.7 C 94 % 0.84 C
744 30-01-2019 13:55:00 1.7 C 94 % 0.84 C
745 30-01-2019 14:00:00 1.7 C 94 % 0.84 C
746 30-01-2019 14:05:00 1.8 C 94 % 0.94 C
747 30-01-2019 14:10:00 1.8 C 94 % 0.94 C
748 30-01-2019 14:15:00 1.8 C 93 % 0.79 C
749 30-01-2019 14:20:00 1.7 C 93 % 0.69 C
750 30-01-2019 14:25:00 1.7 C 93 % 0.69 C
Sensor: Nr:Datum:Temp:Feuchte:Taupunkt:
Aussen-T/F 751 30-01-2019 14:30:00 1.7 C 94 % 0.84 C
752 30-01-2019 14:35:00 1.7 C 94 % 0.84 C
753 30-01-2019 14:40:00 1.7 C 94 % 0.84 C
754 30-01-2019 14:45:00 1.7 C 94 % 0.84 C
755 30-01-2019 14:50:00 1.6 C 94 % 0.74 C
756 30-01-2019 14:55:00 1.6 C 94 % 0.74 C
757 30-01-2019 15:00:00 1.6 C 94 % 0.74 C
758 30-01-2019 15:05:00 1.6 C 94 % 0.74 C
759 30-01-2019 15:10:00 1.6 C 94 % 0.74 C
760 30-01-2019 15:15:00 1.6 C 94 % 0.74 C
761 30-01-2019 15:20:00 1.5 C 94 % 0.64 C
762 30-01-2019 15:25:00 1.4 C 94 % 0.54 C
763 30-01-2019 15:30:00 1.4 C 94 % 0.54 C
764 30-01-2019 15:35:00 1.4 C 94 % 0.54 C
765 30-01-2019 15:40:00 1.5 C 94 % 0.64 C
766 30-01-2019 15:45:00 1.4 C 94 % 0.54 C
767 30-01-2019 15:50:00 1.4 C 94 % 0.54 C
768 30-01-2019 15:55:00 1.3 C 94 % 0.44 C
769 30-01-2019 16:00:00 1.3 C 94 % 0.44 C
770 30-01-2019 16:05:00 1.3 C 94 % 0.44 C
771 30-01-2019 16:10:00 1.2 C 94 % 0.34 C
772 30-01-2019 16:15:00 1.2 C 95 % 0.49 C
773 30-01-2019 16:20:00 1.2 C 95 % 0.49 C
774 30-01-2019 16:25:00 1.1 C 95 % 0.39 C
775 30-01-2019 16:30:00 1.1 C 95 % 0.39 C
Sensor: Nr:Datum:Temp:Feuchte:Taupunkt:
Aussen-T/F 776 30-01-2019 16:35:00 1.1 C 95 % 0.39 C
777 30-01-2019 16:40:00 1.1 C 95 % 0.39 C
778 30-01-2019 16:45:00 1.1 C 95 % 0.39 C
779 30-01-2019 16:50:00 1.1 C 95 % 0.39 C
780 30-01-2019 16:55:00 1.1 C 95 % 0.39 C
781 30-01-2019 17:00:00 1.1 C 95 % 0.39 C
782 30-01-2019 17:05:00 1.1 C 95 % 0.39 C
783 30-01-2019 17:10:00 1.1 C 95 % 0.39 C
784 30-01-2019 17:15:00 1.1 C 95 % 0.39 C
785 30-01-2019 17:20:00 1.1 C 95 % 0.39 C
786 30-01-2019 17:25:00 1.1 C 95 % 0.39 C
787 30-01-2019 17:30:00 1.1 C 95 % 0.39 C
788 30-01-2019 17:35:00 1.1 C 95 % 0.39 C
789 30-01-2019 17:40:00 1.1 C 95 % 0.39 C
790 30-01-2019 17:45:00 1.1 C 95 % 0.39 C
791 30-01-2019 17:50:00 1.1 C 95 % 0.39 C
792 30-01-2019 17:55:00 1.1 C 95 % 0.39 C
793 30-01-2019 18:00:00 1.1 C 95 % 0.39 C
794 30-01-2019 18:05:00 1.1 C 95 % 0.39 C
795 30-01-2019 18:10:00 1.1 C 95 % 0.39 C
796 30-01-2019 18:15:00 1 C 95 % 0.29 C
797 30-01-2019 18:20:00 1.1 C 95 % 0.39 C
798 30-01-2019 18:25:00 1 C 95 % 0.29 C
799 30-01-2019 18:30:00 1.1 C 95 % 0.39 C
800 30-01-2019 18:35:00 1 C 95 % 0.29 C
Sensor: Nr:Datum:Temp:Feuchte:Taupunkt:
Aussen-T/F 801 30-01-2019 18:40:00 1.1 C 95 % 0.39 C
802 30-01-2019 18:45:00 1.1 C 95 % 0.39 C
803 30-01-2019 18:50:00 1.1 C 95 % 0.39 C
804 30-01-2019 18:55:00 1.1 C 95 % 0.39 C
805 30-01-2019 19:00:00 1.1 C 95 % 0.39 C
806 30-01-2019 19:05:00 1.1 C 95 % 0.39 C
807 30-01-2019 19:10:00 1.1 C 95 % 0.39 C
808 30-01-2019 19:15:00 1.1 C 96 % 0.54 C
809 30-01-2019 19:20:00 1.1 C 96 % 0.54 C
810 30-01-2019 19:25:00 1.1 C 96 % 0.54 C
811 30-01-2019 19:30:00 1.1 C 96 % 0.54 C
812 30-01-2019 19:35:00 1.1 C 96 % 0.54 C
813 30-01-2019 19:40:00 1.1 C 96 % 0.54 C
814 30-01-2019 19:45:00 1.1 C 96 % 0.54 C
815 30-01-2019 19:50:00 1 C 96 % 0.44 C
816 30-01-2019 19:55:00 1 C 96 % 0.44 C
817 30-01-2019 20:00:00 1 C 96 % 0.44 C
818 30-01-2019 20:05:00 1 C 96 % 0.44 C
819 30-01-2019 20:10:00 1 C 96 % 0.44 C
820 30-01-2019 20:15:00 1 C 96 % 0.44 C
821 30-01-2019 20:20:00 1.1 C 96 % 0.54 C
822 30-01-2019 20:25:00 1.1 C 96 % 0.54 C
823 30-01-2019 20:30:00 1.1 C 96 % 0.54 C
824 30-01-2019 20:35:00 1.1 C 96 % 0.54 C
825 30-01-2019 20:40:00 1 C 95 % 0.29 C
Sensor: Nr:Datum:Temp:Feuchte:Taupunkt:
Aussen-T/F 826 30-01-2019 20:45:00 1 C 95 % 0.29 C
827 30-01-2019 20:50:00 1 C 95 % 0.29 C
828 30-01-2019 20:55:00 1 C 95 % 0.29 C
829 30-01-2019 21:00:00 1 C 94 % 0.15 C
830 30-01-2019 21:05:00 1 C 94 % 0.15 C
831 30-01-2019 21:10:00 1 C 94 % 0.15 C
832 30-01-2019 21:15:00 1 C 94 % 0.15 C
833 30-01-2019 21:20:00 1 C 94 % 0.15 C
834 30-01-2019 21:25:00 1 C 94 % 0.15 C
835 30-01-2019 21:30:00 1 C 94 % 0.15 C
836 30-01-2019 21:35:00 0.9 C 94 % 0.05 C
837 30-01-2019 21:40:00 0.9 C 94 % 0.05 C
838 30-01-2019 21:45:00 0.9 C 94 % 0.05 C
839 30-01-2019 21:50:00 0.9 C 94 % 0.05 C
840 30-01-2019 21:55:00 0.9 C 94 % 0.05 C
841 30-01-2019 22:00:00 0.8 C 94 % -0.05 C
842 30-01-2019 22:05:00 0.8 C 93 % -0.2 C
843 30-01-2019 22:10:00 0.8 C 93 % -0.2 C
844 30-01-2019 22:15:00 0.8 C 93 % -0.2 C
845 30-01-2019 22:20:00 0.7 C 93 % -0.3 C
846 30-01-2019 22:25:00 0.7 C 93 % -0.3 C
847 30-01-2019 22:30:00 0.7 C 93 % -0.3 C
848 30-01-2019 22:35:00 0.7 C 93 % -0.3 C
849 30-01-2019 22:40:00 0.7 C 93 % -0.3 C
850 30-01-2019 22:45:00 0.7 C 92 % -0.45 C
Sensor: Nr:Datum:Temp:Feuchte:Taupunkt:
Aussen-T/F 851 30-01-2019 22:50:00 0.6 C 92 % -0.55 C
852 30-01-2019 22:55:00 0.6 C 92 % -0.55 C
853 30-01-2019 23:00:00 0.6 C 92 % -0.55 C
854 30-01-2019 23:05:00 0.4 C 92 % -0.74 C
855 30-01-2019 23:10:00 0.4 C 92 % -0.74 C
856 30-01-2019 23:15:00 0.3 C 92 % -0.84 C
857 30-01-2019 23:20:00 0.3 C 92 % -0.84 C
858 30-01-2019 23:25:00 0.3 C 92 % -0.84 C
859 30-01-2019 23:30:00 0.2 C 92 % -0.94 C
860 30-01-2019 23:35:00 0.2 C 93 % -0.79 C
861 30-01-2019 23:40:00 0.1 C 92 % -1.04 C
862 30-01-2019 23:45:00 0.1 C 93 % -0.89 C
863 30-01-2019 23:50:00 0 C 93 % -0.99 C
864 30-01-2019 23:55:00 -0.1 C 93 % -1.09 C
865 31-01-2019 00:00:00 -0.2 C 93 % -1.19 C
866 31-01-2019 00:05:00 -0.2 C 93 % -1.19 C
867 31-01-2019 00:10:00 -0.2 C 93 % -1.19 C
868 31-01-2019 00:15:00 -0.2 C 93 % -1.19 C
869 31-01-2019 00:20:00 -0.3 C 93 % -1.29 C
870 31-01-2019 00:25:00 -0.3 C 93 % -1.29 C
871 31-01-2019 00:30:00 -0.4 C 93 % -1.39 C
872 31-01-2019 00:35:00 -0.4 C 93 % -1.39 C
873 31-01-2019 00:40:00 -0.5 C 93 % -1.49 C
874 31-01-2019 00:45:00 -0.6 C 93 % -1.59 C
875 31-01-2019 00:50:00 -0.7 C 93 % -1.69 C
Sensor: Nr:Datum:Temp:Feuchte:Taupunkt:
Aussen-T/F 876 31-01-2019 00:55:00 -0.8 C 93 % -1.79 C
877 31-01-2019 01:00:00 -1 C 93 % -1.99 C
878 31-01-2019 01:05:00 -1.1 C 93 % -2.09 C
879 31-01-2019 01:10:00 -1.2 C 93 % -2.18 C
880 31-01-2019 01:15:00 -1.3 C 93 % -2.28 C
881 31-01-2019 01:20:00 -1.4 C 93 % -2.38 C
882 31-01-2019 01:25:00 -1.4 C 94 % -2.24 C
883 31-01-2019 01:30:00 -1.4 C 94 % -2.24 C
884 31-01-2019 01:35:00 -1.4 C 94 % -2.24 C
885 31-01-2019 01:40:00 -1.3 C 94 % -2.14 C
886 31-01-2019 01:45:00 -1.2 C 95 % -1.9 C
887 31-01-2019 01:50:00 -1.1 C 95 % -1.8 C
888 31-01-2019 01:55:00 -1.1 C 95 % -1.8 C
889 31-01-2019 02:00:00 -1.1 C 94 % -1.94 C
890 31-01-2019 02:05:00 -1.2 C 94 % -2.04 C
891 31-01-2019 02:10:00 -1.2 C 94 % -2.04 C
892 31-01-2019 02:15:00 -1.2 C 94 % -2.04 C
893 31-01-2019 02:20:00 -1.3 C 94 % -2.14 C
894 31-01-2019 02:25:00 -1.3 C 95 % -2 C
895 31-01-2019 02:30:00 -1.3 C 94 % -2.14 C
896 31-01-2019 02:35:00 -1.3 C 95 % -2 C
897 31-01-2019 02:40:00 -1.4 C 95 % -2.1 C
898 31-01-2019 02:45:00 -1.4 C 95 % -2.1 C
899 31-01-2019 02:50:00 -1.4 C 95 % -2.1 C
900 31-01-2019 02:55:00 -1.4 C 95 % -2.1 C
Sensor: Nr:Datum:Temp:Feuchte:Taupunkt:
Aussen-T/F 901 31-01-2019 03:00:00 -1.4 C 95 % -2.1 C
902 31-01-2019 03:05:00 -1.4 C 95 % -2.1 C
903 31-01-2019 03:10:00 -1.4 C 95 % -2.1 C
904 31-01-2019 03:15:00 -1.4 C 95 % -2.1 C
905 31-01-2019 03:20:00 -1.4 C 95 % -2.1 C
906 31-01-2019 03:25:00 -1.4 C 95 % -2.1 C
907 31-01-2019 03:30:00 -1.3 C 95 % -2 C
908 31-01-2019 03:35:00 -1.3 C 95 % -2 C
909 31-01-2019 03:40:00 -1.2 C 95 % -1.9 C
910 31-01-2019 03:45:00 -1.2 C 95 % -1.9 C
911 31-01-2019 03:50:00 -1.2 C 95 % -1.9 C
912 31-01-2019 03:55:00 -1.1 C 95 % -1.8 C
913 31-01-2019 04:00:00 -0.9 C 96 % -1.46 C
914 31-01-2019 04:05:00 -0.9 C 96 % -1.46 C
915 31-01-2019 04:10:00 -0.8 C 96 % -1.36 C
916 31-01-2019 04:15:00 -0.8 C 96 % -1.36 C
917 31-01-2019 04:20:00 -0.8 C 96 % -1.36 C
918 31-01-2019 04:25:00 -0.8 C 96 % -1.36 C
919 31-01-2019 04:30:00 -0.8 C 95 % -1.5 C
920 31-01-2019 04:35:00 -0.8 C 95 % -1.5 C
921 31-01-2019 04:40:00 -0.8 C 95 % -1.5 C
922 31-01-2019 04:45:00 -0.8 C 95 % -1.5 C
923 31-01-2019 04:50:00 -0.7 C 95 % -1.4 C
924 31-01-2019 04:55:00 -0.7 C 96 % -1.26 C
925 31-01-2019 05:00:00 -0.7 C 96 % -1.26 C
Sensor: Nr:Datum:Temp:Feuchte:Taupunkt:
Aussen-T/F 926 31-01-2019 05:05:00 -0.7 C 96 % -1.26 C
927 31-01-2019 05:10:00 -0.7 C 96 % -1.26 C
928 31-01-2019 05:15:00 -0.7 C 96 % -1.26 C
929 31-01-2019 05:20:00 -0.6 C 96 % -1.16 C
930 31-01-2019 05:25:00 -0.6 C 96 % -1.16 C
931 31-01-2019 05:30:00 -0.6 C 96 % -1.16 C
932 31-01-2019 05:35:00 -0.6 C 96 % -1.16 C
933 31-01-2019 05:40:00 -0.6 C 96 % -1.16 C
934 31-01-2019 05:45:00 -0.6 C 96 % -1.16 C
935 31-01-2019 05:50:00 -0.5 C 96 % -1.06 C
936 31-01-2019 05:55:00 -0.5 C 96 % -1.06 C
937 31-01-2019 06:00:00 -0.5 C 96 % -1.06 C
938 31-01-2019 06:05:00 -0.5 C 96 % -1.06 C
939 31-01-2019 06:10:00 -0.4 C 96 % -0.96 C
940 31-01-2019 06:15:00 -0.4 C 96 % -0.96 C
941 31-01-2019 06:20:00 -0.4 C 96 % -0.96 C
942 31-01-2019 06:25:00 -0.4 C 96 % -0.96 C
943 31-01-2019 06:30:00 -0.4 C 96 % -0.96 C
944 31-01-2019 06:35:00 -0.4 C 96 % -0.96 C
945 31-01-2019 06:40:00 -0.4 C 96 % -0.96 C
946 31-01-2019 06:45:00 -0.4 C 96 % -0.96 C
947 31-01-2019 06:50:00 -0.4 C 96 % -0.96 C
948 31-01-2019 06:55:00 -0.4 C 96 % -0.96 C
949 31-01-2019 07:00:00 -0.4 C 96 % -0.96 C
950 31-01-2019 07:05:00 -0.5 C 96 % -1.06 C
Sensor: Nr:Datum:Temp:Feuchte:Taupunkt:
Aussen-T/F 951 31-01-2019 07:10:00 -0.4 C 96 % -0.96 C
952 31-01-2019 07:15:00 -0.4 C 96 % -0.96 C
953 31-01-2019 07:20:00 -0.4 C 96 % -0.96 C
954 31-01-2019 07:25:00 -0.4 C 96 % -0.96 C
955 31-01-2019 07:30:00 -0.3 C 96 % -0.86 C
956 31-01-2019 07:35:00 -0.3 C 96 % -0.86 C
957 31-01-2019 07:40:00 -0.3 C 96 % -0.86 C
958 31-01-2019 07:45:00 -0.3 C 96 % -0.86 C
959 31-01-2019 07:50:00 -0.3 C 96 % -0.86 C
960 31-01-2019 07:55:00 -0.3 C 96 % -0.86 C
961 31-01-2019 08:00:00 -0.3 C 96 % -0.86 C
962 31-01-2019 08:05:00 -0.3 C 96 % -0.86 C
963 31-01-2019 08:10:00 -0.3 C 96 % -0.86 C
964 31-01-2019 08:15:00 -0.3 C 96 % -0.86 C
965 31-01-2019 08:20:00 -0.3 C 96 % -0.86 C
966 31-01-2019 08:25:00 -0.3 C 96 % -0.86 C
967 31-01-2019 08:30:00 -0.3 C 96 % -0.86 C
968 31-01-2019 08:35:00 -0.3 C 96 % -0.86 C
969 31-01-2019 08:40:00 -0.3 C 96 % -0.86 C
970 31-01-2019 08:45:00 -0.3 C 96 % -0.86 C
971 31-01-2019 08:50:00 -0.3 C 96 % -0.86 C
972 31-01-2019 08:55:00 -0.2 C 96 % -0.76 C
973 31-01-2019 09:00:00 -0.2 C 96 % -0.76 C
974 31-01-2019 09:05:00 -0.1 C 96 % -0.66 C
975 31-01-2019 09:10:00 -0.1 C 96 % -0.66 C
Sensor: Nr:Datum:Temp:Feuchte:Taupunkt:
Aussen-T/F 976 31-01-2019 09:15:00 0.1 C 96 % -0.46 C
977 31-01-2019 09:20:00 0.1 C 96 % -0.46 C
978 31-01-2019 09:25:00 0.2 C 96 % -0.36 C
979 31-01-2019 09:30:00 0.3 C 96 % -0.26 C
980 31-01-2019 09:35:00 0.3 C 96 % -0.26 C
981 31-01-2019 09:40:00 0.3 C 96 % -0.26 C
982 31-01-2019 09:45:00 0.3 C 96 % -0.26 C
983 31-01-2019 09:50:00 0.3 C 96 % -0.26 C
984 31-01-2019 09:55:00 0.4 C 96 % -0.16 C
985 31-01-2019 10:00:00 0.5 C 96 % -0.06 C
986 31-01-2019 10:05:00 0.5 C 96 % -0.06 C
987 31-01-2019 10:10:00 0.6 C 96 % 0.04 C
988 31-01-2019 10:15:00 0.6 C 96 % 0.04 C
989 31-01-2019 10:20:00 0.6 C 95 % -0.11 C
990 31-01-2019 10:25:00 0.6 C 95 % -0.11 C
991 31-01-2019 10:30:00 0.7 C 95 % -0.01 C
992 31-01-2019 10:35:00 0.8 C 95 % 0.09 C
993 31-01-2019 10:40:00 0.8 C 95 % 0.09 C
994 31-01-2019 10:45:00 0.9 C 95 % 0.19 C
995 31-01-2019 10:50:00 1 C 95 % 0.29 C
996 31-01-2019 10:55:00 1.1 C 94 % 0.24 C
997 31-01-2019 11:00:00 1.1 C 94 % 0.24 C
998 31-01-2019 11:05:00 1.2 C 95 % 0.49 C
999 31-01-2019 11:10:00 1.3 C 95 % 0.59 C
1000 31-01-2019 11:15:00 1.3 C 94 % 0.44 C
Sensor: Nr:Datum:Temp:Feuchte:Taupunkt:
Aussen-T/F 1001 31-01-2019 11:20:00 1.4 C 94 % 0.54 C
1002 31-01-2019 11:25:00 1.4 C 94 % 0.54 C
1003 31-01-2019 11:30:00 1.4 C 94 % 0.54 C
1004 31-01-2019 11:35:00 1.4 C 94 % 0.54 C
1005 31-01-2019 11:40:00 1.4 C 94 % 0.54 C
1006 31-01-2019 11:45:00 1.5 C 94 % 0.64 C
1007 31-01-2019 11:50:00 1.6 C 94 % 0.74 C
1008 31-01-2019 11:55:00 1.7 C 94 % 0.84 C
1009 31-01-2019 12:00:00 1.8 C 94 % 0.94 C
1010 31-01-2019 12:05:00 1.7 C 94 % 0.84 C
1011 31-01-2019 12:10:00 1.7 C 94 % 0.84 C
1012 31-01-2019 12:15:00 1.8 C 94 % 0.94 C
1013 31-01-2019 12:20:00 1.8 C 94 % 0.94 C
1014 31-01-2019 12:25:00 1.9 C 94 % 1.04 C
1015 31-01-2019 12:30:00 1.9 C 94 % 1.04 C
1016 31-01-2019 12:35:00 1.9 C 94 % 1.04 C
1017 31-01-2019 12:40:00 1.9 C 94 % 1.04 C
1018 31-01-2019 12:45:00 1.9 C 94 % 1.04 C
1019 31-01-2019 12:50:00 1.8 C 94 % 0.94 C
1020 31-01-2019 12:55:00 1.7 C 93 % 0.69 C
1021 31-01-2019 13:00:00 1.7 C 93 % 0.69 C
1022 31-01-2019 13:05:00 1.7 C 94 % 0.84 C
1023 31-01-2019 13:10:00 1.6 C 94 % 0.74 C
1024 31-01-2019 13:15:00 1.6 C 93 % 0.59 C
1025 31-01-2019 13:20:00 1.6 C 94 % 0.74 C
Sensor: Nr:Datum:Temp:Feuchte:Taupunkt:
Aussen-T/F 1026 31-01-2019 13:25:00 1.5 C 94 % 0.64 C
1027 31-01-2019 13:30:00 1.5 C 94 % 0.64 C
1028 31-01-2019 13:35:00 1.5 C 94 % 0.64 C
1029 31-01-2019 13:40:00 1.5 C 94 % 0.64 C
1030 31-01-2019 13:45:00 1.4 C 94 % 0.54 C
1031 31-01-2019 13:50:00 1.4 C 94 % 0.54 C
1032 31-01-2019 13:55:00 1.4 C 94 % 0.54 C
1033 31-01-2019 14:00:00 1.4 C 94 % 0.54 C
1034 31-01-2019 14:05:00 1.4 C 94 % 0.54 C
1035 31-01-2019 14:10:00 1.5 C 94 % 0.64 C
1036 31-01-2019 14:15:00 1.6 C 95 % 0.89 C
1037 31-01-2019 14:20:00 1.7 C 95 % 0.99 C
1038 31-01-2019 14:25:00 1.9 C 95 % 1.19 C
1039 31-01-2019 14:30:00 2 C 95 % 1.29 C
1040 31-01-2019 14:35:00 2.1 C 95 % 1.38 C
1041 31-01-2019 14:40:00 2.1 C 95 % 1.38 C
1042 31-01-2019 14:45:00 2.1 C 95 % 1.38 C
1043 31-01-2019 14:50:00 2.1 C 94 % 1.24 C
1044 31-01-2019 14:55:00 2.1 C 94 % 1.24 C
1045 31-01-2019 15:00:00 2.2 C 94 % 1.34 C
1046 31-01-2019 15:05:00 2.3 C 94 % 1.44 C
1047 31-01-2019 15:10:00 2.4 C 94 % 1.54 C
1048 31-01-2019 15:15:00 2.4 C 94 % 1.54 C
1049 31-01-2019 15:20:00 2.4 C 94 % 1.54 C
1050 31-01-2019 15:25:00 2.3 C 93 % 1.29 C
Sensor: Nr:Datum:Temp:Feuchte:Taupunkt:
Aussen-T/F 1051 31-01-2019 15:30:00 2.3 C 93 % 1.29 C
1052 31-01-2019 15:35:00 2.3 C 93 % 1.29 C
1053 31-01-2019 15:40:00 2.2 C 93 % 1.19 C
1054 31-01-2019 15:45:00 2.1 C 93 % 1.09 C
1055 31-01-2019 15:50:00 2.1 C 93 % 1.09 C
1056 31-01-2019 15:55:00 2 C 93 % 0.99 C
1057 31-01-2019 16:00:00 1.9 C 93 % 0.89 C
1058 31-01-2019 16:05:00 1.8 C 93 % 0.79 C
1059 31-01-2019 16:10:00 1.7 C 93 % 0.69 C
1060 31-01-2019 16:15:00 1.7 C 93 % 0.69 C
1061 31-01-2019 16:20:00 1.6 C 93 % 0.59 C
1062 31-01-2019 16:25:00 1.6 C 93 % 0.59 C
1063 31-01-2019 16:30:00 1.6 C 93 % 0.59 C
1064 31-01-2019 16:35:00 1.5 C 94 % 0.64 C
1065 31-01-2019 16:40:00 1.4 C 93 % 0.4 C
1066 31-01-2019 16:45:00 1.4 C 93 % 0.4 C
1067 31-01-2019 16:50:00 1.3 C 94 % 0.44 C
1068 31-01-2019 16:55:00 1.3 C 94 % 0.44 C
1069 31-01-2019 17:00:00 1.2 C 94 % 0.34 C
1070 31-01-2019 17:05:00 1.2 C 94 % 0.34 C
1071 31-01-2019 17:10:00 1.1 C 94 % 0.24 C
1072 31-01-2019 17:15:00 1.1 C 94 % 0.24 C
1073 31-01-2019 17:20:00 1.1 C 94 % 0.24 C
1074 31-01-2019 17:25:00 0.9 C 94 % 0.05 C
1075 31-01-2019 17:30:00 0.9 C 94 % 0.05 C
Sensor: Nr:Datum:Temp:Feuchte:Taupunkt:
Aussen-T/F 1076 31-01-2019 17:35:00 0.8 C 94 % -0.05 C
1077 31-01-2019 17:40:00 0.8 C 94 % -0.05 C
1078 31-01-2019 17:45:00 0.8 C 94 % -0.05 C
1079 31-01-2019 17:50:00 0.7 C 94 % -0.15 C
1080 31-01-2019 17:55:00 0.6 C 94 % -0.25 C
1081 31-01-2019 18:00:00 0.4 C 94 % -0.45 C
1082 31-01-2019 18:05:00 0.4 C 94 % -0.45 C
1083 31-01-2019 18:10:00 0.3 C 94 % -0.55 C
1084 31-01-2019 18:15:00 0.3 C 94 % -0.55 C
1085 31-01-2019 18:20:00 0.2 C 94 % -0.65 C
1086 31-01-2019 18:25:00 0.2 C 94 % -0.65 C
1087 31-01-2019 18:30:00 0 C 94 % -0.85 C
1088 31-01-2019 18:35:00 -0.1 C 94 % -0.95 C
1089 31-01-2019 18:40:00 -0.2 C 94 % -1.05 C
1090 31-01-2019 18:45:00 -0.2 C 94 % -1.05 C
1091 31-01-2019 18:50:00 -0.2 C 94 % -1.05 C
1092 31-01-2019 18:55:00 -0.3 C 94 % -1.15 C
1093 31-01-2019 19:00:00 -0.3 C 94 % -1.15 C
1094 31-01-2019 19:05:00 -0.4 C 94 % -1.25 C
1095 31-01-2019 19:10:00 -0.6 C 94 % -1.44 C
1096 31-01-2019 19:15:00 -0.8 C 93 % -1.79 C
1097 31-01-2019 19:20:00 -1 C 94 % -1.84 C
1098 31-01-2019 19:25:00 -1.2 C 93 % -2.18 C
1099 31-01-2019 19:30:00 -1.3 C 94 % -2.14 C
1100 31-01-2019 19:35:00 -1.4 C 94 % -2.24 C
Sensor: Nr:Datum:Temp:Feuchte:Taupunkt:
Aussen-T/F 1101 31-01-2019 19:40:00 -1.5 C 94 % -2.34 C
1102 31-01-2019 19:45:00 -1.6 C 94 % -2.44 C
1103 31-01-2019 19:50:00 -1.6 C 94 % -2.44 C
1104 31-01-2019 19:55:00 -1.7 C 94 % -2.54 C
1105 31-01-2019 20:00:00 -1.7 C 94 % -2.54 C
1106 31-01-2019 20:05:00 -1.8 C 94 % -2.64 C
1107 31-01-2019 20:10:00 -1.8 C 94 % -2.64 C
1108 31-01-2019 20:15:00 -1.9 C 94 % -2.73 C
1109 31-01-2019 20:20:00 -1.9 C 94 % -2.73 C
1110 31-01-2019 20:25:00 -1.9 C 94 % -2.73 C
1111 31-01-2019 20:30:00 -2 C 94 % -2.83 C
1112 31-01-2019 20:35:00 -2.1 C 94 % -2.93 C
1113 31-01-2019 20:40:00 -2.1 C 94 % -2.93 C
1114 31-01-2019 20:45:00 -2.1 C 94 % -2.93 C
1115 31-01-2019 20:50:00 -2.1 C 95 % -2.79 C
1116 31-01-2019 20:55:00 -2.1 C 95 % -2.79 C
1117 31-01-2019 21:00:00 -2.1 C 95 % -2.79 C
1118 31-01-2019 21:05:00 -2.1 C 95 % -2.79 C
1119 31-01-2019 21:10:00 -2.1 C 95 % -2.79 C
1120 31-01-2019 21:15:00 -2.1 C 95 % -2.79 C
1121 31-01-2019 21:20:00 -2.1 C 95 % -2.79 C
1122 31-01-2019 21:25:00 -2.1 C 95 % -2.79 C
1123 31-01-2019 21:30:00 -2.1 C 95 % -2.79 C
1124 31-01-2019 21:35:00 -2 C 95 % -2.69 C
1125 31-01-2019 21:40:00 -1.9 C 95 % -2.59 C
Sensor: Nr:Datum:Temp:Feuchte:Taupunkt:
Aussen-T/F 1126 31-01-2019 21:45:00 -1.9 C 95 % -2.59 C
1127 31-01-2019 21:50:00 -1.8 C 95 % -2.49 C
1128 31-01-2019 21:55:00 -1.8 C 95 % -2.49 C
1129 31-01-2019 22:00:00 -1.7 C 95 % -2.39 C
1130 31-01-2019 22:05:00 -1.7 C 96 % -2.25 C
1131 31-01-2019 22:10:00 -1.6 C 96 % -2.15 C
1132 31-01-2019 22:15:00 -1.6 C 96 % -2.15 C
1133 31-01-2019 22:20:00 -1.6 C 96 % -2.15 C
1134 31-01-2019 22:25:00 -1.6 C 96 % -2.15 C
1135 31-01-2019 22:30:00 -1.6 C 96 % -2.15 C
1136 31-01-2019 22:35:00 -1.6 C 96 % -2.15 C
1137 31-01-2019 22:40:00 -1.6 C 96 % -2.15 C
1138 31-01-2019 22:45:00 -1.6 C 96 % -2.15 C
1139 31-01-2019 22:50:00 -1.5 C 96 % -2.05 C
1140 31-01-2019 22:55:00 -1.5 C 96 % -2.05 C
1141 31-01-2019 23:00:00 -1.4 C 96 % -1.95 C
1142 31-01-2019 23:05:00 -1.4 C 96 % -1.95 C
1143 31-01-2019 23:10:00 -1.3 C 96 % -1.85 C
1144 31-01-2019 23:15:00 -1.3 C 96 % -1.85 C
1145 31-01-2019 23:20:00 -1.3 C 96 % -1.85 C
1146 31-01-2019 23:25:00 -1.3 C 96 % -1.85 C
1147 31-01-2019 23:30:00 -1.2 C 96 % -1.75 C
1148 31-01-2019 23:35:00 -1.2 C 96 % -1.75 C
1149 31-01-2019 23:40:00 -1.1 C 96 % -1.66 C
1150 31-01-2019 23:45:00 -1.1 C 96 % -1.66 C
Sensor: Nr:Datum:Temp:Feuchte:Taupunkt:
Aussen-T/F 1151 31-01-2019 23:50:00 -1.1 C 96 % -1.66 C
1152 31-01-2019 23:55:00 -1 C 96 % -1.56 C
1153 01-02-2019 00:00:00 -0.9 C 96 % -1.46 C
1154 01-02-2019 00:05:00 -0.9 C 96 % -1.46 C
1155 01-02-2019 00:10:00 -0.9 C 96 % -1.46 C
1156 01-02-2019 00:15:00 -0.8 C 96 % -1.36 C
1157 01-02-2019 00:20:00 -0.8 C 96 % -1.36 C
1158 01-02-2019 00:25:00 -0.8 C 96 % -1.36 C
1159 01-02-2019 00:30:00 -0.8 C 96 % -1.36 C
1160 01-02-2019 00:35:00 -0.7 C 96 % -1.26 C
1161 01-02-2019 00:40:00 -0.7 C 96 % -1.26 C
1162 01-02-2019 00:45:00 -0.7 C 96 % -1.26 C
1163 01-02-2019 00:50:00 -0.7 C 96 % -1.26 C
1164 01-02-2019 00:55:00 -0.6 C 96 % -1.16 C
1165 01-02-2019 01:00:00 -0.6 C 96 % -1.16 C
1166 01-02-2019 01:05:00 -0.6 C 96 % -1.16 C
1167 01-02-2019 01:10:00 -0.5 C 96 % -1.06 C
1168 01-02-2019 01:15:00 -0.5 C 96 % -1.06 C
1169 01-02-2019 01:20:00 -0.4 C 96 % -0.96 C
1170 01-02-2019 01:25:00 -0.4 C 96 % -0.96 C
1171 01-02-2019 01:30:00 -0.4 C 96 % -0.96 C
1172 01-02-2019 01:35:00 -0.4 C 96 % -0.96 C
1173 01-02-2019 01:40:00 -0.4 C 96 % -0.96 C
1174 01-02-2019 01:45:00 -0.4 C 96 % -0.96 C
1175 01-02-2019 01:50:00 -0.4 C 96 % -0.96 C
Sensor: Nr:Datum:Temp:Feuchte:Taupunkt:
Aussen-T/F 1176 01-02-2019 01:55:00 -0.3 C 96 % -0.86 C
1177 01-02-2019 02:00:00 -0.3 C 96 % -0.86 C
1178 01-02-2019 02:05:00 -0.3 C 96 % -0.86 C
1179 01-02-2019 02:10:00 -0.2 C 96 % -0.76 C
1180 01-02-2019 02:15:00 -0.2 C 96 % -0.76 C
1181 01-02-2019 02:20:00 -0.2 C 96 % -0.76 C
1182 01-02-2019 02:25:00 -0.2 C 96 % -0.76 C
1183 01-02-2019 02:30:00 -0.1 C 96 % -0.66 C
1184 01-02-2019 02:35:00 -0.1 C 96 % -0.66 C
1185 01-02-2019 02:40:00 -0.1 C 96 % -0.66 C
1186 01-02-2019 02:45:00 0 C 96 % -0.56 C
1187 01-02-2019 02:50:00 0.1 C 96 % -0.46 C
1188 01-02-2019 02:55:00 0.1 C 96 % -0.46 C
1189 01-02-2019 03:00:00 0.2 C 96 % -0.36 C
1190 01-02-2019 03:05:00 0.3 C 96 % -0.26 C
1191 01-02-2019 03:10:00 0.4 C 97 % -0.02 C
1192 01-02-2019 03:15:00 0.4 C 97 % -0.02 C
1193 01-02-2019 03:20:00 0.5 C 97 % 0.08 C
1194 01-02-2019 03:25:00 0.6 C 97 % 0.18 C
1195 01-02-2019 03:30:00 0.6 C 96 % 0.04 C
1196 01-02-2019 03:35:00 0.7 C 97 % 0.28 C
1197 01-02-2019 03:40:00 0.7 C 97 % 0.28 C
1198 01-02-2019 03:45:00 0.8 C 97 % 0.38 C
1199 01-02-2019 03:50:00 0.8 C 97 % 0.38 C
1200 01-02-2019 03:55:00 0.9 C 97 % 0.48 C
Sensor: Nr:Datum:Temp:Feuchte:Taupunkt:
Aussen-T/F 1201 01-02-2019 04:00:00 0.9 C 97 % 0.48 C
1202 01-02-2019 04:05:00 0.9 C 97 % 0.48 C
1203 01-02-2019 04:10:00 0.9 C 97 % 0.48 C
1204 01-02-2019 04:15:00 1 C 96 % 0.44 C
1205 01-02-2019 04:20:00 1.1 C 96 % 0.54 C
1206 01-02-2019 04:25:00 1.1 C 96 % 0.54 C
1207 01-02-2019 04:30:00 1.1 C 96 % 0.54 C
1208 01-02-2019 04:35:00 1.2 C 96 % 0.63 C
1209 01-02-2019 04:40:00 1.2 C 96 % 0.63 C
1210 01-02-2019 04:45:00 1.2 C 96 % 0.63 C
1211 01-02-2019 04:50:00 1.2 C 96 % 0.63 C
1212 01-02-2019 04:55:00 1.2 C 96 % 0.63 C
1213 01-02-2019 05:00:00 1.2 C 96 % 0.63 C
1214 01-02-2019 05:05:00 1.2 C 95 % 0.49 C
1215 01-02-2019 05:10:00 1.1 C 96 % 0.54 C
1216 01-02-2019 05:15:00 1.2 C 96 % 0.63 C
1217 01-02-2019 05:20:00 1.1 C 96 % 0.54 C
1218 01-02-2019 05:25:00 1.2 C 96 % 0.63 C
1219 01-02-2019 05:30:00 1.2 C 96 % 0.63 C
1220 01-02-2019 05:35:00 1.2 C 96 % 0.63 C
1221 01-02-2019 05:40:00 1.2 C 96 % 0.63 C
1222 01-02-2019 05:45:00 1.2 C 96 % 0.63 C
1223 01-02-2019 05:50:00 1.2 C 96 % 0.63 C
1224 01-02-2019 05:55:00 1.2 C 96 % 0.63 C
1225 01-02-2019 06:00:00 1.2 C 96 % 0.63 C
Sensor: Nr:Datum:Temp:Feuchte:Taupunkt:
Aussen-T/F 1226 01-02-2019 06:05:00 1.2 C 96 % 0.63 C
1227 01-02-2019 06:10:00 1.2 C 96 % 0.63 C
1228 01-02-2019 06:15:00 1.2 C 96 % 0.63 C
1229 01-02-2019 06:20:00 1.1 C 95 % 0.39 C
1230 01-02-2019 06:25:00 1.1 C 95 % 0.39 C
1231 01-02-2019 06:30:00 1.1 C 96 % 0.54 C
1232 01-02-2019 06:35:00 1.1 C 96 % 0.54 C
1233 01-02-2019 06:40:00 1.1 C 96 % 0.54 C
1234 01-02-2019 06:45:00 1.1 C 96 % 0.54 C
1235 01-02-2019 06:50:00 1.1 C 96 % 0.54 C
1236 01-02-2019 06:55:00 1.1 C 96 % 0.54 C
1237 01-02-2019 07:00:00 1.1 C 96 % 0.54 C
1238 01-02-2019 07:05:00 1.1 C 96 % 0.54 C
1239 01-02-2019 07:10:00 1.1 C 96 % 0.54 C
1240 01-02-2019 07:15:00 1.1 C 96 % 0.54 C
1241 01-02-2019 07:20:00 1.1 C 96 % 0.54 C
1242 01-02-2019 07:25:00 1.2 C 96 % 0.63 C
1243 01-02-2019 07:30:00 1.2 C 96 % 0.63 C
1244 01-02-2019 07:35:00 1.2 C 96 % 0.63 C
1245 01-02-2019 07:40:00 1.2 C 96 % 0.63 C
1246 01-02-2019 07:45:00 1.3 C 96 % 0.73 C
1247 01-02-2019 07:50:00 1.4 C 96 % 0.83 C
1248 01-02-2019 07:55:00 1.4 C 96 % 0.83 C
1249 01-02-2019 08:00:00 1.4 C 96 % 0.83 C
1250 01-02-2019 08:05:00 1.3 C 96 % 0.73 C
Sensor: Nr:Datum:Temp:Feuchte:Taupunkt:
Aussen-T/F 1251 01-02-2019 08:10:00 1.3 C 96 % 0.73 C
1252 01-02-2019 08:15:00 1.3 C 96 % 0.73 C
1253 01-02-2019 08:20:00 1.3 C 96 % 0.73 C
1254 01-02-2019 08:25:00 1.3 C 96 % 0.73 C
1255 01-02-2019 08:30:00 1.3 C 96 % 0.73 C
1256 01-02-2019 08:35:00 1.2 C 96 % 0.63 C
1257 01-02-2019 08:40:00 1.2 C 96 % 0.63 C
1258 01-02-2019 08:45:00 1.2 C 96 % 0.63 C
1259 01-02-2019 08:50:00 1.4 C 96 % 0.83 C
1260 01-02-2019 08:55:00 1.6 C 97 % 1.18 C
1261 01-02-2019 09:00:00 1.8 C 96 % 1.23 C
1262 01-02-2019 09:05:00 1.8 C 96 % 1.23 C
1263 01-02-2019 09:10:00 1.7 C 96 % 1.13 C
1264 01-02-2019 09:15:00 1.7 C 96 % 1.13 C
1265 01-02-2019 09:20:00 1.6 C 96 % 1.03 C
1266 01-02-2019 09:25:00 1.5 C 96 % 0.93 C
1267 01-02-2019 09:30:00 1.4 C 96 % 0.83 C
1268 01-02-2019 09:35:00 1.4 C 96 % 0.83 C
1269 01-02-2019 09:40:00 1.4 C 96 % 0.83 C
1270 01-02-2019 09:45:00 1.3 C 96 % 0.73 C
1271 01-02-2019 09:50:00 1.4 C 96 % 0.83 C
1272 01-02-2019 09:55:00 1.5 C 96 % 0.93 C
1273 01-02-2019 10:00:00 1.6 C 96 % 1.03 C
1274 01-02-2019 10:05:00 1.8 C 96 % 1.23 C
1275 01-02-2019 10:10:00 1.9 C 96 % 1.33 C
Sensor: Nr:Datum:Temp:Feuchte:Taupunkt:
Aussen-T/F 1276 01-02-2019 10:15:00 2 C 96 % 1.43 C
1277 01-02-2019 10:20:00 2.1 C 96 % 1.53 C
1278 01-02-2019 10:25:00 2.2 C 96 % 1.63 C
1279 01-02-2019 10:30:00 2.3 C 96 % 1.73 C
1280 01-02-2019 10:35:00 2.4 C 96 % 1.83 C
1281 01-02-2019 10:40:00 2.4 C 96 % 1.83 C
1282 01-02-2019 10:45:00 2.6 C 96 % 2.03 C
1283 01-02-2019 10:50:00 2.6 C 96 % 2.03 C
1284 01-02-2019 10:55:00 2.7 C 96 % 2.13 C
1285 01-02-2019 11:00:00 2.7 C 96 % 2.13 C
1286 01-02-2019 11:05:00 2.8 C 96 % 2.23 C
1287 01-02-2019 11:10:00 2.9 C 96 % 2.33 C
1288 01-02-2019 11:15:00 3 C 95 % 2.28 C
1289 01-02-2019 11:20:00 3.1 C 95 % 2.38 C
1290 01-02-2019 11:25:00 3.1 C 95 % 2.38 C
1291 01-02-2019 11:30:00 3.2 C 95 % 2.48 C
1292 01-02-2019 11:35:00 3.3 C 95 % 2.58 C
1293 01-02-2019 11:40:00 3.3 C 95 % 2.58 C
1294 01-02-2019 11:45:00 3.4 C 94 % 2.53 C
1295 01-02-2019 11:50:00 3.5 C 94 % 2.63 C
1296 01-02-2019 11:55:00 3.6 C 94 % 2.73 C
1297 01-02-2019 12:00:00 3.6 C 94 % 2.73 C
1298 01-02-2019 12:05:00 3.7 C 94 % 2.83 C
1299 01-02-2019 12:10:00 3.7 C 94 % 2.83 C
1300 01-02-2019 12:15:00 3.7 C 93 % 2.68 C
Sensor: Nr:Datum:Temp:Feuchte:Taupunkt:
Aussen-T/F 1301 01-02-2019 12:20:00 3.6 C 93 % 2.58 C
1302 01-02-2019 12:25:00 3.4 C 93 % 2.38 C
1303 01-02-2019 12:30:00 3.2 C 93 % 2.18 C
1304 01-02-2019 12:35:00 3.1 C 93 % 2.08 C
1305 01-02-2019 12:40:00 2.8 C 93 % 1.78 C
1306 01-02-2019 12:45:00 2.7 C 93 % 1.68 C
1307 01-02-2019 12:50:00 2.6 C 93 % 1.59 C
1308 01-02-2019 12:55:00 2.6 C 94 % 1.73 C
1309 01-02-2019 13:00:00 2.7 C 94 % 1.83 C
1310 01-02-2019 13:05:00 2.8 C 95 % 2.08 C
1311 01-02-2019 13:10:00 2.8 C 94 % 1.93 C
1312 01-02-2019 13:15:00 2.8 C 94 % 1.93 C
1313 01-02-2019 13:20:00 2.7 C 94 % 1.83 C
1314 01-02-2019 13:25:00 2.6 C 94 % 1.73 C
1315 01-02-2019 13:30:00 2.6 C 95 % 1.88 C
1316 01-02-2019 13:35:00 2.8 C 95 % 2.08 C
1317 01-02-2019 13:40:00 2.8 C 95 % 2.08 C
1318 01-02-2019 13:45:00 2.8 C 94 % 1.93 C
1319 01-02-2019 13:50:00 2.7 C 94 % 1.83 C
1320 01-02-2019 13:55:00 2.7 C 94 % 1.83 C
1321 01-02-2019 14:00:00 2.8 C 95 % 2.08 C
1322 01-02-2019 14:05:00 2.8 C 95 % 2.08 C
1323 01-02-2019 14:10:00 3.1 C 95 % 2.38 C
1324 01-02-2019 14:15:00 3.3 C 96 % 2.72 C
1325 01-02-2019 14:20:00 3.6 C 96 % 3.02 C
Sensor: Nr:Datum:Temp:Feuchte:Taupunkt:
Aussen-T/F 1326 01-02-2019 14:25:00 3.8 C 96 % 3.22 C
1327 01-02-2019 14:30:00 3.9 C 95 % 3.17 C
1328 01-02-2019 14:35:00 3.8 C 94 % 2.93 C
1329 01-02-2019 14:40:00 3.7 C 94 % 2.83 C
1330 01-02-2019 14:45:00 3.7 C 94 % 2.83 C
1331 01-02-2019 14:50:00 3.7 C 94 % 2.83 C
1332 01-02-2019 14:55:00 3.7 C 94 % 2.83 C
1333 01-02-2019 15:00:00 3.7 C 94 % 2.83 C
1334 01-02-2019 15:05:00 3.5 C 93 % 2.48 C
1335 01-02-2019 15:10:00 3.4 C 93 % 2.38 C
1336 01-02-2019 15:15:00 3.3 C 94 % 2.43 C
1337 01-02-2019 15:20:00 3.3 C 94 % 2.43 C
1338 01-02-2019 15:25:00 3.2 C 94 % 2.33 C
1339 01-02-2019 15:30:00 3.1 C 94 % 2.23 C
1340 01-02-2019 15:35:00 3 C 94 % 2.13 C
1341 01-02-2019 15:40:00 3 C 94 % 2.13 C
1342 01-02-2019 15:45:00 3.1 C 94 % 2.23 C
1343 01-02-2019 15:50:00 3.1 C 94 % 2.23 C
1344 01-02-2019 15:55:00 3.1 C 95 % 2.38 C
1345 01-02-2019 16:00:00 3.1 C 95 % 2.38 C
1346 01-02-2019 16:05:00 3.1 C 95 % 2.38 C
1347 01-02-2019 16:10:00 3.1 C 95 % 2.38 C
1348 01-02-2019 16:15:00 3.1 C 95 % 2.38 C
1349 01-02-2019 16:20:00 3 C 95 % 2.28 C
1350 01-02-2019 16:25:00 2.9 C 95 % 2.18 C
Sensor: Nr:Datum:Temp:Feuchte:Taupunkt:
Aussen-T/F 1351 01-02-2019 16:30:00 2.8 C 95 % 2.08 C
1352 01-02-2019 16:35:00 2.7 C 94 % 1.83 C
1353 01-02-2019 16:40:00 2.7 C 95 % 1.98 C
1354 01-02-2019 16:45:00 2.7 C 95 % 1.98 C
1355 01-02-2019 16:50:00 2.6 C 95 % 1.88 C
1356 01-02-2019 16:55:00 2.6 C 95 % 1.88 C
1357 01-02-2019 17:00:00 2.5 C 95 % 1.78 C
1358 01-02-2019 17:05:00 2.6 C 95 % 1.88 C
1359 01-02-2019 17:10:00 2.6 C 95 % 1.88 C
1360 01-02-2019 17:15:00 2.6 C 95 % 1.88 C
1361 01-02-2019 17:20:00 2.6 C 95 % 1.88 C
1362 01-02-2019 17:25:00 2.5 C 95 % 1.78 C
1363 01-02-2019 17:30:00 2.5 C 95 % 1.78 C
1364 01-02-2019 17:35:00 2.5 C 96 % 1.93 C
1365 01-02-2019 17:40:00 2.5 C 96 % 1.93 C
1366 01-02-2019 17:45:00 2.6 C 96 % 2.03 C
1367 01-02-2019 17:50:00 2.5 C 96 % 1.93 C
1368 01-02-2019 17:55:00 2.5 C 96 % 1.93 C
1369 01-02-2019 18:00:00 2.5 C 96 % 1.93 C
1370 01-02-2019 18:05:00 2.5 C 96 % 1.93 C
1371 01-02-2019 18:10:00 2.6 C 96 % 2.03 C
1372 01-02-2019 18:15:00 2.6 C 96 % 2.03 C
1373 01-02-2019 18:20:00 2.5 C 96 % 1.93 C
1374 01-02-2019 18:25:00 2.5 C 96 % 1.93 C
1375 01-02-2019 18:30:00 2.4 C 96 % 1.83 C
Sensor: Nr:Datum:Temp:Feuchte:Taupunkt:
Aussen-T/F 1376 01-02-2019 18:35:00 2.4 C 96 % 1.83 C
1377 01-02-2019 18:40:00 2.4 C 96 % 1.83 C
1378 01-02-2019 18:45:00 2.4 C 96 % 1.83 C
1379 01-02-2019 18:50:00 2.4 C 96 % 1.83 C
1380 01-02-2019 18:55:00 2.4 C 96 % 1.83 C
1381 01-02-2019 19:00:00 2.4 C 96 % 1.83 C
1382 01-02-2019 19:05:00 2.4 C 96 % 1.83 C
1383 01-02-2019 19:10:00 2.3 C 96 % 1.73 C
1384 01-02-2019 19:15:00 2.3 C 96 % 1.73 C
1385 01-02-2019 19:20:00 2.3 C 96 % 1.73 C
1386 01-02-2019 19:25:00 2.3 C 96 % 1.73 C
1387 01-02-2019 19:30:00 2.2 C 96 % 1.63 C
1388 01-02-2019 19:35:00 2.2 C 96 % 1.63 C
1389 01-02-2019 19:40:00 2.2 C 96 % 1.63 C
1390 01-02-2019 19:45:00 2.1 C 96 % 1.53 C
1391 01-02-2019 19:50:00 2.1 C 96 % 1.53 C
1392 01-02-2019 19:55:00 2.1 C 96 % 1.53 C
1393 01-02-2019 20:00:00 2.1 C 96 % 1.53 C
1394 01-02-2019 20:05:00 2.1 C 96 % 1.53 C
1395 01-02-2019 20:10:00 2 C 96 % 1.43 C
1396 01-02-2019 20:15:00 2 C 96 % 1.43 C
1397 01-02-2019 20:20:00 1.9 C 96 % 1.33 C
1398 01-02-2019 20:25:00 2 C 96 % 1.43 C
1399 01-02-2019 20:30:00 2 C 96 % 1.43 C
1400 01-02-2019 20:35:00 2.1 C 96 % 1.53 C
Sensor: Nr:Datum:Temp:Feuchte:Taupunkt:
Aussen-T/F 1401 01-02-2019 20:40:00 2.1 C 96 % 1.53 C
1402 01-02-2019 20:45:00 2 C 96 % 1.43 C
1403 01-02-2019 20:50:00 2 C 96 % 1.43 C
1404 01-02-2019 20:55:00 1.9 C 96 % 1.33 C
1405 01-02-2019 21:00:00 1.9 C 96 % 1.33 C
1406 01-02-2019 21:05:00 1.9 C 96 % 1.33 C
1407 01-02-2019 21:10:00 1.9 C 96 % 1.33 C
1408 01-02-2019 21:15:00 1.9 C 96 % 1.33 C
1409 01-02-2019 21:20:00 1.9 C 96 % 1.33 C
1410 01-02-2019 21:25:00 1.8 C 96 % 1.23 C
1411 01-02-2019 21:30:00 1.8 C 96 % 1.23 C
1412 01-02-2019 21:35:00 1.8 C 96 % 1.23 C
1413 01-02-2019 21:40:00 1.7 C 96 % 1.13 C
1414 01-02-2019 21:45:00 1.7 C 96 % 1.13 C
1415 01-02-2019 21:50:00 1.7 C 96 % 1.13 C
1416 01-02-2019 21:55:00 1.7 C 96 % 1.13 C
1417 01-02-2019 22:00:00 1.7 C 96 % 1.13 C
1418 01-02-2019 22:05:00 1.7 C 96 % 1.13 C
1419 01-02-2019 22:10:00 1.7 C 96 % 1.13 C
1420 01-02-2019 22:15:00 1.8 C 96 % 1.23 C
1421 01-02-2019 22:20:00 1.7 C 96 % 1.13 C
1422 01-02-2019 22:25:00 1.7 C 96 % 1.13 C
1423 01-02-2019 22:30:00 1.7 C 96 % 1.13 C
1424 01-02-2019 22:35:00 1.7 C 96 % 1.13 C
1425 01-02-2019 22:40:00 1.6 C 96 % 1.03 C
Sensor: Nr:Datum:Temp:Feuchte:Taupunkt:
Aussen-T/F 1426 01-02-2019 22:45:00 1.6 C 96 % 1.03 C
1427 01-02-2019 22:50:00 1.6 C 96 % 1.03 C
1428 01-02-2019 22:55:00 1.6 C 96 % 1.03 C
1429 01-02-2019 23:00:00 1.5 C 96 % 0.93 C
1430 01-02-2019 23:05:00 1.5 C 96 % 0.93 C
1431 01-02-2019 23:10:00 1.5 C 96 % 0.93 C
1432 01-02-2019 23:15:00 1.5 C 97 % 1.08 C
1433 01-02-2019 23:20:00 1.6 C 97 % 1.18 C
1434 01-02-2019 23:25:00 1.6 C 97 % 1.18 C
1435 01-02-2019 23:30:00 1.6 C 97 % 1.18 C
1436 01-02-2019 23:35:00 1.6 C 97 % 1.18 C
1437 01-02-2019 23:40:00 1.6 C 97 % 1.18 C
1438 01-02-2019 23:45:00 1.7 C 97 % 1.28 C
1439 01-02-2019 23:50:00 1.7 C 97 % 1.28 C
1440 01-02-2019 23:55:00 1.7 C 97 % 1.28 C
1441 02-02-2019 00:00:00 1.7 C 97 % 1.28 C
1442 02-02-2019 00:05:00 1.7 C 97 % 1.28 C
1443 02-02-2019 00:10:00 1.7 C 97 % 1.28 C
1444 02-02-2019 00:15:00 1.7 C 97 % 1.28 C
1445 02-02-2019 00:20:00 1.7 C 97 % 1.28 C
1446 02-02-2019 00:25:00 1.7 C 97 % 1.28 C
1447 02-02-2019 00:30:00 1.7 C 97 % 1.28 C
1448 02-02-2019 00:35:00 1.8 C 97 % 1.38 C
1449 02-02-2019 00:40:00 1.8 C 97 % 1.38 C
1450 02-02-2019 00:45:00 1.8 C 97 % 1.38 C
Sensor: Nr:Datum:Temp:Feuchte:Taupunkt:
Aussen-T/F 1451 02-02-2019 00:50:00 1.8 C 97 % 1.38 C
1452 02-02-2019 00:55:00 1.8 C 97 % 1.38 C
1453 02-02-2019 01:00:00 1.8 C 97 % 1.38 C
1454 02-02-2019 01:05:00 1.8 C 97 % 1.38 C
1455 02-02-2019 01:10:00 1.8 C 97 % 1.38 C
1456 02-02-2019 01:15:00 1.8 C 97 % 1.38 C
1457 02-02-2019 01:20:00 1.8 C 97 % 1.38 C
1458 02-02-2019 01:25:00 1.8 C 97 % 1.38 C
1459 02-02-2019 01:30:00 1.8 C 97 % 1.38 C
1460 02-02-2019 01:35:00 1.8 C 97 % 1.38 C
1461 02-02-2019 01:40:00 1.8 C 97 % 1.38 C
1462 02-02-2019 01:45:00 1.9 C 97 % 1.48 C
1463 02-02-2019 01:50:00 1.9 C 97 % 1.48 C
1464 02-02-2019 01:55:00 1.9 C 97 % 1.48 C
1465 02-02-2019 02:00:00 1.9 C 97 % 1.48 C
1466 02-02-2019 02:05:00 1.9 C 97 % 1.48 C
1467 02-02-2019 02:10:00 1.9 C 97 % 1.48 C
1468 02-02-2019 02:15:00 1.8 C 97 % 1.38 C
1469 02-02-2019 02:20:00 1.8 C 97 % 1.38 C
1470 02-02-2019 02:25:00 1.8 C 97 % 1.38 C
1471 02-02-2019 02:30:00 1.8 C 97 % 1.38 C
1472 02-02-2019 02:35:00 1.8 C 97 % 1.38 C
1473 02-02-2019 02:40:00 1.8 C 97 % 1.38 C
1474 02-02-2019 02:45:00 1.8 C 97 % 1.38 C
1475 02-02-2019 02:50:00 1.8 C 97 % 1.38 C
Sensor: Nr:Datum:Temp:Feuchte:Taupunkt:
Aussen-T/F 1476 02-02-2019 02:55:00 1.8 C 97 % 1.38 C
1477 02-02-2019 03:00:00 1.8 C 97 % 1.38 C
1478 02-02-2019 03:05:00 1.8 C 97 % 1.38 C
1479 02-02-2019 03:10:00 1.7 C 97 % 1.28 C
1480 02-02-2019 03:15:00 1.7 C 97 % 1.28 C
1481 02-02-2019 03:20:00 1.7 C 97 % 1.28 C
1482 02-02-2019 03:25:00 1.7 C 97 % 1.28 C
1483 02-02-2019 03:30:00 1.7 C 97 % 1.28 C
1484 02-02-2019 03:35:00 1.7 C 97 % 1.28 C
1485 02-02-2019 03:40:00 1.7 C 97 % 1.28 C
1486 02-02-2019 03:45:00 1.8 C 97 % 1.38 C
1487 02-02-2019 03:50:00 1.9 C 97 % 1.48 C
1488 02-02-2019 03:55:00 1.9 C 97 % 1.48 C
1489 02-02-2019 04:00:00 1.9 C 97 % 1.48 C
1490 02-02-2019 04:05:00 1.9 C 97 % 1.48 C
1491 02-02-2019 04:10:00 1.8 C 97 % 1.38 C
1492 02-02-2019 04:15:00 1.8 C 97 % 1.38 C
1493 02-02-2019 04:20:00 1.8 C 97 % 1.38 C
1494 02-02-2019 04:25:00 1.8 C 97 % 1.38 C
1495 02-02-2019 04:30:00 1.8 C 97 % 1.38 C
1496 02-02-2019 04:35:00 1.8 C 97 % 1.38 C
1497 02-02-2019 04:40:00 1.8 C 97 % 1.38 C
1498 02-02-2019 04:45:00 1.8 C 97 % 1.38 C
1499 02-02-2019 04:50:00 1.8 C 97 % 1.38 C
1500 02-02-2019 04:55:00 1.8 C 97 % 1.38 C
Sensor: Nr:Datum:Temp:Feuchte:Taupunkt:
Aussen-T/F 1501 02-02-2019 05:00:00 1.7 C 97 % 1.28 C
1502 02-02-2019 05:05:00 1.7 C 97 % 1.28 C
1503 02-02-2019 05:10:00 1.7 C 97 % 1.28 C
1504 02-02-2019 05:15:00 1.7 C 97 % 1.28 C
1505 02-02-2019 05:20:00 1.7 C 97 % 1.28 C
1506 02-02-2019 05:25:00 1.7 C 97 % 1.28 C
1507 02-02-2019 05:30:00 1.7 C 97 % 1.28 C
1508 02-02-2019 05:35:00 1.7 C 97 % 1.28 C
1509 02-02-2019 05:40:00 1.7 C 97 % 1.28 C
1510 02-02-2019 05:45:00 1.7 C 97 % 1.28 C
1511 02-02-2019 05:50:00 1.7 C 97 % 1.28 C
1512 02-02-2019 05:55:00 1.8 C 97 % 1.38 C
1513 02-02-2019 06:00:00 1.8 C 97 % 1.38 C
1514 02-02-2019 06:05:00 1.8 C 97 % 1.38 C
1515 02-02-2019 06:10:00 1.8 C 97 % 1.38 C
1516 02-02-2019 06:15:00 1.7 C 97 % 1.28 C
1517 02-02-2019 06:20:00 1.7 C 97 % 1.28 C
1518 02-02-2019 06:25:00 1.7 C 97 % 1.28 C
1519 02-02-2019 06:30:00 1.7 C 97 % 1.28 C
1520 02-02-2019 06:35:00 1.7 C 97 % 1.28 C
1521 02-02-2019 06:40:00 1.7 C 97 % 1.28 C
1522 02-02-2019 06:45:00 1.7 C 97 % 1.28 C
1523 02-02-2019 06:50:00 1.7 C 97 % 1.28 C
1524 02-02-2019 06:55:00 1.7 C 97 % 1.28 C
1525 02-02-2019 07:00:00 1.7 C 97 % 1.28 C
Sensor: Nr:Datum:Temp:Feuchte:Taupunkt:
Aussen-T/F 1526 02-02-2019 07:05:00 1.7 C 97 % 1.28 C
1527 02-02-2019 07:10:00 1.7 C 97 % 1.28 C
1528 02-02-2019 07:15:00 1.7 C 97 % 1.28 C
1529 02-02-2019 07:20:00 1.7 C 97 % 1.28 C
1530 02-02-2019 07:25:00 1.8 C 97 % 1.38 C
1531 02-02-2019 07:30:00 1.7 C 97 % 1.28 C
1532 02-02-2019 07:35:00 1.8 C 97 % 1.38 C
1533 02-02-2019 07:40:00 1.7 C 97 % 1.28 C
1534 02-02-2019 07:45:00 1.7 C 97 % 1.28 C
1535 02-02-2019 07:50:00 1.8 C 97 % 1.38 C
1536 02-02-2019 07:55:00 1.8 C 97 % 1.38 C
1537 02-02-2019 08:00:00 1.8 C 97 % 1.38 C
1538 02-02-2019 08:05:00 1.8 C 97 % 1.38 C
1539 02-02-2019 08:10:00 1.8 C 97 % 1.38 C
1540 02-02-2019 08:15:00 1.8 C 97 % 1.38 C
1541 02-02-2019 08:20:00 1.8 C 97 % 1.38 C
1542 02-02-2019 08:25:00 1.8 C 97 % 1.38 C
1543 02-02-2019 08:30:00 1.8 C 97 % 1.38 C
1544 02-02-2019 08:35:00 1.8 C 97 % 1.38 C
1545 02-02-2019 08:40:00 1.8 C 97 % 1.38 C
1546 02-02-2019 08:45:00 1.8 C 97 % 1.38 C
1547 02-02-2019 08:50:00 1.8 C 97 % 1.38 C
1548 02-02-2019 08:55:00 1.8 C 97 % 1.38 C
1549 02-02-2019 09:00:00 1.8 C 97 % 1.38 C
1550 02-02-2019 09:05:00 1.9 C 97 % 1.48 C
Sensor: Nr:Datum:Temp:Feuchte:Taupunkt:
Aussen-T/F 1551 02-02-2019 09:10:00 1.9 C 97 % 1.48 C
1552 02-02-2019 09:15:00 1.9 C 97 % 1.48 C
1553 02-02-2019 09:20:00 2 C 97 % 1.58 C
1554 02-02-2019 09:25:00 2.1 C 97 % 1.67 C
1555 02-02-2019 09:30:00 2.1 C 97 % 1.67 C
1556 02-02-2019 09:35:00 2.2 C 97 % 1.77 C
1557 02-02-2019 09:40:00 2.2 C 97 % 1.77 C
1558 02-02-2019 09:45:00 2.3 C 97 % 1.87 C
1559 02-02-2019 09:50:00 2.3 C 97 % 1.87 C
1560 02-02-2019 09:55:00 2.4 C 97 % 1.97 C
1561 02-02-2019 10:00:00 2.5 C 98 % 2.22 C
1562 02-02-2019 10:05:00 2.6 C 98 % 2.32 C
1563 02-02-2019 10:10:00 2.6 C 97 % 2.17 C
1564 02-02-2019 10:15:00 2.7 C 97 % 2.27 C
1565 02-02-2019 10:20:00 2.7 C 98 % 2.42 C
1566 02-02-2019 10:25:00 2.7 C 98 % 2.42 C
1567 02-02-2019 10:30:00 2.8 C 98 % 2.52 C
1568 02-02-2019 10:35:00 2.8 C 98 % 2.52 C
1569 02-02-2019 10:40:00 2.8 C 97 % 2.37 C
1570 02-02-2019 10:45:00 2.8 C 97 % 2.37 C
1571 02-02-2019 10:50:00 2.8 C 97 % 2.37 C
1572 02-02-2019 10:55:00 2.8 C 97 % 2.37 C
1573 02-02-2019 11:00:00 2.9 C 97 % 2.47 C
1574 02-02-2019 11:05:00 2.9 C 97 % 2.47 C
1575 02-02-2019 11:10:00 3 C 97 % 2.57 C
Sensor: Nr:Datum:Temp:Feuchte:Taupunkt:
Aussen-T/F 1576 02-02-2019 11:15:00 3 C 97 % 2.57 C
1577 02-02-2019 11:20:00 3.1 C 97 % 2.67 C
1578 02-02-2019 11:25:00 3.1 C 97 % 2.67 C
1579 02-02-2019 11:30:00 3.1 C 97 % 2.67 C
1580 02-02-2019 11:35:00 3.1 C 97 % 2.67 C
1581 02-02-2019 11:40:00 3.1 C 97 % 2.67 C
1582 02-02-2019 11:45:00 3.1 C 97 % 2.67 C
1583 02-02-2019 11:50:00 3.1 C 97 % 2.67 C
1584 02-02-2019 11:55:00 3.1 C 97 % 2.67 C
1585 02-02-2019 12:00:00 3.1 C 97 % 2.67 C
1586 02-02-2019 12:05:00 3.2 C 97 % 2.77 C
1587 02-02-2019 12:10:00 3.2 C 97 % 2.77 C
1588 02-02-2019 12:15:00 3.2 C 97 % 2.77 C
1589 02-02-2019 12:20:00 3.3 C 97 % 2.87 C
1590 02-02-2019 12:25:00 3.3 C 97 % 2.87 C
1591 02-02-2019 12:30:00 3.3 C 97 % 2.87 C
1592 02-02-2019 12:35:00 3.4 C 97 % 2.97 C
1593 02-02-2019 12:40:00 3.4 C 97 % 2.97 C
1594 02-02-2019 12:45:00 3.4 C 97 % 2.97 C
1595 02-02-2019 12:50:00 3.5 C 97 % 3.07 C
1596 02-02-2019 12:55:00 3.5 C 97 % 3.07 C
1597 02-02-2019 13:00:00 3.5 C 97 % 3.07 C
1598 02-02-2019 13:05:00 3.4 C 97 % 2.97 C
1599 02-02-2019 13:10:00 3.5 C 97 % 3.07 C
1600 02-02-2019 13:15:00 3.6 C 97 % 3.17 C
Sensor: Nr:Datum:Temp:Feuchte:Taupunkt:
Aussen-T/F 1601 02-02-2019 13:20:00 3.7 C 97 % 3.27 C
1602 02-02-2019 13:25:00 3.7 C 97 % 3.27 C
1603 02-02-2019 13:30:00 3.8 C 97 % 3.37 C
1604 02-02-2019 13:35:00 3.7 C 97 % 3.27 C
1605 02-02-2019 13:40:00 3.8 C 97 % 3.37 C
1606 02-02-2019 13:45:00 3.8 C 97 % 3.37 C
1607 02-02-2019 13:50:00 3.8 C 97 % 3.37 C
1608 02-02-2019 13:55:00 3.8 C 97 % 3.37 C
1609 02-02-2019 14:00:00 3.8 C 97 % 3.37 C
1610 02-02-2019 14:05:00 3.8 C 97 % 3.37 C
1611 02-02-2019 14:10:00 3.8 C 97 % 3.37 C
1612 02-02-2019 14:15:00 3.8 C 97 % 3.37 C
1613 02-02-2019 14:20:00 3.8 C 97 % 3.37 C
1614 02-02-2019 14:25:00 3.8 C 97 % 3.37 C
1615 02-02-2019 14:30:00 3.7 C 97 % 3.27 C
1616 02-02-2019 14:35:00 3.7 C 97 % 3.27 C
1617 02-02-2019 14:40:00 3.7 C 97 % 3.27 C
1618 02-02-2019 14:45:00 3.6 C 97 % 3.17 C
1619 02-02-2019 14:50:00 3.6 C 97 % 3.17 C
1620 02-02-2019 14:55:00 3.6 C 97 % 3.17 C
1621 02-02-2019 15:00:00 3.6 C 97 % 3.17 C
1622 02-02-2019 15:05:00 3.7 C 97 % 3.27 C
1623 02-02-2019 15:10:00 3.8 C 97 % 3.37 C
1624 02-02-2019 15:15:00 3.8 C 97 % 3.37 C
1625 02-02-2019 15:20:00 3.9 C 97 % 3.47 C
Sensor: Nr:Datum:Temp:Feuchte:Taupunkt:
Aussen-T/F 1626 02-02-2019 15:25:00 4 C 97 % 3.57 C
1627 02-02-2019 15:30:00 4 C 97 % 3.57 C
1628 02-02-2019 15:35:00 4.1 C 97 % 3.67 C
1629 02-02-2019 15:40:00 4.1 C 97 % 3.67 C
1630 02-02-2019 15:45:00 4 C 97 % 3.57 C
1631 02-02-2019 15:50:00 4 C 97 % 3.57 C
1632 02-02-2019 15:55:00 3.9 C 97 % 3.47 C
1633 02-02-2019 16:00:00 3.9 C 97 % 3.47 C
1634 02-02-2019 16:05:00 3.8 C 97 % 3.37 C
1635 02-02-2019 16:10:00 3.8 C 97 % 3.37 C
1636 02-02-2019 16:15:00 3.7 C 97 % 3.27 C
1637 02-02-2019 16:20:00 3.7 C 97 % 3.27 C
1638 02-02-2019 16:25:00 3.7 C 97 % 3.27 C
1639 02-02-2019 16:30:00 3.7 C 97 % 3.27 C
1640 02-02-2019 16:35:00 3.7 C 97 % 3.27 C
1641 02-02-2019 16:40:00 3.6 C 97 % 3.17 C
1642 02-02-2019 16:45:00 3.6 C 97 % 3.17 C
1643 02-02-2019 16:50:00 3.5 C 97 % 3.07 C
1644 02-02-2019 16:55:00 3.4 C 97 % 2.97 C
1645 02-02-2019 17:00:00 3.3 C 97 % 2.87 C
1646 02-02-2019 17:05:00 3.3 C 97 % 2.87 C
1647 02-02-2019 17:10:00 3.2 C 97 % 2.77 C
1648 02-02-2019 17:15:00 3.2 C 97 % 2.77 C
1649 02-02-2019 17:20:00 3.2 C 97 % 2.77 C
1650 02-02-2019 17:25:00 3.2 C 97 % 2.77 C
Sensor: Nr:Datum:Temp:Feuchte:Taupunkt:
Aussen-T/F 1651 02-02-2019 17:30:00 3.2 C 97 % 2.77 C
1652 02-02-2019 17:35:00 3.1 C 97 % 2.67 C
1653 02-02-2019 17:40:00 3.2 C 97 % 2.77 C
1654 02-02-2019 17:45:00 3.3 C 97 % 2.87 C
1655 02-02-2019 17:50:00 3.4 C 97 % 2.97 C
1656 02-02-2019 17:55:00 3.4 C 97 % 2.97 C
1657 02-02-2019 18:00:00 3.4 C 97 % 2.97 C
1658 02-02-2019 18:05:00 3.4 C 97 % 2.97 C
1659 02-02-2019 18:10:00 3.3 C 97 % 2.87 C
1660 02-02-2019 18:15:00 3.3 C 97 % 2.87 C
1661 02-02-2019 18:20:00 3.2 C 97 % 2.77 C
1662 02-02-2019 18:25:00 3.2 C 97 % 2.77 C
1663 02-02-2019 18:30:00 3.2 C 97 % 2.77 C
1664 02-02-2019 18:35:00 3.1 C 97 % 2.67 C
1665 02-02-2019 18:40:00 3.1 C 97 % 2.67 C
1666 02-02-2019 18:45:00 3 C 97 % 2.57 C
1667 02-02-2019 18:50:00 2.9 C 97 % 2.47 C
1668 02-02-2019 18:55:00 2.8 C 97 % 2.37 C
1669 02-02-2019 19:00:00 2.8 C 96 % 2.23 C
1670 02-02-2019 19:05:00 2.8 C 97 % 2.37 C
1671 02-02-2019 19:10:00 2.7 C 96 % 2.13 C
1672 02-02-2019 19:15:00 2.7 C 96 % 2.13 C
1673 02-02-2019 19:20:00 2.7 C 97 % 2.27 C
1674 02-02-2019 19:25:00 2.6 C 97 % 2.17 C
1675 02-02-2019 19:30:00 2.6 C 97 % 2.17 C
Sensor: Nr:Datum:Temp:Feuchte:Taupunkt:
Aussen-T/F 1676 02-02-2019 19:35:00 2.6 C 96 % 2.03 C
1677 02-02-2019 19:40:00 2.6 C 97 % 2.17 C
1678 02-02-2019 19:45:00 2.5 C 97 % 2.07 C
1679 02-02-2019 19:50:00 2.5 C 97 % 2.07 C
1680 02-02-2019 19:55:00 2.4 C 97 % 1.97 C
1681 02-02-2019 20:00:00 2.4 C 97 % 1.97 C
1682 02-02-2019 20:05:00 2.4 C 97 % 1.97 C
1683 02-02-2019 20:10:00 2.4 C 96 % 1.83 C
1684 02-02-2019 20:15:00 2.3 C 96 % 1.73 C
1685 02-02-2019 20:20:00 2.3 C 96 % 1.73 C
1686 02-02-2019 20:25:00 2.3 C 96 % 1.73 C
1687 02-02-2019 20:30:00 2.3 C 96 % 1.73 C
1688 02-02-2019 20:35:00 2.3 C 96 % 1.73 C
1689 02-02-2019 20:40:00 2.3 C 96 % 1.73 C
1690 02-02-2019 20:45:00 2.3 C 96 % 1.73 C
1691 02-02-2019 20:50:00 2.2 C 96 % 1.63 C
1692 02-02-2019 20:55:00 2.2 C 96 % 1.63 C
1693 02-02-2019 21:00:00 2.2 C 96 % 1.63 C
1694 02-02-2019 21:05:00 2.2 C 96 % 1.63 C
1695 02-02-2019 21:10:00 2.2 C 96 % 1.63 C
1696 02-02-2019 21:15:00 2.1 C 96 % 1.53 C
1697 02-02-2019 21:20:00 2.1 C 96 % 1.53 C
1698 02-02-2019 21:25:00 2.1 C 96 % 1.53 C
1699 02-02-2019 21:30:00 2.1 C 96 % 1.53 C
1700 02-02-2019 21:35:00 2.1 C 96 % 1.53 C
Sensor: Nr:Datum:Temp:Feuchte:Taupunkt:
Aussen-T/F 1701 02-02-2019 21:40:00 2.1 C 96 % 1.53 C
1702 02-02-2019 21:45:00 2 C 96 % 1.43 C
1703 02-02-2019 21:50:00 2 C 96 % 1.43 C
1704 02-02-2019 21:55:00 2 C 96 % 1.43 C
1705 02-02-2019 22:00:00 1.9 C 96 % 1.33 C
1706 02-02-2019 22:05:00 1.9 C 96 % 1.33 C
1707 02-02-2019 22:10:00 1.9 C 96 % 1.33 C
1708 02-02-2019 22:15:00 1.9 C 96 % 1.33 C
1709 02-02-2019 22:20:00 1.9 C 96 % 1.33 C
1710 02-02-2019 22:25:00 1.9 C 96 % 1.33 C
1711 02-02-2019 22:30:00 1.9 C 96 % 1.33 C
1712 02-02-2019 22:35:00 1.9 C 96 % 1.33 C
1713 02-02-2019 22:40:00 1.9 C 96 % 1.33 C
1714 02-02-2019 22:45:00 1.8 C 96 % 1.23 C
1715 02-02-2019 22:50:00 1.8 C 96 % 1.23 C
1716 02-02-2019 22:55:00 1.8 C 96 % 1.23 C
1717 02-02-2019 23:00:00 1.8 C 96 % 1.23 C
1718 02-02-2019 23:05:00 1.8 C 96 % 1.23 C
1719 02-02-2019 23:10:00 1.8 C 96 % 1.23 C
1720 02-02-2019 23:15:00 1.8 C 96 % 1.23 C
1721 02-02-2019 23:20:00 1.8 C 96 % 1.23 C
1722 02-02-2019 23:25:00 1.8 C 96 % 1.23 C
1723 02-02-2019 23:30:00 1.8 C 97 % 1.38 C
1724 02-02-2019 23:35:00 1.8 C 97 % 1.38 C
1725 02-02-2019 23:40:00 1.8 C 97 % 1.38 C
Sensor: Nr:Datum:Temp:Feuchte:Taupunkt:
Aussen-T/F 1726 02-02-2019 23:45:00 1.8 C 97 % 1.38 C
1727 02-02-2019 23:50:00 1.8 C 96 % 1.23 C
1728 02-02-2019 23:55:00 1.8 C 96 % 1.23 C
1729 03-02-2019 00:00:00 1.8 C 97 % 1.38 C
1730 03-02-2019 00:05:00 1.8 C 96 % 1.23 C
1731 03-02-2019 00:10:00 1.8 C 97 % 1.38 C
1732 03-02-2019 00:15:00 1.8 C 97 % 1.38 C
1733 03-02-2019 00:20:00 1.9 C 97 % 1.48 C
1734 03-02-2019 00:25:00 1.9 C 97 % 1.48 C
1735 03-02-2019 00:30:00 1.9 C 97 % 1.48 C
1736 03-02-2019 00:35:00 1.9 C 96 % 1.33 C
1737 03-02-2019 00:40:00 1.9 C 96 % 1.33 C
1738 03-02-2019 00:45:00 1.9 C 96 % 1.33 C
1739 03-02-2019 00:50:00 1.9 C 96 % 1.33 C
1740 03-02-2019 00:55:00 2 C 96 % 1.43 C
1741 03-02-2019 01:00:00 2 C 96 % 1.43 C
1742 03-02-2019 01:05:00 2 C 96 % 1.43 C
1743 03-02-2019 01:10:00 2 C 96 % 1.43 C
1744 03-02-2019 01:15:00 2 C 96 % 1.43 C
1745 03-02-2019 01:20:00 2.1 C 96 % 1.53 C
1746 03-02-2019 01:25:00 2.1 C 96 % 1.53 C
1747 03-02-2019 01:30:00 2.1 C 96 % 1.53 C
1748 03-02-2019 01:35:00 2.1 C 96 % 1.53 C
1749 03-02-2019 01:40:00 2.1 C 96 % 1.53 C
1750 03-02-2019 01:45:00 2.1 C 96 % 1.53 C
Sensor: Nr:Datum:Temp:Feuchte:Taupunkt:
Aussen-T/F 1751 03-02-2019 01:50:00 2.1 C 96 % 1.53 C
1752 03-02-2019 01:55:00 2.1 C 96 % 1.53 C
1753 03-02-2019 02:00:00 2.1 C 96 % 1.53 C
1754 03-02-2019 02:05:00 2.1 C 95 % 1.38 C
1755 03-02-2019 02:10:00 2.1 C 95 % 1.38 C
1756 03-02-2019 02:15:00 2.1 C 95 % 1.38 C
1757 03-02-2019 02:20:00 2.1 C 95 % 1.38 C
1758 03-02-2019 02:25:00 2.2 C 95 % 1.48 C
1759 03-02-2019 02:30:00 2.2 C 94 % 1.34 C
1760 03-02-2019 02:35:00 2.2 C 94 % 1.34 C
1761 03-02-2019 02:40:00 2.2 C 94 % 1.34 C
1762 03-02-2019 02:45:00 2.2 C 93 % 1.19 C
1763 03-02-2019 02:50:00 2.2 C 93 % 1.19 C
1764 03-02-2019 02:55:00 2.2 C 93 % 1.19 C
1765 03-02-2019 03:00:00 2.2 C 93 % 1.19 C
1766 03-02-2019 03:05:00 2.2 C 93 % 1.19 C
1767 03-02-2019 03:10:00 2.2 C 93 % 1.19 C
1768 03-02-2019 03:15:00 2.2 C 93 % 1.19 C
1769 03-02-2019 03:20:00 2.2 C 93 % 1.19 C
1770 03-02-2019 03:25:00 2.2 C 93 % 1.19 C
1771 03-02-2019 03:30:00 2.2 C 93 % 1.19 C
1772 03-02-2019 03:35:00 2.2 C 93 % 1.19 C
1773 03-02-2019 03:40:00 2.2 C 93 % 1.19 C
1774 03-02-2019 03:45:00 2.2 C 93 % 1.19 C
1775 03-02-2019 03:50:00 2.1 C 93 % 1.09 C
Sensor: Nr:Datum:Temp:Feuchte:Taupunkt:
Aussen-T/F 1776 03-02-2019 03:55:00 2.1 C 93 % 1.09 C
1777 03-02-2019 04:00:00 2.1 C 93 % 1.09 C
1778 03-02-2019 04:05:00 2.1 C 93 % 1.09 C
1779 03-02-2019 04:10:00 2.1 C 93 % 1.09 C
1780 03-02-2019 04:15:00 2.1 C 93 % 1.09 C
1781 03-02-2019 04:20:00 2.1 C 93 % 1.09 C
1782 03-02-2019 04:25:00 2.1 C 93 % 1.09 C
1783 03-02-2019 04:30:00 2.1 C 94 % 1.24 C
1784 03-02-2019 04:35:00 2.1 C 94 % 1.24 C
1785 03-02-2019 04:40:00 2.1 C 94 % 1.24 C
1786 03-02-2019 04:45:00 2.1 C 94 % 1.24 C
1787 03-02-2019 04:50:00 2.1 C 94 % 1.24 C
1788 03-02-2019 04:55:00 2.1 C 94 % 1.24 C
1789 03-02-2019 05:00:00 2.1 C 94 % 1.24 C
1790 03-02-2019 05:05:00 2.1 C 93 % 1.09 C
1791 03-02-2019 05:10:00 2.2 C 93 % 1.19 C
1792 03-02-2019 05:15:00 2.2 C 93 % 1.19 C
1793 03-02-2019 05:20:00 2.2 C 93 % 1.19 C
1794 03-02-2019 05:25:00 2.2 C 93 % 1.19 C
1795 03-02-2019 05:30:00 2.2 C 93 % 1.19 C
1796 03-02-2019 05:35:00 2.2 C 93 % 1.19 C
1797 03-02-2019 05:40:00 2.2 C 93 % 1.19 C
1798 03-02-2019 05:45:00 2.2 C 93 % 1.19 C
1799 03-02-2019 05:50:00 2.2 C 93 % 1.19 C
1800 03-02-2019 05:55:00 2.2 C 93 % 1.19 C
Sensor: Nr:Datum:Temp:Feuchte:Taupunkt:
Aussen-T/F 1801 03-02-2019 06:00:00 2.2 C 93 % 1.19 C
1802 03-02-2019 06:05:00 2.2 C 93 % 1.19 C
1803 03-02-2019 06:10:00 2.2 C 93 % 1.19 C
1804 03-02-2019 06:15:00 2.3 C 92 % 1.14 C
1805 03-02-2019 06:20:00 2.3 C 92 % 1.14 C
1806 03-02-2019 06:25:00 2.3 C 93 % 1.29 C
1807 03-02-2019 06:30:00 2.2 C 92 % 1.04 C
1808 03-02-2019 06:35:00 2.2 C 92 % 1.04 C
1809 03-02-2019 06:40:00 2.2 C 92 % 1.04 C
1810 03-02-2019 06:45:00 2.1 C 92 % 0.94 C
1811 03-02-2019 06:50:00 2.1 C 93 % 1.09 C
1812 03-02-2019 06:55:00 2 C 93 % 0.99 C
1813 03-02-2019 07:00:00 1.9 C 93 % 0.89 C
1814 03-02-2019 07:05:00 1.9 C 93 % 0.89 C
1815 03-02-2019 07:10:00 1.9 C 93 % 0.89 C
1816 03-02-2019 07:15:00 1.9 C 93 % 0.89 C
1817 03-02-2019 07:20:00 1.9 C 93 % 0.89 C
1818 03-02-2019 07:25:00 1.9 C 93 % 0.89 C
1819 03-02-2019 07:30:00 1.9 C 93 % 0.89 C
1820 03-02-2019 07:35:00 1.9 C 93 % 0.89 C
1821 03-02-2019 07:40:00 1.9 C 93 % 0.89 C
1822 03-02-2019 07:45:00 1.9 C 93 % 0.89 C
1823 03-02-2019 07:50:00 1.9 C 93 % 0.89 C
1824 03-02-2019 07:55:00 1.9 C 93 % 0.89 C
1825 03-02-2019 08:00:00 1.9 C 93 % 0.89 C
Sensor: Nr:Datum:Temp:Feuchte:Taupunkt:
Aussen-T/F 1826 03-02-2019 08:05:00 1.9 C 93 % 0.89 C
1827 03-02-2019 08:10:00 1.8 C 93 % 0.79 C
1828 03-02-2019 08:15:00 1.8 C 93 % 0.79 C
1829 03-02-2019 08:20:00 1.8 C 93 % 0.79 C
1830 03-02-2019 08:25:00 1.9 C 93 % 0.89 C
1831 03-02-2019 08:30:00 1.9 C 93 % 0.89 C
1832 03-02-2019 08:35:00 1.9 C 93 % 0.89 C
1833 03-02-2019 08:40:00 1.9 C 93 % 0.89 C
1834 03-02-2019 08:45:00 1.9 C 93 % 0.89 C
1835 03-02-2019 08:50:00 1.9 C 93 % 0.89 C
1836 03-02-2019 08:55:00 1.9 C 93 % 0.89 C
1837 03-02-2019 09:00:00 1.9 C 93 % 0.89 C
1838 03-02-2019 09:05:00 1.9 C 93 % 0.89 C
1839 03-02-2019 09:10:00 2 C 93 % 0.99 C
1840 03-02-2019 09:15:00 2 C 94 % 1.14 C
1841 03-02-2019 09:20:00 2 C 94 % 1.14 C
1842 03-02-2019 09:25:00 2 C 94 % 1.14 C
1843 03-02-2019 09:30:00 2 C 93 % 0.99 C
1844 03-02-2019 09:35:00 2 C 93 % 0.99 C
1845 03-02-2019 09:40:00 2 C 93 % 0.99 C
1846 03-02-2019 09:45:00 2 C 93 % 0.99 C
1847 03-02-2019 09:50:00 2.1 C 93 % 1.09 C
1848 03-02-2019 09:55:00 2.2 C 92 % 1.04 C
1849 03-02-2019 10:00:00 2.2 C 92 % 1.04 C
1850 03-02-2019 10:05:00 2.3 C 92 % 1.14 C
Sensor: Nr:Datum:Temp:Feuchte:Taupunkt:
Aussen-T/F 1851 03-02-2019 10:10:00 2.3 C 92 % 1.14 C
1852 03-02-2019 10:15:00 2.4 C 92 % 1.24 C
1853 03-02-2019 10:20:00 2.4 C 92 % 1.24 C
1854 03-02-2019 10:25:00 2.4 C 92 % 1.24 C
1855 03-02-2019 10:30:00 2.5 C 91 % 1.18 C
1856 03-02-2019 10:35:00 2.5 C 91 % 1.18 C
1857 03-02-2019 10:40:00 2.6 C 91 % 1.28 C
1858 03-02-2019 10:45:00 2.6 C 91 % 1.28 C
1859 03-02-2019 10:50:00 2.7 C 90 % 1.23 C
1860 03-02-2019 10:55:00 2.7 C 90 % 1.23 C
1861 03-02-2019 11:00:00 2.7 C 90 % 1.23 C
1862 03-02-2019 11:05:00 2.8 C 90 % 1.33 C
1863 03-02-2019 11:10:00 2.9 C 90 % 1.43 C
1864 03-02-2019 11:15:00 2.9 C 89 % 1.27 C
1865 03-02-2019 11:20:00 3.1 C 89 % 1.47 C
1866 03-02-2019 11:25:00 3.2 C 89 % 1.57 C
1867 03-02-2019 11:30:00 3.2 C 88 % 1.41 C
1868 03-02-2019 11:35:00 3.3 C 88 % 1.51 C
1869 03-02-2019 11:40:00 3.3 C 88 % 1.51 C
1870 03-02-2019 11:45:00 3.3 C 88 % 1.51 C
1871 03-02-2019 11:50:00 3.3 C 88 % 1.51 C
1872 03-02-2019 11:55:00 3.3 C 88 % 1.51 C
1873 03-02-2019 12:00:00 3.3 C 88 % 1.51 C
1874 03-02-2019 12:05:00 3.3 C 87 % 1.35 C
1875 03-02-2019 12:10:00 3.3 C 87 % 1.35 C
Sensor: Nr:Datum:Temp:Feuchte:Taupunkt:
Aussen-T/F 1876 03-02-2019 12:15:00 3.4 C 86 % 1.29 C
1877 03-02-2019 12:20:00 3.4 C 86 % 1.29 C
1878 03-02-2019 12:25:00 3.6 C 85 % 1.32 C
1879 03-02-2019 12:30:00 3.7 C 85 % 1.42 C
1880 03-02-2019 12:35:00 3.7 C 85 % 1.42 C
1881 03-02-2019 12:40:00 3.8 C 84 % 1.35 C
1882 03-02-2019 12:45:00 3.8 C 85 % 1.52 C
1883 03-02-2019 12:50:00 3.9 C 85 % 1.61 C
1884 03-02-2019 12:55:00 3.8 C 85 % 1.52 C
1885 03-02-2019 13:00:00 3.8 C 84 % 1.35 C
1886 03-02-2019 13:05:00 3.8 C 85 % 1.52 C
1887 03-02-2019 13:10:00 3.8 C 85 % 1.52 C
1888 03-02-2019 13:15:00 3.8 C 84 % 1.35 C
1889 03-02-2019 13:20:00 3.9 C 85 % 1.61 C
1890 03-02-2019 13:25:00 3.9 C 83 % 1.28 C
1891 03-02-2019 13:30:00 3.9 C 83 % 1.28 C
1892 03-02-2019 13:35:00 4 C 83 % 1.38 C
1893 03-02-2019 13:40:00 4.1 C 83 % 1.48 C
1894 03-02-2019 13:45:00 4.2 C 82 % 1.41 C
1895 03-02-2019 13:50:00 4.2 C 81 % 1.24 C
1896 03-02-2019 13:55:00 4.2 C 82 % 1.41 C
1897 03-02-2019 14:00:00 4.2 C 82 % 1.41 C
1898 03-02-2019 14:05:00 4.2 C 83 % 1.58 C
1899 03-02-2019 14:10:00 4.1 C 83 % 1.48 C
1900 03-02-2019 14:15:00 4.1 C 84 % 1.65 C
Sensor: Nr:Datum:Temp:Feuchte:Taupunkt:
Aussen-T/F 1901 03-02-2019 14:20:00 3.9 C 84 % 1.45 C
1902 03-02-2019 14:25:00 3.9 C 84 % 1.45 C
1903 03-02-2019 14:30:00 3.9 C 84 % 1.45 C
1904 03-02-2019 14:35:00 4 C 84 % 1.55 C
1905 03-02-2019 14:40:00 4.1 C 83 % 1.48 C
1906 03-02-2019 14:45:00 4.2 C 83 % 1.58 C
1907 03-02-2019 14:50:00 4.2 C 82 % 1.41 C
1908 03-02-2019 14:55:00 4.4 C 81 % 1.43 C
1909 03-02-2019 15:00:00 4.4 C 79 % 1.09 C
1910 03-02-2019 15:05:00 4.4 C 78 % 0.91 C
1911 03-02-2019 15:10:00 4.4 C 78 % 0.91 C
1912 03-02-2019 15:15:00 4.5 C 78 % 1.01 C
1913 03-02-2019 15:20:00 4.5 C 77 % 0.83 C
1914 03-02-2019 15:25:00 4.6 C 76 % 0.74 C
1915 03-02-2019 15:30:00 4.6 C 78 % 1.1 C
1916 03-02-2019 15:35:00 4.5 C 77 % 0.83 C
1917 03-02-2019 15:40:00 4.6 C 76 % 0.74 C
1918 03-02-2019 15:45:00 4.6 C 75 % 0.56 C
1919 03-02-2019 15:50:00 4.5 C 75 % 0.46 C
1920 03-02-2019 15:55:00 4.5 C 75 % 0.46 C
1921 03-02-2019 16:00:00 4.4 C 75 % 0.37 C
1922 03-02-2019 16:05:00 4.4 C 75 % 0.37 C
1923 03-02-2019 16:10:00 4.4 C 76 % 0.55 C
1924 03-02-2019 16:15:00 4.4 C 76 % 0.55 C
1925 03-02-2019 16:20:00 4.4 C 76 % 0.55 C
Sensor: Nr:Datum:Temp:Feuchte:Taupunkt:
Aussen-T/F 1926 03-02-2019 16:25:00 4.4 C 76 % 0.55 C
1927 03-02-2019 16:30:00 4.4 C 76 % 0.55 C
1928 03-02-2019 16:35:00 4.5 C 76 % 0.65 C
1929 03-02-2019 16:40:00 4.5 C 77 % 0.83 C
1930 03-02-2019 16:45:00 4.5 C 76 % 0.65 C
1931 03-02-2019 16:50:00 4.5 C 77 % 0.83 C
1932 03-02-2019 16:55:00 4.4 C 77 % 0.73 C
1933 03-02-2019 17:00:00 4.4 C 77 % 0.73 C
1934 03-02-2019 17:05:00 4.4 C 77 % 0.73 C
1935 03-02-2019 17:10:00 4.3 C 77 % 0.63 C
1936 03-02-2019 17:15:00 4.3 C 77 % 0.63 C
1937 03-02-2019 17:20:00 4.3 C 77 % 0.63 C
1938 03-02-2019 17:25:00 4.3 C 77 % 0.63 C
1939 03-02-2019 17:30:00 4.3 C 78 % 0.81 C
1940 03-02-2019 17:35:00 4.3 C 79 % 0.99 C
1941 03-02-2019 17:40:00 4.2 C 79 % 0.89 C
1942 03-02-2019 17:45:00 4.2 C 79 % 0.89 C
1943 03-02-2019 17:50:00 4.1 C 79 % 0.79 C
1944 03-02-2019 17:55:00 4.1 C 80 % 0.97 C
1945 03-02-2019 18:00:00 4.1 C 80 % 0.97 C
1946 03-02-2019 18:05:00 4 C 81 % 1.04 C
1947 03-02-2019 18:10:00 3.9 C 81 % 0.95 C
1948 03-02-2019 18:15:00 3.9 C 82 % 1.12 C
1949 03-02-2019 18:20:00 3.9 C 82 % 1.12 C
1950 03-02-2019 18:25:00 3.9 C 83 % 1.28 C
Sensor: Nr:Datum:Temp:Feuchte:Taupunkt:
Aussen-T/F 1951 03-02-2019 18:30:00 3.8 C 83 % 1.19 C
1952 03-02-2019 18:35:00 3.8 C 83 % 1.19 C
1953 03-02-2019 18:40:00 3.8 C 83 % 1.19 C
1954 03-02-2019 18:45:00 3.8 C 83 % 1.19 C
1955 03-02-2019 18:50:00 3.8 C 83 % 1.19 C
1956 03-02-2019 18:55:00 3.8 C 83 % 1.19 C
1957 03-02-2019 19:00:00 3.8 C 84 % 1.35 C
1958 03-02-2019 19:05:00 3.7 C 84 % 1.25 C
1959 03-02-2019 19:10:00 3.7 C 84 % 1.25 C
1960 03-02-2019 19:15:00 3.7 C 84 % 1.25 C
1961 03-02-2019 19:20:00 3.6 C 84 % 1.16 C
1962 03-02-2019 19:25:00 3.6 C 85 % 1.32 C
1963 03-02-2019 19:30:00 3.6 C 85 % 1.32 C
1964 03-02-2019 19:35:00 3.6 C 85 % 1.32 C
1965 03-02-2019 19:40:00 3.5 C 85 % 1.22 C
1966 03-02-2019 19:45:00 3.4 C 86 % 1.29 C
1967 03-02-2019 19:50:00 3.4 C 86 % 1.29 C
1968 03-02-2019 19:55:00 3.4 C 86 % 1.29 C
1969 03-02-2019 20:00:00 3.3 C 86 % 1.19 C
1970 03-02-2019 20:05:00 3.3 C 87 % 1.35 C
1971 03-02-2019 20:10:00 3.3 C 87 % 1.35 C
1972 03-02-2019 20:15:00 3.3 C 87 % 1.35 C
1973 03-02-2019 20:20:00 3.3 C 87 % 1.35 C
1974 03-02-2019 20:25:00 3.2 C 88 % 1.41 C
1975 03-02-2019 20:30:00 3.2 C 88 % 1.41 C
Sensor: Nr:Datum:Temp:Feuchte:Taupunkt:
Aussen-T/F 1976 03-02-2019 20:35:00 3.2 C 88 % 1.41 C
1977 03-02-2019 20:40:00 3.1 C 87 % 1.15 C
1978 03-02-2019 20:45:00 3.1 C 87 % 1.15 C
1979 03-02-2019 20:50:00 3.1 C 87 % 1.15 C
1980 03-02-2019 20:55:00 2.9 C 87 % 0.96 C
1981 03-02-2019 21:00:00 2.7 C 87 % 0.76 C
1982 03-02-2019 21:05:00 2.4 C 87 % 0.46 C
1983 03-02-2019 21:10:00 2.3 C 88 % 0.52 C
1984 03-02-2019 21:15:00 2.1 C 88 % 0.33 C
1985 03-02-2019 21:20:00 2 C 89 % 0.38 C
1986 03-02-2019 21:25:00 1.9 C 89 % 0.28 C
1987 03-02-2019 21:30:00 1.8 C 89 % 0.19 C
1988 03-02-2019 21:35:00 1.7 C 90 % 0.24 C
1989 03-02-2019 21:40:00 1.6 C 90 % 0.14 C
1990 03-02-2019 21:45:00 1.6 C 90 % 0.14 C
1991 03-02-2019 21:50:00 1.5 C 91 % 0.19 C
1992 03-02-2019 21:55:00 1.5 C 91 % 0.19 C
1993 03-02-2019 22:00:00 1.4 C 91 % 0.1 C
1994 03-02-2019 22:05:00 1.4 C 91 % 0.1 C
1995 03-02-2019 22:10:00 1.3 C 91 % 0 C
1996 03-02-2019 22:15:00 1.2 C 91 % -0.1 C
1997 03-02-2019 22:20:00 1.1 C 91 % -0.2 C
1998 03-02-2019 22:25:00 1.1 C 91 % -0.2 C
1999 03-02-2019 22:30:00 0.9 C 91 % -0.4 C
2000 03-02-2019 22:35:00 0.8 C 91 % -0.5 C
Sensor: Nr:Datum:Temp:Feuchte:Taupunkt:
Aussen-T/F 2001 03-02-2019 22:40:00 0.8 C 91 % -0.5 C
2002 03-02-2019 22:45:00 0.7 C 92 % -0.45 C
2003 03-02-2019 22:50:00 0.6 C 92 % -0.55 C
2004 03-02-2019 22:55:00 0.6 C 92 % -0.55 C
2005 03-02-2019 23:00:00 0.6 C 92 % -0.55 C
2006 03-02-2019 23:05:00 0.5 C 93 % -0.5 C
2007 03-02-2019 23:10:00 0.5 C 93 % -0.5 C
2008 03-02-2019 23:15:00 0.4 C 93 % -0.6 C
2009 03-02-2019 23:20:00 0.4 C 92 % -0.74 C
2010 03-02-2019 23:25:00 0.3 C 93 % -0.7 C
2011 03-02-2019 23:30:00 0.3 C 93 % -0.7 C
2012 03-02-2019 23:35:00 0.2 C 93 % -0.79 C
2013 03-02-2019 23:40:00 0.1 C 93 % -0.89 C
2014 03-02-2019 23:45:00 0 C 93 % -0.99 C
2015 03-02-2019 23:50:00 -0.1 C 93 % -1.09 C
2016 03-02-2019 23:55:00 -0.1 C 93 % -1.09 C
2017 04-02-2019 00:00:00 -0.1 C 93 % -1.09 C
2018 04-02-2019 00:05:00 -0.2 C 93 % -1.19 C
2019 04-02-2019 00:10:00 -0.2 C 93 % -1.19 C
2020 04-02-2019 00:15:00 -0.2 C 93 % -1.19 C
2021 04-02-2019 00:20:00 -0.3 C 94 % -1.15 C
2022 04-02-2019 00:25:00 -0.3 C 94 % -1.15 C
2023 04-02-2019 00:30:00 -0.3 C 94 % -1.15 C
2024 04-02-2019 00:35:00 -0.4 C 94 % -1.25 C
2025 04-02-2019 00:40:00 -0.4 C 94 % -1.25 C
Sensor: Nr:Datum:Temp:Feuchte:Taupunkt:
Aussen-T/F 2026 04-02-2019 00:45:00 -0.4 C 94 % -1.25 C
2027 04-02-2019 00:50:00 -0.5 C 94 % -1.34 C
2028 04-02-2019 00:55:00 -0.5 C 94 % -1.34 C
2029 04-02-2019 01:00:00 -0.5 C 94 % -1.34 C
2030 04-02-2019 01:05:00 -0.4 C 95 % -1.1 C
2031 04-02-2019 01:10:00 -0.3 C 95 % -1 C
2032 04-02-2019 01:15:00 -0.2 C 95 % -0.9 C
2033 04-02-2019 01:20:00 0 C 95 % -0.7 C
2034 04-02-2019 01:25:00 0.1 C 95 % -0.6 C
2035 04-02-2019 01:30:00 0.1 C 95 % -0.6 C
2036 04-02-2019 01:35:00 0.1 C 95 % -0.6 C
2037 04-02-2019 01:40:00 0.1 C 95 % -0.6 C
2038 04-02-2019 01:45:00 0.1 C 95 % -0.6 C
2039 04-02-2019 01:50:00 0.1 C 95 % -0.6 C
2040 04-02-2019 01:55:00 0.1 C 95 % -0.6 C
2041 04-02-2019 02:00:00 0.1 C 95 % -0.6 C
2042 04-02-2019 02:05:00 0.1 C 95 % -0.6 C
2043 04-02-2019 02:10:00 0.1 C 95 % -0.6 C
2044 04-02-2019 02:15:00 0.1 C 94 % -0.75 C
2045 04-02-2019 02:20:00 0.1 C 94 % -0.75 C
2046 04-02-2019 02:25:00 0.1 C 95 % -0.6 C
2047 04-02-2019 02:30:00 0.1 C 94 % -0.75 C
2048 04-02-2019 02:35:00 0 C 94 % -0.85 C
2049 04-02-2019 02:40:00 -0.1 C 94 % -0.95 C
2050 04-02-2019 02:45:00 -0.2 C 94 % -1.05 C
Sensor: Nr:Datum:Temp:Feuchte:Taupunkt:
Aussen-T/F 2051 04-02-2019 02:50:00 -0.2 C 94 % -1.05 C
2052 04-02-2019 02:55:00 -0.2 C 94 % -1.05 C
2053 04-02-2019 03:00:00 -0.3 C 94 % -1.15 C
2054 04-02-2019 03:05:00 -0.2 C 94 % -1.05 C
2055 04-02-2019 03:10:00 -0.2 C 94 % -1.05 C
2056 04-02-2019 03:15:00 -0.2 C 94 % -1.05 C
2057 04-02-2019 03:20:00 -0.2 C 94 % -1.05 C
2058 04-02-2019 03:25:00 -0.2 C 94 % -1.05 C
2059 04-02-2019 03:30:00 -0.2 C 94 % -1.05 C
2060 04-02-2019 03:35:00 -0.2 C 94 % -1.05 C
2061 04-02-2019 03:40:00 -0.2 C 94 % -1.05 C
2062 04-02-2019 03:45:00 -0.1 C 94 % -0.95 C
2063 04-02-2019 03:50:00 -0.2 C 94 % -1.05 C
2064 04-02-2019 03:55:00 -0.2 C 94 % -1.05 C
2065 04-02-2019 04:00:00 -0.3 C 94 % -1.15 C
2066 04-02-2019 04:05:00 -0.3 C 94 % -1.15 C
2067 04-02-2019 04:10:00 -0.3 C 94 % -1.15 C
2068 04-02-2019 04:15:00 -0.4 C 94 % -1.25 C
2069 04-02-2019 04:20:00 -0.5 C 94 % -1.34 C
2070 04-02-2019 04:25:00 -0.6 C 94 % -1.44 C
2071 04-02-2019 04:30:00 -0.6 C 94 % -1.44 C
2072 04-02-2019 04:35:00 -0.6 C 94 % -1.44 C
2073 04-02-2019 04:40:00 -0.6 C 94 % -1.44 C
2074 04-02-2019 04:45:00 -0.5 C 94 % -1.34 C
2075 04-02-2019 04:50:00 -0.5 C 94 % -1.34 C
Sensor: Nr:Datum:Temp:Feuchte:Taupunkt:
Aussen-T/F 2076 04-02-2019 04:55:00 -0.5 C 95 % -1.2 C
2077 04-02-2019 05:00:00 -0.4 C 94 % -1.25 C
2078 04-02-2019 05:05:00 -0.4 C 95 % -1.1 C
2079 04-02-2019 05:10:00 -0.3 C 95 % -1 C
2080 04-02-2019 05:15:00 -0.2 C 95 % -0.9 C
2081 04-02-2019 05:20:00 -0.2 C 95 % -0.9 C
2082 04-02-2019 05:25:00 -0.1 C 95 % -0.8 C
2083 04-02-2019 05:30:00 0.1 C 95 % -0.6 C
2084 04-02-2019 05:35:00 0.1 C 95 % -0.6 C
2085 04-02-2019 05:40:00 0.2 C 95 % -0.5 C
2086 04-02-2019 05:45:00 0.2 C 95 % -0.5 C
2087 04-02-2019 05:50:00 0.3 C 95 % -0.4 C
2088 04-02-2019 05:55:00 0.3 C 95 % -0.4 C
2089 04-02-2019 06:00:00 0.3 C 95 % -0.4 C
2090 04-02-2019 06:05:00 0.3 C 95 % -0.4 C
2091 04-02-2019 06:10:00 0.3 C 95 % -0.4 C
2092 04-02-2019 06:15:00 0.3 C 95 % -0.4 C
2093 04-02-2019 06:20:00 0.4 C 95 % -0.31 C
2094 04-02-2019 06:25:00 0.4 C 95 % -0.31 C
2095 04-02-2019 06:30:00 0.4 C 95 % -0.31 C
2096 04-02-2019 06:35:00 0.4 C 95 % -0.31 C
2097 04-02-2019 06:40:00 0.4 C 95 % -0.31 C
2098 04-02-2019 06:45:00 0.4 C 95 % -0.31 C
2099 04-02-2019 06:50:00 0.4 C 95 % -0.31 C
2100 04-02-2019 06:55:00 0.4 C 95 % -0.31 C
Sensor: Nr:Datum:Temp:Feuchte:Taupunkt:
Aussen-T/F 2101 04-02-2019 07:00:00 0.4 C 95 % -0.31 C
2102 04-02-2019 07:05:00 0.4 C 95 % -0.31 C
2103 04-02-2019 07:10:00 0.5 C 95 % -0.21 C
2104 04-02-2019 07:15:00 0.5 C 95 % -0.21 C
2105 04-02-2019 07:20:00 0.5 C 95 % -0.21 C
2106 04-02-2019 07:25:00 0.6 C 95 % -0.11 C
2107 04-02-2019 07:30:00 0.5 C 95 % -0.21 C
2108 04-02-2019 07:35:00 0.5 C 95 % -0.21 C
2109 04-02-2019 07:40:00 0.5 C 95 % -0.21 C
2110 04-02-2019 07:45:00 0.6 C 95 % -0.11 C
2111 04-02-2019 07:50:00 0.6 C 94 % -0.25 C
2112 04-02-2019 07:55:00 0.6 C 95 % -0.11 C
2113 04-02-2019 08:00:00 0.6 C 95 % -0.11 C
2114 04-02-2019 08:05:00 0.6 C 95 % -0.11 C
2115 04-02-2019 08:10:00 0.6 C 95 % -0.11 C
2116 04-02-2019 08:15:00 0.6 C 95 % -0.11 C
2117 04-02-2019 08:20:00 0.7 C 95 % -0.01 C
2118 04-02-2019 08:25:00 0.7 C 94 % -0.15 C
2119 04-02-2019 08:30:00 0.7 C 94 % -0.15 C
2120 04-02-2019 08:35:00 0.7 C 94 % -0.15 C
2121 04-02-2019 08:40:00 0.8 C 94 % -0.05 C
2122 04-02-2019 08:45:00 0.8 C 94 % -0.05 C
2123 04-02-2019 08:50:00 0.8 C 94 % -0.05 C
2124 04-02-2019 08:55:00 0.8 C 94 % -0.05 C
2125 04-02-2019 09:00:00 0.8 C 94 % -0.05 C
Sensor: Nr:Datum:Temp:Feuchte:Taupunkt:
Aussen-T/F 2126 04-02-2019 09:05:00 0.8 C 94 % -0.05 C
2127 04-02-2019 09:10:00 0.7 C 94 % -0.15 C
2128 04-02-2019 09:15:00 0.7 C 94 % -0.15 C
2129 04-02-2019 09:20:00 0.6 C 93 % -0.4 C
2130 04-02-2019 09:25:00 0.6 C 94 % -0.25 C
2131 04-02-2019 09:30:00 0.5 C 94 % -0.35 C
2132 04-02-2019 09:35:00 0.5 C 94 % -0.35 C
2133 04-02-2019 09:40:00 0.5 C 94 % -0.35 C
2134 04-02-2019 09:45:00 0.6 C 94 % -0.25 C
2135 04-02-2019 09:50:00 0.5 C 94 % -0.35 C
2136 04-02-2019 09:55:00 0.5 C 94 % -0.35 C
2137 04-02-2019 10:00:00 0.6 C 94 % -0.25 C
2138 04-02-2019 10:05:00 0.6 C 94 % -0.25 C
2139 04-02-2019 10:10:00 0.6 C 94 % -0.25 C
2140 04-02-2019 10:15:00 0.7 C 94 % -0.15 C
2141 04-02-2019 10:20:00 0.8 C 94 % -0.05 C
2142 04-02-2019 10:25:00 0.8 C 95 % 0.09 C
2143 04-02-2019 10:30:00 0.9 C 94 % 0.05 C
2144 04-02-2019 10:35:00 1 C 94 % 0.15 C
2145 04-02-2019 10:40:00 1.1 C 94 % 0.24 C
2146 04-02-2019 10:45:00 1.2 C 94 % 0.34 C
2147 04-02-2019 10:50:00 1.2 C 94 % 0.34 C
2148 04-02-2019 10:55:00 1.3 C 94 % 0.44 C
2149 04-02-2019 11:00:00 1.4 C 94 % 0.54 C
2150 04-02-2019 11:05:00 1.6 C 93 % 0.59 C
Sensor: Nr:Datum:Temp:Feuchte:Taupunkt:
Aussen-T/F 2151 04-02-2019 11:10:00 1.7 C 93 % 0.69 C
2152 04-02-2019 11:15:00 1.8 C 93 % 0.79 C
2153 04-02-2019 11:20:00 1.9 C 92 % 0.74 C
2154 04-02-2019 11:25:00 2 C 91 % 0.69 C
2155 04-02-2019 11:30:00 2.1 C 91 % 0.79 C
2156 04-02-2019 11:35:00 2.2 C 90 % 0.73 C
2157 04-02-2019 11:40:00 2.3 C 90 % 0.83 C
2158 04-02-2019 11:45:00 2.4 C 90 % 0.93 C
2159 04-02-2019 11:50:00 2.5 C 89 % 0.88 C
2160 04-02-2019 11:55:00 2.6 C 89 % 0.97 C
2161 04-02-2019 12:00:00 2.7 C 89 % 1.07 C
2162 04-02-2019 12:05:00 2.9 C 89 % 1.27 C
2163 04-02-2019 12:10:00 3.1 C 88 % 1.31 C
2164 04-02-2019 12:15:00 3.2 C 88 % 1.41 C
2165 04-02-2019 12:20:00 3.3 C 85 % 1.03 C
2166 04-02-2019 12:25:00 3.6 C 82 % 0.82 C
2167 04-02-2019 12:30:00 3.9 C 80 % 0.77 C
2168 04-02-2019 12:35:00 4.2 C 78 % 0.71 C
2169 04-02-2019 12:40:00 4.3 C 77 % 0.63 C
2170 04-02-2019 12:45:00 4.5 C 77 % 0.83 C
2171 04-02-2019 12:50:00 4.6 C 75 % 0.56 C
2172 04-02-2019 12:55:00 4.7 C 74 % 0.47 C
2173 04-02-2019 13:00:00 4.8 C 74 % 0.57 C
2174 04-02-2019 13:05:00 4.8 C 73 % 0.38 C
2175 04-02-2019 13:10:00 4.8 C 74 % 0.57 C
Sensor: Nr:Datum:Temp:Feuchte:Taupunkt:
Aussen-T/F 2176 04-02-2019 13:15:00 4.8 C 73 % 0.38 C
2177 04-02-2019 13:20:00 4.8 C 72 % 0.19 C
2178 04-02-2019 13:25:00 4.8 C 72 % 0.19 C
2179 04-02-2019 13:30:00 4.8 C 72 % 0.19 C
2180 04-02-2019 13:35:00 4.7 C 72 % 0.09 C
2181 04-02-2019 13:40:00 4.7 C 73 % 0.28 C
2182 04-02-2019 13:45:00 4.7 C 72 % 0.09 C
2183 04-02-2019 13:50:00 4.8 C 72 % 0.19 C
2184 04-02-2019 13:55:00 4.9 C 72 % 0.29 C
2185 04-02-2019 14:00:00 4.9 C 71 % 0.09 C
2186 04-02-2019 14:05:00 5 C 72 % 0.38 C
2187 04-02-2019 14:10:00 5.2 C 71 % 0.38 C
2188 04-02-2019 14:15:00 5.2 C 69 % -0.01 C
2189 04-02-2019 14:20:00 5.3 C 69 % 0.09 C
2190 04-02-2019 14:25:00 5.4 C 70 % 0.38 C
2191 04-02-2019 14:30:00 5.4 C 67 % -0.22 C
2192 04-02-2019 14:35:00 5.4 C 67 % -0.22 C
2193 04-02-2019 14:40:00 5.4 C 67 % -0.22 C
2194 04-02-2019 14:45:00 5.5 C 66 % -0.33 C
2195 04-02-2019 14:50:00 5.5 C 67 % -0.13 C
2196 04-02-2019 14:55:00 5.5 C 66 % -0.33 C
2197 04-02-2019 15:00:00 5.4 C 66 % -0.43 C
2198 04-02-2019 15:05:00 5.4 C 66 % -0.43 C
2199 04-02-2019 15:10:00 5.4 C 67 % -0.22 C
2200 04-02-2019 15:15:00 5.3 C 68 % -0.12 C
Sensor: Nr:Datum:Temp:Feuchte:Taupunkt:
Aussen-T/F 2201 04-02-2019 15:20:00 5.3 C 66 % -0.52 C
2202 04-02-2019 15:25:00 5.3 C 66 % -0.52 C
2203 04-02-2019 15:30:00 5.3 C 65 % -0.73 C
2204 04-02-2019 15:35:00 5.3 C 67 % -0.32 C
2205 04-02-2019 15:40:00 5.3 C 68 % -0.12 C
2206 04-02-2019 15:45:00 5.3 C 68 % -0.12 C
2207 04-02-2019 15:50:00 5.3 C 68 % -0.12 C
2208 04-02-2019 15:55:00 5.3 C 66 % -0.52 C
2209 04-02-2019 16:00:00 5.3 C 67 % -0.32 C
2210 04-02-2019 16:05:00 5.3 C 69 % 0.09 C
2211 04-02-2019 16:10:00 5.3 C 70 % 0.28 C
2212 04-02-2019 16:15:00 5.3 C 68 % -0.12 C
2213 04-02-2019 16:20:00 5.3 C 67 % -0.32 C
2214 04-02-2019 16:25:00 5.2 C 70 % 0.19 C
2215 04-02-2019 16:30:00 5.2 C 73 % 0.77 C
2216 04-02-2019 16:35:00 5 C 73 % 0.57 C
2217 04-02-2019 16:40:00 4.8 C 74 % 0.57 C
2218 04-02-2019 16:45:00 4.7 C 76 % 0.84 C
2219 04-02-2019 16:50:00 4.4 C 77 % 0.73 C
2220 04-02-2019 16:55:00 4.2 C 78 % 0.71 C
2221 04-02-2019 17:00:00 3.9 C 79 % 0.6 C
2222 04-02-2019 17:05:00 3.6 C 81 % 0.65 C
2223 04-02-2019 17:10:00 3.3 C 81 % 0.36 C
2224 04-02-2019 17:15:00 3.1 C 82 % 0.33 C
2225 04-02-2019 17:20:00 2.9 C 83 % 0.31 C
Sensor: Nr:Datum:Temp:Feuchte:Taupunkt:
Aussen-T/F 2226 04-02-2019 17:25:00 2.7 C 84 % 0.27 C
2227 04-02-2019 17:30:00 2.6 C 84 % 0.18 C
2228 04-02-2019 17:35:00 2.4 C 85 % 0.14 C
2229 04-02-2019 17:40:00 2.3 C 85 % 0.04 C
2230 04-02-2019 17:45:00 2.2 C 85 % -0.05 C
2231 04-02-2019 17:50:00 2.1 C 86 % 0.01 C
2232 04-02-2019 17:55:00 1.9 C 86 % -0.19 C
2233 04-02-2019 18:00:00 1.8 C 86 % -0.29 C
2234 04-02-2019 18:05:00 1.7 C 87 % -0.23 C
2235 04-02-2019 18:10:00 1.6 C 87 % -0.32 C
2236 04-02-2019 18:15:00 1.6 C 87 % -0.32 C
2237 04-02-2019 18:20:00 1.5 C 87 % -0.42 C
2238 04-02-2019 18:25:00 1.4 C 87 % -0.52 C
2239 04-02-2019 18:30:00 1.3 C 87 % -0.62 C
2240 04-02-2019 18:35:00 1.3 C 88 % -0.46 C
2241 04-02-2019 18:40:00 1.2 C 88 % -0.56 C
2242 04-02-2019 18:45:00 1.2 C 88 % -0.56 C
2243 04-02-2019 18:50:00 1.1 C 89 % -0.51 C
2244 04-02-2019 18:55:00 1.1 C 89 % -0.51 C
2245 04-02-2019 19:00:00 1.1 C 89 % -0.51 C
2246 04-02-2019 19:05:00 1.1 C 89 % -0.51 C
2247 04-02-2019 19:10:00 1.2 C 89 % -0.41 C
2248 04-02-2019 19:15:00 1.2 C 89 % -0.41 C
2249 04-02-2019 19:20:00 1.3 C 90 % -0.15 C
2250 04-02-2019 19:25:00 1.3 C 90 % -0.15 C
Sensor: Nr:Datum:Temp:Feuchte:Taupunkt:
Aussen-T/F 2251 04-02-2019 19:30:00 1.4 C 90 % -0.06 C
2252 04-02-2019 19:35:00 1.5 C 90 % 0.04 C
2253 04-02-2019 19:40:00 1.6 C 90 % 0.14 C
2254 04-02-2019 19:45:00 1.7 C 89 % 0.09 C
2255 04-02-2019 19:50:00 1.7 C 90 % 0.24 C
2256 04-02-2019 19:55:00 1.8 C 90 % 0.34 C
2257 04-02-2019 20:00:00 1.8 C 89 % 0.19 C
2258 04-02-2019 20:05:00 1.9 C 89 % 0.28 C
2259 04-02-2019 20:10:00 1.9 C 89 % 0.28 C
2260 04-02-2019 20:15:00 1.9 C 89 % 0.28 C
2261 04-02-2019 20:20:00 1.9 C 88 % 0.13 C
2262 04-02-2019 20:25:00 2 C 88 % 0.23 C
2263 04-02-2019 20:30:00 2 C 88 % 0.23 C
2264 04-02-2019 20:35:00 2 C 88 % 0.23 C
2265 04-02-2019 20:40:00 2 C 88 % 0.23 C
2266 04-02-2019 20:45:00 2.2 C 86 % 0.11 C
2267 04-02-2019 20:50:00 2.2 C 85 % -0.05 C
2268 04-02-2019 20:55:00 2.3 C 84 % -0.12 C
2269 04-02-2019 21:00:00 2.3 C 83 % -0.28 C
2270 04-02-2019 21:05:00 2.4 C 83 % -0.18 C
2271 04-02-2019 21:10:00 2.5 C 83 % -0.09 C
2272 04-02-2019 21:15:00 2.6 C 83 % 0.01 C
2273 04-02-2019 21:20:00 2.7 C 82 % -0.06 C
2274 04-02-2019 21:25:00 2.7 C 83 % 0.11 C
2275 04-02-2019 21:30:00 2.7 C 83 % 0.11 C
Sensor: Nr:Datum:Temp:Feuchte:Taupunkt:
Aussen-T/F 2276 04-02-2019 21:35:00 2.7 C 83 % 0.11 C
2277 04-02-2019 21:40:00 2.7 C 83 % 0.11 C
2278 04-02-2019 21:45:00 2.7 C 82 % -0.06 C
2279 04-02-2019 21:50:00 2.7 C 82 % -0.06 C
2280 04-02-2019 21:55:00 2.8 C 81 % -0.13 C
2281 04-02-2019 22:00:00 2.8 C 82 % 0.04 C
2282 04-02-2019 22:05:00 2.9 C 83 % 0.31 C
2283 04-02-2019 22:10:00 2.9 C 82 % 0.14 C
2284 04-02-2019 22:15:00 2.9 C 83 % 0.31 C
2285 04-02-2019 22:20:00 2.9 C 82 % 0.14 C
2286 04-02-2019 22:25:00 2.9 C 83 % 0.31 C
2287 04-02-2019 22:30:00 2.8 C 83 % 0.21 C
2288 04-02-2019 22:35:00 2.8 C 82 % 0.04 C
2289 04-02-2019 22:40:00 2.8 C 83 % 0.21 C
2290 04-02-2019 22:45:00 2.8 C 83 % 0.21 C
2291 04-02-2019 22:50:00 2.9 C 84 % 0.47 C
2292 04-02-2019 22:55:00 2.8 C 85 % 0.54 C
2293 04-02-2019 23:00:00 2.8 C 85 % 0.54 C
2294 04-02-2019 23:05:00 2.8 C 85 % 0.54 C
2295 04-02-2019 23:10:00 2.7 C 86 % 0.6 C
2296 04-02-2019 23:15:00 2.7 C 85 % 0.44 C
2297 04-02-2019 23:20:00 2.7 C 85 % 0.44 C
2298 04-02-2019 23:25:00 2.7 C 86 % 0.6 C
2299 04-02-2019 23:30:00 2.7 C 86 % 0.6 C
2300 04-02-2019 23:35:00 2.7 C 85 % 0.44 C
Sensor: Nr:Datum:Temp:Feuchte:Taupunkt:
Aussen-T/F 2301 04-02-2019 23:40:00 2.7 C 85 % 0.44 C
2302 04-02-2019 23:45:00 2.7 C 85 % 0.44 C
2303 04-02-2019 23:50:00 2.7 C 83 % 0.11 C
2304 04-02-2019 23:55:00 2.7 C 83 % 0.11 C
2305 05-02-2019 00:00:00 2.8 C 83 % 0.21 C
2306 05-02-2019 00:05:00 2.8 C 83 % 0.21 C
2307 05-02-2019 00:10:00 2.9 C 83 % 0.31 C
2308 05-02-2019 00:15:00 2.9 C 83 % 0.31 C
2309 05-02-2019 00:20:00 2.9 C 83 % 0.31 C
2310 05-02-2019 00:25:00 3 C 83 % 0.4 C
2311 05-02-2019 00:30:00 3 C 83 % 0.4 C
2312 05-02-2019 00:35:00 3 C 84 % 0.57 C
2313 05-02-2019 00:40:00 3.1 C 82 % 0.33 C
2314 05-02-2019 00:45:00 3.1 C 82 % 0.33 C
2315 05-02-2019 00:50:00 3.2 C 82 % 0.43 C
2316 05-02-2019 00:55:00 3.2 C 81 % 0.26 C
2317 05-02-2019 01:00:00 3.2 C 83 % 0.6 C
2318 05-02-2019 01:05:00 3.2 C 81 % 0.26 C
2319 05-02-2019 01:10:00 3.3 C 81 % 0.36 C
2320 05-02-2019 01:15:00 3.3 C 80 % 0.19 C
2321 05-02-2019 01:20:00 3.3 C 81 % 0.36 C
2322 05-02-2019 01:25:00 3.3 C 80 % 0.19 C
2323 05-02-2019 01:30:00 3.4 C 81 % 0.46 C
2324 05-02-2019 01:35:00 3.3 C 79 % 0.02 C
2325 05-02-2019 01:40:00 3.4 C 80 % 0.29 C
Sensor: Nr:Datum:Temp:Feuchte:Taupunkt:
Aussen-T/F 2326 05-02-2019 01:45:00 3.4 C 81 % 0.46 C
2327 05-02-2019 01:50:00 3.4 C 82 % 0.63 C
2328 05-02-2019 01:55:00 3.3 C 81 % 0.36 C
2329 05-02-2019 02:00:00 3.3 C 82 % 0.53 C
2330 05-02-2019 02:05:00 3.3 C 80 % 0.19 C
2331 05-02-2019 02:10:00 3.3 C 80 % 0.19 C
2332 05-02-2019 02:15:00 3.3 C 81 % 0.36 C
2333 05-02-2019 02:20:00 3.3 C 80 % 0.19 C
2334 05-02-2019 02:25:00 3.4 C 80 % 0.29 C
2335 05-02-2019 02:30:00 3.4 C 79 % 0.11 C
2336 05-02-2019 02:35:00 3.4 C 78 % -0.06 C
2337 05-02-2019 02:40:00 3.5 C 78 % 0.04 C
2338 05-02-2019 02:45:00 3.6 C 78 % 0.13 C
2339 05-02-2019 02:50:00 3.6 C 78 % 0.13 C
2340 05-02-2019 02:55:00 3.6 C 77 % -0.05 C
2341 05-02-2019 03:00:00 3.6 C 77 % -0.05 C
2342 05-02-2019 03:05:00 3.6 C 77 % -0.05 C
2343 05-02-2019 03:10:00 3.7 C 77 % 0.05 C
2344 05-02-2019 03:15:00 3.7 C 77 % 0.05 C
2345 05-02-2019 03:20:00 3.6 C 76 % -0.22 C
2346 05-02-2019 03:25:00 3.6 C 77 % -0.05 C
2347 05-02-2019 03:30:00 3.6 C 78 % 0.13 C
2348 05-02-2019 03:35:00 3.6 C 78 % 0.13 C
2349 05-02-2019 03:40:00 3.6 C 80 % 0.48 C
2350 05-02-2019 03:45:00 3.6 C 79 % 0.31 C
Sensor: Nr:Datum:Temp:Feuchte:Taupunkt:
Aussen-T/F 2351 05-02-2019 03:50:00 3.5 C 80 % 0.38 C
2352 05-02-2019 03:55:00 3.5 C 78 % 0.04 C
2353 05-02-2019 04:00:00 3.5 C 81 % 0.55 C
2354 05-02-2019 04:05:00 3.5 C 80 % 0.38 C
2355 05-02-2019 04:10:00 3.4 C 79 % 0.11 C
2356 05-02-2019 04:15:00 3.4 C 79 % 0.11 C
2357 05-02-2019 04:20:00 3.4 C 80 % 0.29 C
2358 05-02-2019 04:25:00 3.4 C 80 % 0.29 C
2359 05-02-2019 04:30:00 3.4 C 79 % 0.11 C
2360 05-02-2019 04:35:00 3.4 C 78 % -0.06 C
2361 05-02-2019 04:40:00 3.4 C 78 % -0.06 C
2362 05-02-2019 04:45:00 3.4 C 78 % -0.06 C
2363 05-02-2019 04:50:00 3.5 C 77 % -0.14 C
2364 05-02-2019 04:55:00 3.6 C 78 % 0.13 C
2365 05-02-2019 05:00:00 3.6 C 77 % -0.05 C
2366 05-02-2019 05:05:00 3.6 C 77 % -0.05 C
2367 05-02-2019 05:10:00 3.6 C 77 % -0.05 C
2368 05-02-2019 05:15:00 3.6 C 77 % -0.05 C
2369 05-02-2019 05:20:00 3.6 C 76 % -0.22 C
2370 05-02-2019 05:25:00 3.7 C 77 % 0.05 C
2371 05-02-2019 05:30:00 3.6 C 77 % -0.05 C
2372 05-02-2019 05:35:00 3.7 C 76 % -0.13 C
2373 05-02-2019 05:40:00 3.7 C 76 % -0.13 C
2374 05-02-2019 05:45:00 3.7 C 76 % -0.13 C
2375 05-02-2019 05:50:00 3.7 C 75 % -0.31 C
Sensor: Nr:Datum:Temp:Feuchte:Taupunkt:
Aussen-T/F 2376 05-02-2019 05:55:00 3.7 C 78 % 0.23 C
2377 05-02-2019 06:00:00 3.7 C 78 % 0.23 C
2378 05-02-2019 06:05:00 3.7 C 80 % 0.58 C
2379 05-02-2019 06:10:00 3.6 C 80 % 0.48 C
2380 05-02-2019 06:15:00 3.6 C 80 % 0.48 C
2381 05-02-2019 06:20:00 3.4 C 80 % 0.29 C
2382 05-02-2019 06:25:00 3.4 C 81 % 0.46 C
2383 05-02-2019 06:30:00 3.3 C 82 % 0.53 C
2384 05-02-2019 06:35:00 3.3 C 83 % 0.7 C
2385 05-02-2019 06:40:00 3.2 C 83 % 0.6 C
2386 05-02-2019 06:45:00 3.2 C 83 % 0.6 C
2387 05-02-2019 06:50:00 3.2 C 84 % 0.76 C
2388 05-02-2019 06:55:00 3.1 C 84 % 0.67 C
2389 05-02-2019 07:00:00 3.1 C 84 % 0.67 C
2390 05-02-2019 07:05:00 3.1 C 84 % 0.67 C
2391 05-02-2019 07:10:00 3 C 84 % 0.57 C
2392 05-02-2019 07:15:00 3 C 85 % 0.73 C
2393 05-02-2019 07:20:00 3 C 85 % 0.73 C
2394 05-02-2019 07:25:00 3 C 84 % 0.57 C
2395 05-02-2019 07:30:00 3 C 85 % 0.73 C
2396 05-02-2019 07:35:00 3 C 85 % 0.73 C
2397 05-02-2019 07:40:00 2.9 C 85 % 0.63 C
2398 05-02-2019 07:45:00 2.9 C 86 % 0.8 C
2399 05-02-2019 07:50:00 2.9 C 86 % 0.8 C
2400 05-02-2019 07:55:00 2.9 C 85 % 0.63 C
Sensor: Nr:Datum:Temp:Feuchte:Taupunkt:
Aussen-T/F 2401 05-02-2019 08:00:00 2.9 C 86 % 0.8 C
2402 05-02-2019 08:05:00 2.9 C 86 % 0.8 C
2403 05-02-2019 08:10:00 2.9 C 86 % 0.8 C
2404 05-02-2019 08:15:00 2.9 C 86 % 0.8 C
2405 05-02-2019 08:20:00 2.9 C 85 % 0.63 C
2406 05-02-2019 08:25:00 2.9 C 86 % 0.8 C
2407 05-02-2019 08:30:00 2.9 C 86 % 0.8 C
2408 05-02-2019 08:35:00 3 C 85 % 0.73 C
2409 05-02-2019 08:40:00 3 C 84 % 0.57 C
2410 05-02-2019 08:45:00 3.1 C 83 % 0.5 C
2411 05-02-2019 08:50:00 3.2 C 84 % 0.76 C
2412 05-02-2019 08:55:00 3.2 C 83 % 0.6 C
2413 05-02-2019 09:00:00 3.3 C 83 % 0.7 C
2414 05-02-2019 09:05:00 3.3 C 82 % 0.53 C
2415 05-02-2019 09:10:00 3.4 C 82 % 0.63 C
2416 05-02-2019 09:15:00 3.5 C 81 % 0.55 C
2417 05-02-2019 09:20:00 3.6 C 80 % 0.48 C
2418 05-02-2019 09:25:00 3.6 C 80 % 0.48 C
2419 05-02-2019 09:30:00 3.6 C 80 % 0.48 C
2420 05-02-2019 09:35:00 3.7 C 80 % 0.58 C
2421 05-02-2019 09:40:00 3.7 C 80 % 0.58 C
2422 05-02-2019 09:45:00 3.7 C 79 % 0.4 C
2423 05-02-2019 09:50:00 3.8 C 79 % 0.5 C
2424 05-02-2019 09:55:00 3.8 C 79 % 0.5 C
2425 05-02-2019 10:00:00 3.8 C 79 % 0.5 C
Sensor: Nr:Datum:Temp:Feuchte:Taupunkt:
Aussen-T/F 2426 05-02-2019 10:05:00 3.9 C 79 % 0.6 C
2427 05-02-2019 10:10:00 3.9 C 79 % 0.6 C
2428 05-02-2019 10:15:00 4 C 79 % 0.7 C
2429 05-02-2019 10:20:00 4.1 C 78 % 0.62 C
2430 05-02-2019 10:25:00 4.2 C 78 % 0.71 C
2431 05-02-2019 10:30:00 4.2 C 78 % 0.71 C
2432 05-02-2019 10:35:00 4.3 C 77 % 0.63 C
2433 05-02-2019 10:40:00 4.3 C 78 % 0.81 C
2434 05-02-2019 10:45:00 4.4 C 78 % 0.91 C
2435 05-02-2019 10:50:00 4.4 C 77 % 0.73 C
2436 05-02-2019 10:55:00 4.6 C 77 % 0.92 C
2437 05-02-2019 11:00:00 4.7 C 78 % 1.2 C
2438 05-02-2019 11:05:00 4.7 C 77 % 1.02 C
2439 05-02-2019 11:10:00 4.8 C 76 % 0.94 C
2440 05-02-2019 11:15:00 4.8 C 76 % 0.94 C
2441 05-02-2019 11:20:00 4.9 C 76 % 1.03 C
2442 05-02-2019 11:25:00 5 C 76 % 1.13 C
2443 05-02-2019 11:30:00 5.1 C 75 % 1.04 C
2444 05-02-2019 11:35:00 5.1 C 75 % 1.04 C
2445 05-02-2019 11:40:00 5.2 C 75 % 1.14 C
2446 05-02-2019 11:45:00 5.2 C 75 % 1.14 C
2447 05-02-2019 11:50:00 5.3 C 75 % 1.24 C
2448 05-02-2019 11:55:00 5.3 C 75 % 1.24 C
2449 05-02-2019 12:00:00 5.4 C 76 % 1.52 C
2450 05-02-2019 12:05:00 5.6 C 76 % 1.71 C
Sensor: Nr:Datum:Temp:Feuchte:Taupunkt:
Aussen-T/F 2451 05-02-2019 12:10:00 5.6 C 75 % 1.53 C
2452 05-02-2019 12:15:00 5.8 C 75 % 1.72 C
2453 05-02-2019 12:20:00 5.8 C 75 % 1.72 C
2454 05-02-2019 12:25:00 5.9 C 74 % 1.63 C
2455 05-02-2019 12:30:00 6 C 75 % 1.91 C
2456 05-02-2019 12:35:00 6 C 74 % 1.73 C
2457 05-02-2019 12:40:00 6 C 74 % 1.73 C
2458 05-02-2019 12:45:00 6.1 C 74 % 1.82 C
2459 05-02-2019 12:50:00 6 C 74 % 1.73 C
2460 05-02-2019 12:55:00 6.1 C 74 % 1.82 C
2461 05-02-2019 13:00:00 6.1 C 74 % 1.82 C
2462 05-02-2019 13:05:00 6.1 C 74 % 1.82 C
2463 05-02-2019 13:10:00 6.2 C 73 % 1.73 C
2464 05-02-2019 13:15:00 6.2 C 74 % 1.92 C
2465 05-02-2019 13:20:00 6.3 C 74 % 2.02 C
2466 05-02-2019 13:25:00 6.3 C 74 % 2.02 C
2467 05-02-2019 13:30:00 6.4 C 73 % 1.92 C
2468 05-02-2019 13:35:00 6.4 C 73 % 1.92 C
2469 05-02-2019 13:40:00 6.4 C 73 % 1.92 C
2470 05-02-2019 13:45:00 6.4 C 73 % 1.92 C
2471 05-02-2019 13:50:00 6.4 C 73 % 1.92 C
2472 05-02-2019 13:55:00 6.5 C 73 % 2.02 C
2473 05-02-2019 14:00:00 6.5 C 72 % 1.83 C
2474 05-02-2019 14:05:00 6.6 C 73 % 2.12 C
2475 05-02-2019 14:10:00 6.6 C 73 % 2.12 C
Sensor: Nr:Datum:Temp:Feuchte:Taupunkt:
Aussen-T/F 2476 05-02-2019 14:15:00 6.7 C 73 % 2.21 C
2477 05-02-2019 14:20:00 6.7 C 73 % 2.21 C
2478 05-02-2019 14:25:00 6.7 C 73 % 2.21 C
2479 05-02-2019 14:30:00 6.7 C 73 % 2.21 C
2480 05-02-2019 14:35:00 6.8 C 73 % 2.31 C
2481 05-02-2019 14:40:00 6.8 C 73 % 2.31 C
2482 05-02-2019 14:45:00 6.9 C 73 % 2.4 C
2483 05-02-2019 14:50:00 6.9 C 73 % 2.4 C
2484 05-02-2019 14:55:00 6.9 C 72 % 2.21 C
2485 05-02-2019 15:00:00 7 C 74 % 2.69 C
2486 05-02-2019 15:05:00 7 C 73 % 2.5 C
2487 05-02-2019 15:10:00 7.1 C 73 % 2.6 C
2488 05-02-2019 15:15:00 7.1 C 73 % 2.6 C
2489 05-02-2019 15:20:00 7 C 74 % 2.69 C
2490 05-02-2019 15:25:00 7.1 C 74 % 2.79 C
2491 05-02-2019 15:30:00 7.1 C 73 % 2.6 C
2492 05-02-2019 15:35:00 7 C 73 % 2.5 C
2493 05-02-2019 15:40:00 7 C 73 % 2.5 C
2494 05-02-2019 15:45:00 7 C 74 % 2.69 C
2495 05-02-2019 15:50:00 7 C 75 % 2.88 C
2496 05-02-2019 15:55:00 7 C 74 % 2.69 C
2497 05-02-2019 16:00:00 7 C 74 % 2.69 C
2498 05-02-2019 16:05:00 6.9 C 74 % 2.6 C
2499 05-02-2019 16:10:00 6.9 C 74 % 2.6 C
2500 05-02-2019 16:15:00 6.9 C 75 % 2.78 C
Sensor: Nr:Datum:Temp:Feuchte:Taupunkt:
Aussen-T/F 2501 05-02-2019 16:20:00 6.9 C 75 % 2.78 C
2502 05-02-2019 16:25:00 6.8 C 76 % 2.87 C
2503 05-02-2019 16:30:00 6.8 C 76 % 2.87 C
2504 05-02-2019 16:35:00 6.8 C 77 % 3.06 C
2505 05-02-2019 16:40:00 6.8 C 78 % 3.24 C
2506 05-02-2019 16:45:00 6.8 C 79 % 3.42 C
2507 05-02-2019 16:50:00 6.7 C 80 % 3.5 C
2508 05-02-2019 16:55:00 6.7 C 80 % 3.5 C
2509 05-02-2019 17:00:00 6.6 C 81 % 3.58 C
2510 05-02-2019 17:05:00 6.6 C 81 % 3.58 C
2511 05-02-2019 17:10:00 6.6 C 81 % 3.58 C
2512 05-02-2019 17:15:00 6.4 C 82 % 3.56 C
2513 05-02-2019 17:20:00 6.3 C 82 % 3.46 C
2514 05-02-2019 17:25:00 6.3 C 83 % 3.63 C
2515 05-02-2019 17:30:00 6.1 C 83 % 3.44 C
2516 05-02-2019 17:35:00 6 C 84 % 3.51 C
2517 05-02-2019 17:40:00 5.9 C 84 % 3.41 C
2518 05-02-2019 17:45:00 5.8 C 84 % 3.31 C
2519 05-02-2019 17:50:00 5.7 C 85 % 3.38 C
2520 05-02-2019 17:55:00 5.6 C 85 % 3.28 C
2521 05-02-2019 18:00:00 5.5 C 85 % 3.18 C
2522 05-02-2019 18:05:00 5.4 C 86 % 3.25 C
2523 05-02-2019 18:10:00 5.3 C 86 % 3.15 C
2524 05-02-2019 18:15:00 5.3 C 86 % 3.15 C
2525 05-02-2019 18:20:00 5.2 C 86 % 3.05 C
Sensor: Nr:Datum:Temp:Feuchte:Taupunkt:
Aussen-T/F 2526 05-02-2019 18:25:00 5.2 C 86 % 3.05 C
2527 05-02-2019 18:30:00 5.1 C 86 % 2.96 C
2528 05-02-2019 18:35:00 5.1 C 86 % 2.96 C
2529 05-02-2019 18:40:00 5 C 87 % 3.02 C
2530 05-02-2019 18:45:00 5 C 87 % 3.02 C
2531 05-02-2019 18:50:00 4.9 C 87 % 2.92 C
2532 05-02-2019 18:55:00 4.9 C 87 % 2.92 C
2533 05-02-2019 19:00:00 4.8 C 87 % 2.82 C
2534 05-02-2019 19:05:00 4.8 C 87 % 2.82 C
2535 05-02-2019 19:10:00 4.8 C 87 % 2.82 C
2536 05-02-2019 19:15:00 4.8 C 87 % 2.82 C
2537 05-02-2019 19:20:00 4.8 C 87 % 2.82 C
2538 05-02-2019 19:25:00 4.8 C 88 % 2.99 C
2539 05-02-2019 19:30:00 4.7 C 88 % 2.89 C
2540 05-02-2019 19:35:00 4.7 C 87 % 2.73 C
2541 05-02-2019 19:40:00 4.7 C 88 % 2.89 C
2542 05-02-2019 19:45:00 4.7 C 88 % 2.89 C
2543 05-02-2019 19:50:00 4.7 C 88 % 2.89 C
2544 05-02-2019 19:55:00 4.7 C 88 % 2.89 C
2545 05-02-2019 20:00:00 4.7 C 88 % 2.89 C
2546 05-02-2019 20:05:00 4.6 C 88 % 2.79 C
2547 05-02-2019 20:10:00 4.6 C 88 % 2.79 C
2548 05-02-2019 20:15:00 4.5 C 88 % 2.69 C
2549 05-02-2019 20:20:00 4.4 C 88 % 2.59 C
2550 05-02-2019 20:25:00 4.4 C 88 % 2.59 C
Sensor: Nr:Datum:Temp:Feuchte:Taupunkt:
Aussen-T/F 2551 05-02-2019 20:30:00 4.3 C 88 % 2.49 C
2552 05-02-2019 20:35:00 4.2 C 88 % 2.39 C
2553 05-02-2019 20:40:00 4.2 C 88 % 2.39 C
2554 05-02-2019 20:45:00 4.1 C 89 % 2.45 C
2555 05-02-2019 20:50:00 4.1 C 89 % 2.45 C
2556 05-02-2019 20:55:00 4.1 C 89 % 2.45 C
2557 05-02-2019 21:00:00 4.1 C 89 % 2.45 C
2558 05-02-2019 21:05:00 4.1 C 89 % 2.45 C
2559 05-02-2019 21:10:00 4.2 C 90 % 2.71 C
2560 05-02-2019 21:15:00 4.2 C 90 % 2.71 C
2561 05-02-2019 21:20:00 4.2 C 90 % 2.71 C
2562 05-02-2019 21:25:00 4.2 C 90 % 2.71 C
2563 05-02-2019 21:30:00 4.2 C 90 % 2.71 C
2564 05-02-2019 21:35:00 4.2 C 90 % 2.71 C
2565 05-02-2019 21:40:00 4.2 C 89 % 2.55 C
2566 05-02-2019 21:45:00 4.1 C 89 % 2.45 C
2567 05-02-2019 21:50:00 3.9 C 88 % 2.1 C
2568 05-02-2019 21:55:00 3.7 C 88 % 1.9 C
2569 05-02-2019 22:00:00 3.4 C 88 % 1.61 C
2570 05-02-2019 22:05:00 3.3 C 89 % 1.67 C
2571 05-02-2019 22:10:00 3.1 C 89 % 1.47 C
2572 05-02-2019 22:15:00 2.9 C 89 % 1.27 C
2573 05-02-2019 22:20:00 2.8 C 89 % 1.17 C
2574 05-02-2019 22:25:00 2.7 C 89 % 1.07 C
2575 05-02-2019 22:30:00 2.6 C 90 % 1.13 C
Sensor: Nr:Datum:Temp:Feuchte:Taupunkt:
Aussen-T/F 2576 05-02-2019 22:35:00 2.4 C 90 % 0.93 C
2577 05-02-2019 22:40:00 2.4 C 90 % 0.93 C
2578 05-02-2019 22:45:00 2.3 C 91 % 0.99 C
2579 05-02-2019 22:50:00 2.2 C 91 % 0.89 C
2580 05-02-2019 22:55:00 2.2 C 91 % 0.89 C
2581 05-02-2019 23:00:00 2.1 C 91 % 0.79 C
2582 05-02-2019 23:05:00 2.1 C 91 % 0.79 C
2583 05-02-2019 23:10:00 2 C 92 % 0.84 C
2584 05-02-2019 23:15:00 1.9 C 91 % 0.59 C
2585 05-02-2019 23:20:00 1.9 C 92 % 0.74 C
2586 05-02-2019 23:25:00 1.8 C 92 % 0.64 C
2587 05-02-2019 23:30:00 1.8 C 92 % 0.64 C
2588 05-02-2019 23:35:00 1.7 C 92 % 0.54 C
2589 05-02-2019 23:40:00 1.6 C 92 % 0.44 C
2590 05-02-2019 23:45:00 1.4 C 92 % 0.25 C
2591 05-02-2019 23:50:00 1.3 C 91 % 0 C
2592 05-02-2019 23:55:00 1.1 C 92 % -0.05 C
2593 06-02-2019 00:00:00 1 C 92 % -0.15 C
2594 06-02-2019 00:05:00 0.8 C 92 % -0.35 C
2595 06-02-2019 00:10:00 0.7 C 92 % -0.45 C
2596 06-02-2019 00:15:00 0.6 C 92 % -0.55 C
2597 06-02-2019 00:20:00 0.5 C 92 % -0.65 C
2598 06-02-2019 00:25:00 0.4 C 93 % -0.6 C
2599 06-02-2019 00:30:00 0.3 C 93 % -0.7 C
2600 06-02-2019 00:35:00 0.3 C 93 % -0.7 C
Sensor: Nr:Datum:Temp:Feuchte:Taupunkt:
Aussen-T/F 2601 06-02-2019 00:40:00 0.2 C 93 % -0.79 C
2602 06-02-2019 00:45:00 0.2 C 93 % -0.79 C
2603 06-02-2019 00:50:00 0.1 C 93 % -0.89 C
2604 06-02-2019 00:55:00 0.1 C 93 % -0.89 C
2605 06-02-2019 01:00:00 0 C 94 % -0.85 C
2606 06-02-2019 01:05:00 0 C 94 % -0.85 C
2607 06-02-2019 01:10:00 -0.1 C 94 % -0.95 C
2608 06-02-2019 01:15:00 -0.1 C 94 % -0.95 C
2609 06-02-2019 01:20:00 -0.2 C 94 % -1.05 C
2610 06-02-2019 01:25:00 -0.3 C 94 % -1.15 C
2611 06-02-2019 01:30:00 -0.3 C 94 % -1.15 C
2612 06-02-2019 01:35:00 -0.3 C 94 % -1.15 C
2613 06-02-2019 01:40:00 -0.3 C 94 % -1.15 C
2614 06-02-2019 01:45:00 -0.3 C 94 % -1.15 C
2615 06-02-2019 01:50:00 -0.4 C 94 % -1.25 C
2616 06-02-2019 01:55:00 -0.4 C 94 % -1.25 C
2617 06-02-2019 02:00:00 -0.5 C 94 % -1.34 C
2618 06-02-2019 02:05:00 -0.6 C 94 % -1.44 C
2619 06-02-2019 02:10:00 -0.6 C 94 % -1.44 C
2620 06-02-2019 02:15:00 -0.6 C 94 % -1.44 C
2621 06-02-2019 02:20:00 -0.6 C 95 % -1.3 C
2622 06-02-2019 02:25:00 -0.6 C 95 % -1.3 C
2623 06-02-2019 02:30:00 -0.7 C 95 % -1.4 C
2624 06-02-2019 02:35:00 -0.7 C 95 % -1.4 C
2625 06-02-2019 02:40:00 -0.7 C 94 % -1.54 C
Sensor: Nr:Datum:Temp:Feuchte:Taupunkt:
Aussen-T/F 2626 06-02-2019 02:45:00 -0.8 C 94 % -1.64 C
2627 06-02-2019 02:50:00 -0.8 C 94 % -1.64 C
2628 06-02-2019 02:55:00 -0.9 C 95 % -1.6 C
2629 06-02-2019 03:00:00 -0.9 C 95 % -1.6 C
2630 06-02-2019 03:05:00 -1 C 95 % -1.7 C
2631 06-02-2019 03:10:00 -1.1 C 95 % -1.8 C
2632 06-02-2019 03:15:00 -1.1 C 94 % -1.94 C
2633 06-02-2019 03:20:00 -1.2 C 94 % -2.04 C
2634 06-02-2019 03:25:00 -1.2 C 95 % -1.9 C
2635 06-02-2019 03:30:00 -1.2 C 95 % -1.9 C
2636 06-02-2019 03:35:00 -1.3 C 95 % -2 C
2637 06-02-2019 03:40:00 -1.2 C 95 % -1.9 C
2638 06-02-2019 03:45:00 -1.2 C 95 % -1.9 C
2639 06-02-2019 03:50:00 -1.3 C 95 % -2 C
2640 06-02-2019 03:55:00 -1.3 C 95 % -2 C
2641 06-02-2019 04:00:00 -1.3 C 95 % -2 C
2642 06-02-2019 04:05:00 -1.4 C 95 % -2.1 C
2643 06-02-2019 04:10:00 -1.4 C 95 % -2.1 C
2644 06-02-2019 04:15:00 -1.4 C 95 % -2.1 C
2645 06-02-2019 04:20:00 -1.3 C 95 % -2 C
2646 06-02-2019 04:25:00 -1.3 C 95 % -2 C
2647 06-02-2019 04:30:00 -1.4 C 95 % -2.1 C
2648 06-02-2019 04:35:00 -1.4 C 95 % -2.1 C
2649 06-02-2019 04:40:00 -1.5 C 95 % -2.19 C
2650 06-02-2019 04:45:00 -1.5 C 95 % -2.19 C
Sensor: Nr:Datum:Temp:Feuchte:Taupunkt:
Aussen-T/F 2651 06-02-2019 04:50:00 -1.6 C 95 % -2.29 C
2652 06-02-2019 04:55:00 -1.6 C 95 % -2.29 C
2653 06-02-2019 05:00:00 -1.6 C 95 % -2.29 C
2654 06-02-2019 05:05:00 -1.6 C 95 % -2.29 C
2655 06-02-2019 05:10:00 -1.4 C 95 % -2.1 C
2656 06-02-2019 05:15:00 -1.4 C 95 % -2.1 C
2657 06-02-2019 05:20:00 -1.4 C 95 % -2.1 C
2658 06-02-2019 05:25:00 -1.6 C 95 % -2.29 C
2659 06-02-2019 05:30:00 -1.6 C 95 % -2.29 C
2660 06-02-2019 05:35:00 -1.7 C 95 % -2.39 C
2661 06-02-2019 05:40:00 -1.7 C 95 % -2.39 C
2662 06-02-2019 05:45:00 -1.7 C 95 % -2.39 C
2663 06-02-2019 05:50:00 -1.7 C 95 % -2.39 C
2664 06-02-2019 05:55:00 -1.7 C 95 % -2.39 C
2665 06-02-2019 06:00:00 -1.7 C 95 % -2.39 C
2666 06-02-2019 06:05:00 -1.7 C 95 % -2.39 C
2667 06-02-2019 06:10:00 -1.7 C 95 % -2.39 C
2668 06-02-2019 06:15:00 -1.7 C 95 % -2.39 C
2669 06-02-2019 06:20:00 -1.8 C 95 % -2.49 C
2670 06-02-2019 06:25:00 -1.8 C 95 % -2.49 C
2671 06-02-2019 06:30:00 -1.8 C 95 % -2.49 C
2672 06-02-2019 06:35:00 -1.8 C 95 % -2.49 C
2673 06-02-2019 06:40:00 -1.8 C 95 % -2.49 C
2674 06-02-2019 06:45:00 -1.8 C 95 % -2.49 C
2675 06-02-2019 06:50:00 -1.8 C 95 % -2.49 C
Sensor: Nr:Datum:Temp:Feuchte:Taupunkt:
Aussen-T/F 2676 06-02-2019 06:55:00 -1.8 C 95 % -2.49 C
2677 06-02-2019 07:00:00 -1.8 C 95 % -2.49 C
2678 06-02-2019 07:05:00 -1.9 C 95 % -2.59 C
2679 06-02-2019 07:10:00 -1.9 C 95 % -2.59 C
2680 06-02-2019 07:15:00 -1.9 C 95 % -2.59 C
2681 06-02-2019 07:20:00 -2 C 95 % -2.69 C
2682 06-02-2019 07:25:00 -2.1 C 95 % -2.79 C
2683 06-02-2019 07:30:00 -2.1 C 95 % -2.79 C
2684 06-02-2019 07:35:00 -1.9 C 95 % -2.59 C
2685 06-02-2019 07:40:00 -1.9 C 95 % -2.59 C
2686 06-02-2019 07:45:00 -2 C 95 % -2.69 C
2687 06-02-2019 07:50:00 -2.1 C 95 % -2.79 C
2688 06-02-2019 07:55:00 -2.1 C 95 % -2.79 C
2689 06-02-2019 08:00:00 -2.2 C 95 % -2.89 C
2690 06-02-2019 08:05:00 -2.2 C 95 % -2.89 C
2691 06-02-2019 08:10:00 -2.3 C 95 % -2.99 C
2692 06-02-2019 08:15:00 -2.3 C 95 % -2.99 C
2693 06-02-2019 08:20:00 -2.3 C 95 % -2.99 C
2694 06-02-2019 08:25:00 -2.2 C 96 % -2.75 C
2695 06-02-2019 08:30:00 -2.2 C 96 % -2.75 C
2696 06-02-2019 08:35:00 -2.2 C 96 % -2.75 C
2697 06-02-2019 08:40:00 -2.2 C 96 % -2.75 C
2698 06-02-2019 08:45:00 -2.2 C 96 % -2.75 C
2699 06-02-2019 08:50:00 -2.2 C 96 % -2.75 C
2700 06-02-2019 08:55:00 -2.1 C 96 % -2.65 C
Sensor: Nr:Datum:Temp:Feuchte:Taupunkt:
Aussen-T/F 2701 06-02-2019 09:00:00 -2 C 96 % -2.55 C
2702 06-02-2019 09:05:00 -1.9 C 96 % -2.45 C
2703 06-02-2019 09:10:00 -1.8 C 96 % -2.35 C
2704 06-02-2019 09:15:00 -1.7 C 96 % -2.25 C
2705 06-02-2019 09:20:00 -1.6 C 96 % -2.15 C
2706 06-02-2019 09:25:00 -1.4 C 96 % -1.95 C
2707 06-02-2019 09:30:00 -1.3 C 96 % -1.85 C
2708 06-02-2019 09:35:00 -1.2 C 96 % -1.75 C
2709 06-02-2019 09:40:00 -1.1 C 96 % -1.66 C
2710 06-02-2019 09:45:00 -0.9 C 96 % -1.46 C
2711 06-02-2019 09:50:00 -0.8 C 96 % -1.36 C
2712 06-02-2019 09:55:00 -0.7 C 96 % -1.26 C
2713 06-02-2019 10:00:00 -0.6 C 96 % -1.16 C
2714 06-02-2019 10:05:00 -0.4 C 96 % -0.96 C
2715 06-02-2019 10:10:00 -0.4 C 97 % -0.82 C
2716 06-02-2019 10:15:00 -0.3 C 96 % -0.86 C
2717 06-02-2019 10:20:00 -0.1 C 96 % -0.66 C
2718 06-02-2019 10:25:00 0.1 C 97 % -0.32 C
2719 06-02-2019 10:30:00 0.2 C 96 % -0.36 C
2720 06-02-2019 10:35:00 0.3 C 96 % -0.26 C
2721 06-02-2019 10:40:00 0.4 C 96 % -0.16 C
2722 06-02-2019 10:45:00 0.6 C 96 % 0.04 C
2723 06-02-2019 10:50:00 0.7 C 96 % 0.14 C
2724 06-02-2019 10:55:00 0.8 C 96 % 0.24 C
2725 06-02-2019 11:00:00 0.9 C 96 % 0.34 C
Sensor: Nr:Datum:Temp:Feuchte:Taupunkt:
Aussen-T/F 2726 06-02-2019 11:05:00 1.1 C 96 % 0.54 C
2727 06-02-2019 11:10:00 1.3 C 96 % 0.73 C
2728 06-02-2019 11:15:00 1.4 C 95 % 0.69 C
2729 06-02-2019 11:20:00 1.5 C 95 % 0.79 C
2730 06-02-2019 11:25:00 1.6 C 95 % 0.89 C
2731 06-02-2019 11:30:00 1.8 C 94 % 0.94 C
2732 06-02-2019 11:35:00 1.9 C 94 % 1.04 C
2733 06-02-2019 11:40:00 2 C 94 % 1.14 C
2734 06-02-2019 11:45:00 2.1 C 93 % 1.09 C
2735 06-02-2019 11:50:00 2.2 C 93 % 1.19 C
2736 06-02-2019 11:55:00 2.3 C 92 % 1.14 C
2737 06-02-2019 12:00:00 2.4 C 92 % 1.24 C
2738 06-02-2019 12:05:00 2.5 C 91 % 1.18 C
2739 06-02-2019 12:10:00 2.6 C 91 % 1.28 C
2740 06-02-2019 12:15:00 2.7 C 91 % 1.38 C
2741 06-02-2019 12:20:00 2.8 C 92 % 1.63 C
2742 06-02-2019 12:25:00 2.9 C 91 % 1.58 C
2743 06-02-2019 12:30:00 3.1 C 91 % 1.78 C
2744 06-02-2019 12:35:00 3.2 C 91 % 1.88 C
2745 06-02-2019 12:40:00 3.3 C 91 % 1.98 C
2746 06-02-2019 12:45:00 3.4 C 91 % 2.07 C
2747 06-02-2019 12:50:00 3.4 C 91 % 2.07 C
2748 06-02-2019 12:55:00 3.5 C 90 % 2.02 C
2749 06-02-2019 13:00:00 3.6 C 90 % 2.12 C
2750 06-02-2019 13:05:00 3.7 C 90 % 2.22 C
Sensor: Nr:Datum:Temp:Feuchte:Taupunkt:
Aussen-T/F 2751 06-02-2019 13:10:00 3.7 C 90 % 2.22 C
2752 06-02-2019 13:15:00 3.8 C 90 % 2.31 C
2753 06-02-2019 13:20:00 3.9 C 89 % 2.26 C
2754 06-02-2019 13:25:00 4.1 C 88 % 2.3 C
2755 06-02-2019 13:30:00 4.2 C 87 % 2.23 C
2756 06-02-2019 13:35:00 4.3 C 87 % 2.33 C
2757 06-02-2019 13:40:00 4.4 C 86 % 2.27 C
2758 06-02-2019 13:45:00 4.6 C 84 % 2.14 C
2759 06-02-2019 13:50:00 4.7 C 84 % 2.23 C
2760 06-02-2019 13:55:00 4.8 C 82 % 1.99 C
2761 06-02-2019 14:00:00 4.8 C 81 % 1.82 C
2762 06-02-2019 14:05:00 4.9 C 78 % 1.39 C
2763 06-02-2019 14:10:00 5.1 C 76 % 1.23 C
2764 06-02-2019 14:15:00 5.3 C 74 % 1.05 C
2765 06-02-2019 14:20:00 5.6 C 74 % 1.34 C
2766 06-02-2019 14:25:00 5.8 C 67 % 0.16 C
2767 06-02-2019 14:30:00 6 C 68 % 0.55 C
2768 06-02-2019 14:35:00 6.1 C 68 % 0.65 C
2769 06-02-2019 14:40:00 6.1 C 68 % 0.65 C
2770 06-02-2019 14:45:00 6.1 C 67 % 0.44 C
2771 06-02-2019 14:50:00 6.1 C 66 % 0.24 C
2772 06-02-2019 14:55:00 6.2 C 66 % 0.33 C
2773 06-02-2019 15:00:00 6.2 C 67 % 0.54 C
2774 06-02-2019 15:05:00 6.3 C 69 % 1.04 C
2775 06-02-2019 15:10:00 6.2 C 69 % 0.95 C
Sensor: Nr:Datum:Temp:Feuchte:Taupunkt:
Aussen-T/F 2776 06-02-2019 15:15:00 6.2 C 70 % 1.15 C
2777 06-02-2019 15:20:00 6.2 C 72 % 1.54 C
2778 06-02-2019 15:25:00 6.1 C 72 % 1.44 C
2779 06-02-2019 15:30:00 5.9 C 72 % 1.25 C
2780 06-02-2019 15:35:00 5.8 C 73 % 1.34 C
2781 06-02-2019 15:40:00 5.8 C 75 % 1.72 C
2782 06-02-2019 15:45:00 5.7 C 75 % 1.62 C
2783 06-02-2019 15:50:00 5.7 C 76 % 1.81 C
2784 06-02-2019 15:55:00 5.6 C 77 % 1.89 C
2785 06-02-2019 16:00:00 5.4 C 77 % 1.7 C
2786 06-02-2019 16:05:00 5.4 C 77 % 1.7 C
2787 06-02-2019 16:10:00 5.3 C 78 % 1.78 C
2788 06-02-2019 16:15:00 5.3 C 78 % 1.78 C
2789 06-02-2019 16:20:00 5.3 C 78 % 1.78 C
2790 06-02-2019 16:25:00 5.2 C 79 % 1.86 C
2791 06-02-2019 16:30:00 5.2 C 78 % 1.69 C
2792 06-02-2019 16:35:00 5.1 C 78 % 1.59 C
2793 06-02-2019 16:40:00 5 C 78 % 1.49 C
2794 06-02-2019 16:45:00 4.9 C 78 % 1.39 C
2795 06-02-2019 16:50:00 4.8 C 79 % 1.47 C
2796 06-02-2019 16:55:00 4.7 C 79 % 1.38 C
2797 06-02-2019 17:00:00 4.6 C 80 % 1.46 C
2798 06-02-2019 17:05:00 4.4 C 80 % 1.26 C
2799 06-02-2019 17:10:00 4.3 C 81 % 1.34 C
2800 06-02-2019 17:15:00 4.1 C 81 % 1.14 C
Sensor: Nr:Datum:Temp:Feuchte:Taupunkt:
Aussen-T/F 2801 06-02-2019 17:20:00 4 C 82 % 1.21 C
2802 06-02-2019 17:25:00 3.8 C 82 % 1.02 C
2803 06-02-2019 17:30:00 3.7 C 83 % 1.09 C
2804 06-02-2019 17:35:00 3.6 C 82 % 0.82 C
2805 06-02-2019 17:40:00 3.4 C 82 % 0.63 C
2806 06-02-2019 17:45:00 3.3 C 83 % 0.7 C
2807 06-02-2019 17:50:00 3.2 C 83 % 0.6 C
2808 06-02-2019 17:55:00 3.1 C 84 % 0.67 C
2809 06-02-2019 18:00:00 3.1 C 84 % 0.67 C
2810 06-02-2019 18:05:00 2.9 C 85 % 0.63 C
2811 06-02-2019 18:10:00 2.8 C 85 % 0.54 C
2812 06-02-2019 18:15:00 2.8 C 86 % 0.7 C
2813 06-02-2019 18:20:00 2.7 C 86 % 0.6 C
2814 06-02-2019 18:25:00 2.7 C 86 % 0.6 C
2815 06-02-2019 18:30:00 2.6 C 86 % 0.5 C
2816 06-02-2019 18:35:00 2.5 C 86 % 0.4 C
2817 06-02-2019 18:40:00 2.5 C 87 % 0.56 C
2818 06-02-2019 18:45:00 2.4 C 87 % 0.46 C
2819 06-02-2019 18:50:00 2.4 C 87 % 0.46 C
2820 06-02-2019 18:55:00 2.3 C 87 % 0.36 C
2821 06-02-2019 19:00:00 2.3 C 88 % 0.52 C
2822 06-02-2019 19:05:00 2.2 C 88 % 0.42 C
2823 06-02-2019 19:10:00 2.1 C 89 % 0.48 C
2824 06-02-2019 19:15:00 2.1 C 89 % 0.48 C
2825 06-02-2019 19:20:00 2.1 C 89 % 0.48 C
Sensor: Nr:Datum:Temp:Feuchte:Taupunkt:
Aussen-T/F 2826 06-02-2019 19:25:00 2.1 C 90 % 0.64 C
2827 06-02-2019 19:30:00 2.1 C 90 % 0.64 C
2828 06-02-2019 19:35:00 2.1 C 90 % 0.64 C
2829 06-02-2019 19:40:00 2.2 C 90 % 0.73 C
2830 06-02-2019 19:45:00 2.2 C 90 % 0.73 C
2831 06-02-2019 19:50:00 2.1 C 89 % 0.48 C
2832 06-02-2019 19:55:00 2.1 C 89 % 0.48 C
2833 06-02-2019 20:00:00 2.1 C 89 % 0.48 C
2834 06-02-2019 20:05:00 2.1 C 89 % 0.48 C
2835 06-02-2019 20:10:00 2 C 89 % 0.38 C
2836 06-02-2019 20:15:00 2 C 89 % 0.38 C
2837 06-02-2019 20:20:00 1.9 C 89 % 0.28 C
2838 06-02-2019 20:25:00 1.9 C 89 % 0.28 C
2839 06-02-2019 20:30:00 1.9 C 90 % 0.44 C
2840 06-02-2019 20:35:00 1.9 C 90 % 0.44 C
2841 06-02-2019 20:40:00 1.9 C 90 % 0.44 C
2842 06-02-2019 20:45:00 1.8 C 90 % 0.34 C
2843 06-02-2019 20:50:00 1.8 C 90 % 0.34 C
2844 06-02-2019 20:55:00 1.7 C 91 % 0.39 C
2845 06-02-2019 21:00:00 1.7 C 91 % 0.39 C
2846 06-02-2019 21:05:00 1.7 C 91 % 0.39 C
2847 06-02-2019 21:10:00 1.7 C 91 % 0.39 C
2848 06-02-2019 21:15:00 1.7 C 91 % 0.39 C
2849 06-02-2019 21:20:00 1.6 C 91 % 0.29 C
2850 06-02-2019 21:25:00 1.6 C 91 % 0.29 C
Sensor: Nr:Datum:Temp:Feuchte:Taupunkt:
Aussen-T/F 2851 06-02-2019 21:30:00 1.5 C 91 % 0.19 C
2852 06-02-2019 21:35:00 1.4 C 91 % 0.1 C
2853 06-02-2019 21:40:00 1.4 C 91 % 0.1 C
2854 06-02-2019 21:45:00 1.3 C 91 % 0 C
2855 06-02-2019 21:50:00 1.4 C 91 % 0.1 C
2856 06-02-2019 21:55:00 1.4 C 92 % 0.25 C
2857 06-02-2019 22:00:00 1.3 C 91 % 0 C
2858 06-02-2019 22:05:00 1.3 C 91 % 0 C
2859 06-02-2019 22:10:00 1.2 C 91 % -0.1 C
2860 06-02-2019 22:15:00 1.2 C 92 % 0.05 C
2861 06-02-2019 22:20:00 1.2 C 92 % 0.05 C
2862 06-02-2019 22:25:00 1.2 C 92 % 0.05 C
2863 06-02-2019 22:30:00 1.2 C 92 % 0.05 C
2864 06-02-2019 22:35:00 1.2 C 92 % 0.05 C
2865 06-02-2019 22:40:00 1.2 C 92 % 0.05 C
2866 06-02-2019 22:45:00 1.2 C 92 % 0.05 C
2867 06-02-2019 22:50:00 1.2 C 92 % 0.05 C
2868 06-02-2019 22:55:00 1.2 C 92 % 0.05 C
2869 06-02-2019 23:00:00 1.2 C 92 % 0.05 C
2870 06-02-2019 23:05:00 1.2 C 92 % 0.05 C
2871 06-02-2019 23:10:00 1.3 C 92 % 0.15 C
2872 06-02-2019 23:15:00 1.3 C 92 % 0.15 C
2873 06-02-2019 23:20:00 1.3 C 92 % 0.15 C
2874 06-02-2019 23:25:00 1.3 C 92 % 0.15 C
2875 06-02-2019 23:30:00 1.3 C 92 % 0.15 C
Sensor: Nr:Datum:Temp:Feuchte:Taupunkt:
Aussen-T/F 2876 06-02-2019 23:35:00 1.3 C 92 % 0.15 C
2877 06-02-2019 23:40:00 1.3 C 92 % 0.15 C
2878 06-02-2019 23:45:00 1.3 C 92 % 0.15 C
2879 06-02-2019 23:50:00 1.2 C 92 % 0.05 C
2880 06-02-2019 23:55:00 1.2 C 91 % -0.1 C
2881 07-02-2019 00:00:00 1.1 C 91 % -0.2 C
2882 07-02-2019 00:05:00 1 C 91 % -0.3 C
2883 07-02-2019 00:10:00 0.9 C 91 % -0.4 C
2884 07-02-2019 00:15:00 0.8 C 91 % -0.5 C
2885 07-02-2019 00:20:00 0.8 C 92 % -0.35 C
2886 07-02-2019 00:25:00 0.9 C 92 % -0.25 C
2887 07-02-2019 00:30:00 0.9 C 92 % -0.25 C
2888 07-02-2019 00:35:00 0.9 C 92 % -0.25 C
2889 07-02-2019 00:40:00 0.9 C 92 % -0.25 C
2890 07-02-2019 00:45:00 0.9 C 92 % -0.25 C
2891 07-02-2019 00:50:00 0.9 C 92 % -0.25 C
2892 07-02-2019 00:55:00 0.9 C 92 % -0.25 C
2893 07-02-2019 01:00:00 1 C 92 % -0.15 C
2894 07-02-2019 01:05:00 1.1 C 92 % -0.05 C
2895 07-02-2019 01:10:00 1.1 C 92 % -0.05 C
2896 07-02-2019 01:15:00 1.1 C 92 % -0.05 C
2897 07-02-2019 01:20:00 1.2 C 92 % 0.05 C
2898 07-02-2019 01:25:00 1.2 C 92 % 0.05 C
2899 07-02-2019 01:30:00 1.3 C 92 % 0.15 C
2900 07-02-2019 01:35:00 1.3 C 92 % 0.15 C
Sensor: Nr:Datum:Temp:Feuchte:Taupunkt:
Aussen-T/F 2901 07-02-2019 01:40:00 1.3 C 92 % 0.15 C
2902 07-02-2019 01:45:00 1.3 C 92 % 0.15 C
2903 07-02-2019 01:50:00 1.3 C 92 % 0.15 C
2904 07-02-2019 01:55:00 1.3 C 92 % 0.15 C
2905 07-02-2019 02:00:00 1.3 C 92 % 0.15 C
2906 07-02-2019 02:05:00 1.3 C 92 % 0.15 C
2907 07-02-2019 02:10:00 1.4 C 92 % 0.25 C
2908 07-02-2019 02:15:00 1.4 C 92 % 0.25 C
2909 07-02-2019 02:20:00 1.4 C 91 % 0.1 C
2910 07-02-2019 02:25:00 1.5 C 91 % 0.19 C
2911 07-02-2019 02:30:00 1.5 C 91 % 0.19 C
2912 07-02-2019 02:35:00 1.5 C 91 % 0.19 C
2913 07-02-2019 02:40:00 1.5 C 91 % 0.19 C
2914 07-02-2019 02:45:00 1.5 C 91 % 0.19 C
2915 07-02-2019 02:50:00 1.5 C 91 % 0.19 C
2916 07-02-2019 02:55:00 1.5 C 92 % 0.35 C
2917 07-02-2019 03:00:00 1.6 C 92 % 0.44 C
2918 07-02-2019 03:05:00 1.6 C 92 % 0.44 C
2919 07-02-2019 03:10:00 1.6 C 92 % 0.44 C
2920 07-02-2019 03:15:00 1.7 C 92 % 0.54 C
2921 07-02-2019 03:20:00 1.7 C 92 % 0.54 C
2922 07-02-2019 03:25:00 1.7 C 92 % 0.54 C
2923 07-02-2019 03:30:00 1.7 C 92 % 0.54 C
2924 07-02-2019 03:35:00 1.8 C 92 % 0.64 C
2925 07-02-2019 03:40:00 1.8 C 91 % 0.49 C
Sensor: Nr:Datum:Temp:Feuchte:Taupunkt:
Aussen-T/F 2926 07-02-2019 03:45:00 1.8 C 91 % 0.49 C
2927 07-02-2019 03:50:00 1.9 C 91 % 0.59 C
2928 07-02-2019 03:55:00 1.9 C 91 % 0.59 C
2929 07-02-2019 04:00:00 2 C 91 % 0.69 C
2930 07-02-2019 04:05:00 2.1 C 91 % 0.79 C
2931 07-02-2019 04:10:00 2.2 C 90 % 0.73 C
2932 07-02-2019 04:15:00 2.2 C 90 % 0.73 C
2933 07-02-2019 04:20:00 2.3 C 90 % 0.83 C
2934 07-02-2019 04:25:00 2.3 C 90 % 0.83 C
2935 07-02-2019 04:30:00 2.4 C 90 % 0.93 C
2936 07-02-2019 04:35:00 2.4 C 90 % 0.93 C
2937 07-02-2019 04:40:00 2.4 C 90 % 0.93 C
2938 07-02-2019 04:45:00 2.5 C 91 % 1.18 C
2939 07-02-2019 04:50:00 2.6 C 91 % 1.28 C
2940 07-02-2019 04:55:00 2.6 C 91 % 1.28 C
2941 07-02-2019 05:00:00 2.6 C 92 % 1.43 C
2942 07-02-2019 05:05:00 2.6 C 92 % 1.43 C
2943 07-02-2019 05:10:00 2.6 C 92 % 1.43 C
2944 07-02-2019 05:15:00 2.6 C 92 % 1.43 C
2945 07-02-2019 05:20:00 2.6 C 92 % 1.43 C
2946 07-02-2019 05:25:00 2.6 C 91 % 1.28 C
2947 07-02-2019 05:30:00 2.6 C 91 % 1.28 C
2948 07-02-2019 05:35:00 2.7 C 90 % 1.23 C
2949 07-02-2019 05:40:00 2.7 C 90 % 1.23 C
2950 07-02-2019 05:45:00 2.7 C 90 % 1.23 C
Sensor: Nr:Datum:Temp:Feuchte:Taupunkt:
Aussen-T/F 2951 07-02-2019 05:50:00 2.8 C 90 % 1.33 C
2952 07-02-2019 05:55:00 2.8 C 90 % 1.33 C
2953 07-02-2019 06:00:00 2.8 C 90 % 1.33 C
2954 07-02-2019 06:05:00 2.9 C 90 % 1.43 C
2955 07-02-2019 06:10:00 2.9 C 89 % 1.27 C
2956 07-02-2019 06:15:00 2.9 C 89 % 1.27 C
2957 07-02-2019 06:20:00 3 C 88 % 1.21 C
2958 07-02-2019 06:25:00 3 C 88 % 1.21 C
2959 07-02-2019 06:30:00 3 C 88 % 1.21 C
2960 07-02-2019 06:35:00 3.1 C 88 % 1.31 C
2961 07-02-2019 06:40:00 3.1 C 88 % 1.31 C
2962 07-02-2019 06:45:00 3.1 C 88 % 1.31 C
2963 07-02-2019 06:50:00 3.1 C 88 % 1.31 C
2964 07-02-2019 06:55:00 3.2 C 88 % 1.41 C
2965 07-02-2019 07:00:00 3.2 C 89 % 1.57 C
2966 07-02-2019 07:05:00 3.3 C 89 % 1.67 C
2967 07-02-2019 07:10:00 3.3 C 89 % 1.67 C
2968 07-02-2019 07:15:00 3.4 C 89 % 1.76 C
2969 07-02-2019 07:20:00 3.4 C 90 % 1.92 C
2970 07-02-2019 07:25:00 3.4 C 89 % 1.76 C
2971 07-02-2019 07:30:00 3.5 C 90 % 2.02 C
2972 07-02-2019 07:35:00 3.6 C 90 % 2.12 C
2973 07-02-2019 07:40:00 3.7 C 89 % 2.06 C
2974 07-02-2019 07:45:00 3.7 C 89 % 2.06 C
2975 07-02-2019 07:50:00 3.7 C 90 % 2.22 C
Sensor: Nr:Datum:Temp:Feuchte:Taupunkt:
Aussen-T/F 2976 07-02-2019 07:55:00 3.8 C 90 % 2.31 C
2977 07-02-2019 08:00:00 3.8 C 90 % 2.31 C
2978 07-02-2019 08:05:00 3.9 C 91 % 2.57 C
2979 07-02-2019 08:10:00 3.9 C 91 % 2.57 C
2980 07-02-2019 08:15:00 3.9 C 92 % 2.72 C
2981 07-02-2019 08:20:00 3.9 C 92 % 2.72 C
2982 07-02-2019 08:25:00 4 C 93 % 2.97 C
2983 07-02-2019 08:30:00 4 C 93 % 2.97 C
2984 07-02-2019 08:35:00 4.1 C 93 % 3.07 C
2985 07-02-2019 08:40:00 4.1 C 93 % 3.07 C
2986 07-02-2019 08:45:00 4.1 C 93 % 3.07 C
2987 07-02-2019 08:50:00 4.1 C 94 % 3.22 C
2988 07-02-2019 08:55:00 4.1 C 94 % 3.22 C
2989 07-02-2019 09:00:00 4.2 C 94 % 3.32 C
2990 07-02-2019 09:05:00 4.2 C 94 % 3.32 C
2991 07-02-2019 09:10:00 4.3 C 94 % 3.42 C
2992 07-02-2019 09:15:00 4.3 C 94 % 3.42 C
2993 07-02-2019 09:20:00 4.4 C 95 % 3.67 C
2994 07-02-2019 09:25:00 4.5 C 95 % 3.77 C
2995 07-02-2019 09:30:00 4.6 C 95 % 3.87 C
2996 07-02-2019 09:35:00 4.6 C 95 % 3.87 C
2997 07-02-2019 09:40:00 4.7 C 95 % 3.97 C
2998 07-02-2019 09:45:00 4.8 C 95 % 4.07 C
2999 07-02-2019 09:50:00 4.9 C 95 % 4.17 C
3000 07-02-2019 09:55:00 4.9 C 95 % 4.17 C
Sensor: Nr:Datum:Temp:Feuchte:Taupunkt:
Aussen-T/F 3001 07-02-2019 10:00:00 4.9 C 95 % 4.17 C
3002 07-02-2019 10:05:00 5 C 95 % 4.27 C
3003 07-02-2019 10:10:00 5 C 95 % 4.27 C
3004 07-02-2019 10:15:00 5.1 C 95 % 4.37 C
3005 07-02-2019 10:20:00 5.1 C 95 % 4.37 C
3006 07-02-2019 10:25:00 5.2 C 95 % 4.47 C
3007 07-02-2019 10:30:00 5.2 C 95 % 4.47 C
3008 07-02-2019 10:35:00 5.2 C 95 % 4.47 C
3009 07-02-2019 10:40:00 5.3 C 95 % 4.57 C
3010 07-02-2019 10:45:00 5.3 C 95 % 4.57 C
3011 07-02-2019 10:50:00 5.4 C 96 % 4.81 C
3012 07-02-2019 10:55:00 5.4 C 95 % 4.66 C
3013 07-02-2019 11:00:00 5.5 C 96 % 4.91 C
3014 07-02-2019 11:05:00 5.4 C 95 % 4.66 C
3015 07-02-2019 11:10:00 5.5 C 96 % 4.91 C
3016 07-02-2019 11:15:00 5.6 C 95 % 4.86 C
3017 07-02-2019 11:20:00 5.7 C 96 % 5.11 C
3018 07-02-2019 11:25:00 5.7 C 96 % 5.11 C
3019 07-02-2019 11:30:00 5.7 C 96 % 5.11 C
3020 07-02-2019 11:35:00 5.7 C 96 % 5.11 C
3021 07-02-2019 11:40:00 5.7 C 95 % 4.96 C
3022 07-02-2019 11:45:00 5.7 C 95 % 4.96 C
3023 07-02-2019 11:50:00 5.8 C 96 % 5.21 C
3024 07-02-2019 11:55:00 6.1 C 96 % 5.51 C
3025 07-02-2019 12:00:00 6.3 C 96 % 5.71 C
Sensor: Nr:Datum:Temp:Feuchte:Taupunkt:
Aussen-T/F 3026 07-02-2019 12:05:00 6.4 C 96 % 5.81 C
3027 07-02-2019 12:10:00 6.6 C 96 % 6.01 C
3028 07-02-2019 12:15:00 6.7 C 96 % 6.11 C
3029 07-02-2019 12:20:00 6.7 C 95 % 5.96 C
3030 07-02-2019 12:25:00 6.7 C 95 % 5.96 C
3031 07-02-2019 12:30:00 6.8 C 95 % 6.06 C
3032 07-02-2019 12:35:00 6.9 C 95 % 6.16 C
3033 07-02-2019 12:40:00 6.9 C 95 % 6.16 C
3034 07-02-2019 12:45:00 7 C 94 % 6.1 C
3035 07-02-2019 12:50:00 7.1 C 94 % 6.2 C
3036 07-02-2019 12:55:00 7.2 C 94 % 6.3 C
3037 07-02-2019 13:00:00 7.3 C 93 % 6.25 C
3038 07-02-2019 13:05:00 7.3 C 93 % 6.25 C
3039 07-02-2019 13:10:00 7.4 C 93 % 6.34 C
3040 07-02-2019 13:15:00 7.5 C 92 % 6.29 C
3041 07-02-2019 13:20:00 7.6 C 91 % 6.23 C
3042 07-02-2019 13:25:00 7.6 C 91 % 6.23 C
3043 07-02-2019 13:30:00 7.6 C 90 % 6.07 C
3044 07-02-2019 13:35:00 7.6 C 90 % 6.07 C
3045 07-02-2019 13:40:00 7.6 C 90 % 6.07 C
3046 07-02-2019 13:45:00 7.6 C 90 % 6.07 C
3047 07-02-2019 13:50:00 7.7 C 89 % 6 C
3048 07-02-2019 13:55:00 7.7 C 89 % 6 C
3049 07-02-2019 14:00:00 7.8 C 89 % 6.1 C
3050 07-02-2019 14:05:00 7.8 C 88 % 5.94 C
Sensor: Nr:Datum:Temp:Feuchte:Taupunkt:
Aussen-T/F 3051 07-02-2019 14:10:00 7.8 C 87 % 5.78 C
3052 07-02-2019 14:15:00 7.9 C 87 % 5.87 C
3053 07-02-2019 14:20:00 8 C 86 % 5.81 C
3054 07-02-2019 14:25:00 8.1 C 85 % 5.73 C
3055 07-02-2019 14:30:00 8.1 C 84 % 5.56 C
3056 07-02-2019 14:35:00 8.2 C 84 % 5.66 C
3057 07-02-2019 14:40:00 8.3 C 84 % 5.76 C
3058 07-02-2019 14:45:00 8.3 C 84 % 5.76 C
3059 07-02-2019 14:50:00 8.4 C 82 % 5.51 C
3060 07-02-2019 14:55:00 8.4 C 82 % 5.51 C
3061 07-02-2019 15:00:00 8.4 C 82 % 5.51 C
3062 07-02-2019 15:05:00 8.5 C 82 % 5.61 C
3063 07-02-2019 15:10:00 8.5 C 81 % 5.43 C
3064 07-02-2019 15:15:00 8.5 C 81 % 5.43 C
3065 07-02-2019 15:20:00 8.5 C 81 % 5.43 C
3066 07-02-2019 15:25:00 8.4 C 81 % 5.33 C
3067 07-02-2019 15:30:00 8.5 C 81 % 5.43 C
3068 07-02-2019 15:35:00 8.5 C 81 % 5.43 C
3069 07-02-2019 15:40:00 8.6 C 81 % 5.53 C
3070 07-02-2019 15:45:00 8.7 C 80 % 5.45 C
3071 07-02-2019 15:50:00 8.7 C 80 % 5.45 C
3072 07-02-2019 15:55:00 8.6 C 79 % 5.17 C
3073 07-02-2019 16:00:00 8.6 C 80 % 5.35 C
3074 07-02-2019 16:05:00 8.6 C 80 % 5.35 C
3075 07-02-2019 16:10:00 8.6 C 80 % 5.35 C
Sensor: Nr:Datum:Temp:Feuchte:Taupunkt:
Aussen-T/F 3076 07-02-2019 16:15:00 8.6 C 80 % 5.35 C
3077 07-02-2019 16:20:00 8.7 C 79 % 5.27 C
3078 07-02-2019 16:25:00 8.7 C 78 % 5.08 C
3079 07-02-2019 16:30:00 8.7 C 79 % 5.27 C
3080 07-02-2019 16:35:00 8.7 C 79 % 5.27 C
3081 07-02-2019 16:40:00 8.7 C 79 % 5.27 C
3082 07-02-2019 16:45:00 8.5 C 79 % 5.07 C
3083 07-02-2019 16:50:00 8.4 C 79 % 4.98 C
3084 07-02-2019 16:55:00 8.3 C 79 % 4.88 C
3085 07-02-2019 17:00:00 8.1 C 79 % 4.68 C
3086 07-02-2019 17:05:00 8.1 C 80 % 4.86 C
3087 07-02-2019 17:10:00 7.9 C 80 % 4.67 C
3088 07-02-2019 17:15:00 7.8 C 80 % 4.57 C
3089 07-02-2019 17:20:00 7.5 C 81 % 4.46 C
3090 07-02-2019 17:25:00 7.4 C 82 % 4.53 C
3091 07-02-2019 17:30:00 7.3 C 83 % 4.61 C
3092 07-02-2019 17:35:00 7.3 C 83 % 4.61 C
3093 07-02-2019 17:40:00 7.2 C 84 % 4.68 C
3094 07-02-2019 17:45:00 7.2 C 84 % 4.68 C
3095 07-02-2019 17:50:00 7.2 C 84 % 4.68 C
3096 07-02-2019 17:55:00 7.2 C 85 % 4.85 C
3097 07-02-2019 18:00:00 7.1 C 84 % 4.58 C
3098 07-02-2019 18:05:00 7.1 C 84 % 4.58 C
3099 07-02-2019 18:10:00 7 C 84 % 4.49 C
3100 07-02-2019 18:15:00 6.9 C 84 % 4.39 C
Sensor: Nr:Datum:Temp:Feuchte:Taupunkt:
Aussen-T/F 3101 07-02-2019 18:20:00 6.7 C 83 % 4.02 C
3102 07-02-2019 18:25:00 6.6 C 84 % 4.1 C
3103 07-02-2019 18:30:00 6.5 C 84 % 4 C
3104 07-02-2019 18:35:00 6.4 C 84 % 3.9 C
3105 07-02-2019 18:40:00 6.3 C 84 % 3.8 C
3106 07-02-2019 18:45:00 6.2 C 84 % 3.7 C
3107 07-02-2019 18:50:00 6.2 C 84 % 3.7 C
3108 07-02-2019 18:55:00 6.2 C 83 % 3.53 C
3109 07-02-2019 19:00:00 6.4 C 82 % 3.56 C
3110 07-02-2019 19:05:00 6.7 C 81 % 3.68 C
3111 07-02-2019 19:10:00 6.8 C 81 % 3.77 C
3112 07-02-2019 19:15:00 6.8 C 81 % 3.77 C
3113 07-02-2019 19:20:00 6.7 C 80 % 3.5 C
3114 07-02-2019 19:25:00 6.7 C 81 % 3.68 C
3115 07-02-2019 19:30:00 6.6 C 81 % 3.58 C
3116 07-02-2019 19:35:00 6.6 C 81 % 3.58 C
3117 07-02-2019 19:40:00 6.7 C 81 % 3.68 C
3118 07-02-2019 19:45:00 6.7 C 81 % 3.68 C
3119 07-02-2019 19:50:00 6.6 C 81 % 3.58 C
3120 07-02-2019 19:55:00 6.5 C 82 % 3.66 C
3121 07-02-2019 20:00:00 6.4 C 83 % 3.73 C
3122 07-02-2019 20:05:00 6.4 C 83 % 3.73 C
3123 07-02-2019 20:10:00 6.4 C 83 % 3.73 C
3124 07-02-2019 20:15:00 6.4 C 83 % 3.73 C
3125 07-02-2019 20:20:00 6.3 C 82 % 3.46 C
Sensor: Nr:Datum:Temp:Feuchte:Taupunkt:
Aussen-T/F 3126 07-02-2019 20:25:00 6.3 C 83 % 3.63 C
3127 07-02-2019 20:30:00 6.2 C 83 % 3.53 C
3128 07-02-2019 20:35:00 6.2 C 83 % 3.53 C
3129 07-02-2019 20:40:00 6.2 C 83 % 3.53 C
3130 07-02-2019 20:45:00 6.2 C 83 % 3.53 C
3131 07-02-2019 20:50:00 6.2 C 84 % 3.7 C
3132 07-02-2019 20:55:00 6.2 C 84 % 3.7 C
3133 07-02-2019 21:00:00 6.2 C 84 % 3.7 C
3134 07-02-2019 21:05:00 6.3 C 84 % 3.8 C
3135 07-02-2019 21:10:00 6.5 C 84 % 4 C
3136 07-02-2019 21:15:00 6.7 C 83 % 4.02 C
3137 07-02-2019 21:20:00 6.9 C 83 % 4.22 C
3138 07-02-2019 21:25:00 7.2 C 82 % 4.34 C
3139 07-02-2019 21:30:00 7.3 C 81 % 4.26 C
3140 07-02-2019 21:35:00 7.3 C 81 % 4.26 C
3141 07-02-2019 21:40:00 7.2 C 81 % 4.16 C
3142 07-02-2019 21:45:00 7.1 C 81 % 4.07 C
3143 07-02-2019 21:50:00 7.1 C 81 % 4.07 C
3144 07-02-2019 21:55:00 7 C 81 % 3.97 C
3145 07-02-2019 22:00:00 6.9 C 81 % 3.87 C
3146 07-02-2019 22:05:00 6.8 C 81 % 3.77 C
3147 07-02-2019 22:10:00 6.7 C 81 % 3.68 C
3148 07-02-2019 22:15:00 6.6 C 81 % 3.58 C
3149 07-02-2019 22:20:00 6.5 C 81 % 3.48 C
3150 07-02-2019 22:25:00 6.4 C 81 % 3.38 C
Sensor: Nr:Datum:Temp:Feuchte:Taupunkt:
Aussen-T/F 3151 07-02-2019 22:30:00 6.3 C 82 % 3.46 C
3152 07-02-2019 22:35:00 6.3 C 83 % 3.63 C
3153 07-02-2019 22:40:00 6.2 C 83 % 3.53 C
3154 07-02-2019 22:45:00 6.2 C 84 % 3.7 C
3155 07-02-2019 22:50:00 6.2 C 84 % 3.7 C
3156 07-02-2019 22:55:00 6.2 C 84 % 3.7 C
3157 07-02-2019 23:00:00 6.2 C 84 % 3.7 C
3158 07-02-2019 23:05:00 6.3 C 84 % 3.8 C
3159 07-02-2019 23:10:00 6.4 C 84 % 3.9 C
3160 07-02-2019 23:15:00 6.3 C 84 % 3.8 C
3161 07-02-2019 23:20:00 6.3 C 84 % 3.8 C
3162 07-02-2019 23:25:00 6.3 C 84 % 3.8 C
3163 07-02-2019 23:30:00 6.3 C 85 % 3.97 C
3164 07-02-2019 23:35:00 6.2 C 84 % 3.7 C
3165 07-02-2019 23:40:00 6.1 C 85 % 3.77 C
3166 07-02-2019 23:45:00 6.1 C 85 % 3.77 C
3167 07-02-2019 23:50:00 6 C 85 % 3.67 C
3168 07-02-2019 23:55:00 5.9 C 85 % 3.58 C
3169 08-02-2019 00:00:00 5.8 C 85 % 3.48 C
3170 08-02-2019 00:05:00 5.7 C 86 % 3.55 C
3171 08-02-2019 00:10:00 5.6 C 86 % 3.45 C
3172 08-02-2019 00:15:00 5.4 C 86 % 3.25 C
3173 08-02-2019 00:20:00 5.3 C 87 % 3.32 C
3174 08-02-2019 00:25:00 5.3 C 88 % 3.48 C
3175 08-02-2019 00:30:00 5.4 C 89 % 3.74 C
Sensor: Nr:Datum:Temp:Feuchte:Taupunkt:
Aussen-T/F 3176 08-02-2019 00:35:00 5.4 C 89 % 3.74 C
3177 08-02-2019 00:40:00 5.5 C 88 % 3.67 C
3178 08-02-2019 00:45:00 5.6 C 88 % 3.77 C
3179 08-02-2019 00:50:00 5.6 C 88 % 3.77 C
3180 08-02-2019 00:55:00 5.7 C 88 % 3.87 C
3181 08-02-2019 01:00:00 5.9 C 88 % 4.07 C
3182 08-02-2019 01:05:00 6 C 87 % 4 C
3183 08-02-2019 01:10:00 6.1 C 86 % 3.94 C
3184 08-02-2019 01:15:00 6.2 C 86 % 4.04 C
3185 08-02-2019 01:20:00 6.1 C 85 % 3.77 C
3186 08-02-2019 01:25:00 5.9 C 85 % 3.58 C
3187 08-02-2019 01:30:00 5.8 C 86 % 3.64 C
3188 08-02-2019 01:35:00 5.7 C 86 % 3.55 C
3189 08-02-2019 01:40:00 5.7 C 87 % 3.71 C
3190 08-02-2019 01:45:00 5.8 C 87 % 3.81 C
3191 08-02-2019 01:50:00 5.8 C 87 % 3.81 C
3192 08-02-2019 01:55:00 5.7 C 87 % 3.71 C
3193 08-02-2019 02:00:00 5.7 C 87 % 3.71 C
3194 08-02-2019 02:05:00 5.7 C 87 % 3.71 C
3195 08-02-2019 02:10:00 5.7 C 87 % 3.71 C
3196 08-02-2019 02:15:00 5.8 C 87 % 3.81 C
3197 08-02-2019 02:20:00 5.8 C 87 % 3.81 C
3198 08-02-2019 02:25:00 5.9 C 87 % 3.91 C
3199 08-02-2019 02:30:00 5.9 C 87 % 3.91 C
3200 08-02-2019 02:35:00 5.9 C 87 % 3.91 C
Sensor: Nr:Datum:Temp:Feuchte:Taupunkt:
Aussen-T/F 3201 08-02-2019 02:40:00 5.9 C 87 % 3.91 C
3202 08-02-2019 02:45:00 5.8 C 86 % 3.64 C
3203 08-02-2019 02:50:00 5.8 C 86 % 3.64 C
3204 08-02-2019 02:55:00 5.7 C 87 % 3.71 C
3205 08-02-2019 03:00:00 5.6 C 87 % 3.61 C
3206 08-02-2019 03:05:00 5.6 C 88 % 3.77 C
3207 08-02-2019 03:10:00 5.7 C 88 % 3.87 C
3208 08-02-2019 03:15:00 5.7 C 88 % 3.87 C
3209 08-02-2019 03:20:00 5.8 C 88 % 3.97 C
3210 08-02-2019 03:25:00 5.8 C 88 % 3.97 C
3211 08-02-2019 03:30:00 5.8 C 87 % 3.81 C
3212 08-02-2019 03:35:00 5.8 C 87 % 3.81 C
3213 08-02-2019 03:40:00 5.8 C 87 % 3.81 C
3214 08-02-2019 03:45:00 5.8 C 87 % 3.81 C
3215 08-02-2019 03:50:00 5.8 C 88 % 3.97 C
3216 08-02-2019 03:55:00 5.8 C 88 % 3.97 C
3217 08-02-2019 04:00:00 5.9 C 88 % 4.07 C
3218 08-02-2019 04:05:00 6.1 C 87 % 4.1 C
3219 08-02-2019 04:10:00 6.2 C 87 % 4.2 C
3220 08-02-2019 04:15:00 6.3 C 86 % 4.14 C
3221 08-02-2019 04:20:00 6.3 C 86 % 4.14 C
3222 08-02-2019 04:25:00 6.3 C 86 % 4.14 C
3223 08-02-2019 04:30:00 6.3 C 86 % 4.14 C
3224 08-02-2019 04:35:00 6.4 C 86 % 4.23 C
3225 08-02-2019 04:40:00 6.4 C 86 % 4.23 C
Sensor: Nr:Datum:Temp:Feuchte:Taupunkt:
Aussen-T/F 3226 08-02-2019 04:45:00 6.4 C 86 % 4.23 C
3227 08-02-2019 04:50:00 6.4 C 86 % 4.23 C
3228 08-02-2019 04:55:00 6.4 C 86 % 4.23 C
3229 08-02-2019 05:00:00 6.3 C 86 % 4.14 C
3230 08-02-2019 05:05:00 6.3 C 86 % 4.14 C
3231 08-02-2019 05:10:00 6.3 C 86 % 4.14 C
3232 08-02-2019 05:15:00 6.3 C 86 % 4.14 C
3233 08-02-2019 05:20:00 6.3 C 86 % 4.14 C
3234 08-02-2019 05:25:00 6.4 C 87 % 4.4 C
3235 08-02-2019 05:30:00 6.4 C 86 % 4.23 C
3236 08-02-2019 05:35:00 6.4 C 86 % 4.23 C
3237 08-02-2019 05:40:00 6.5 C 86 % 4.33 C
3238 08-02-2019 05:45:00 6.5 C 86 % 4.33 C
3239 08-02-2019 05:50:00 6.5 C 86 % 4.33 C
3240 08-02-2019 05:55:00 6.6 C 86 % 4.43 C
3241 08-02-2019 06:00:00 6.5 C 86 % 4.33 C
3242 08-02-2019 06:05:00 6.4 C 86 % 4.23 C
3243 08-02-2019 06:10:00 6.3 C 86 % 4.14 C
3244 08-02-2019 06:15:00 6.3 C 86 % 4.14 C
3245 08-02-2019 06:20:00 6.3 C 87 % 4.3 C
3246 08-02-2019 06:25:00 6.3 C 87 % 4.3 C
3247 08-02-2019 06:30:00 6.3 C 87 % 4.3 C
3248 08-02-2019 06:35:00 6.3 C 87 % 4.3 C
3249 08-02-2019 06:40:00 6.3 C 87 % 4.3 C
3250 08-02-2019 06:45:00 6.3 C 87 % 4.3 C
Sensor: Nr:Datum:Temp:Feuchte:Taupunkt:
Aussen-T/F 3251 08-02-2019 06:50:00 6.3 C 87 % 4.3 C
3252 08-02-2019 06:55:00 6.3 C 87 % 4.3 C
3253 08-02-2019 07:00:00 6.3 C 87 % 4.3 C
3254 08-02-2019 07:05:00 6.3 C 87 % 4.3 C
3255 08-02-2019 07:10:00 6.3 C 87 % 4.3 C
3256 08-02-2019 07:15:00 6.3 C 87 % 4.3 C
3257 08-02-2019 07:20:00 6.3 C 87 % 4.3 C
3258 08-02-2019 07:25:00 6.3 C 87 % 4.3 C
3259 08-02-2019 07:30:00 6.3 C 87 % 4.3 C
3260 08-02-2019 07:35:00 6.4 C 87 % 4.4 C
3261 08-02-2019 07:40:00 6.4 C 87 % 4.4 C
3262 08-02-2019 07:45:00 6.5 C 86 % 4.33 C
3263 08-02-2019 07:50:00 6.6 C 86 % 4.43 C
3264 08-02-2019 07:55:00 6.6 C 86 % 4.43 C
3265 08-02-2019 08:00:00 6.6 C 86 % 4.43 C
3266 08-02-2019 08:05:00 6.6 C 86 % 4.43 C
3267 08-02-2019 08:10:00 6.6 C 86 % 4.43 C
3268 08-02-2019 08:15:00 6.6 C 86 % 4.43 C
3269 08-02-2019 08:20:00 6.6 C 86 % 4.43 C
3270 08-02-2019 08:25:00 6.7 C 86 % 4.53 C
3271 08-02-2019 08:30:00 6.7 C 86 % 4.53 C
3272 08-02-2019 08:35:00 6.7 C 86 % 4.53 C
3273 08-02-2019 08:40:00 6.7 C 86 % 4.53 C
3274 08-02-2019 08:45:00 6.7 C 86 % 4.53 C
3275 08-02-2019 08:50:00 6.8 C 86 % 4.63 C
Sensor: Nr:Datum:Temp:Feuchte:Taupunkt:
Aussen-T/F 3276 08-02-2019 08:55:00 6.8 C 86 % 4.63 C
3277 08-02-2019 09:00:00 6.8 C 86 % 4.63 C
3278 08-02-2019 09:05:00 6.9 C 86 % 4.72 C
3279 08-02-2019 09:10:00 6.9 C 86 % 4.72 C
3280 08-02-2019 09:15:00 6.9 C 86 % 4.72 C
3281 08-02-2019 09:20:00 7 C 86 % 4.82 C
3282 08-02-2019 09:25:00 7.1 C 86 % 4.92 C
3283 08-02-2019 09:30:00 7.1 C 86 % 4.92 C
3284 08-02-2019 09:35:00 7.1 C 85 % 4.75 C
3285 08-02-2019 09:40:00 7.2 C 85 % 4.85 C
3286 08-02-2019 09:45:00 7.2 C 85 % 4.85 C
3287 08-02-2019 09:50:00 7.2 C 85 % 4.85 C
3288 08-02-2019 09:55:00 7.2 C 85 % 4.85 C
3289 08-02-2019 10:00:00 7.2 C 85 % 4.85 C
3290 08-02-2019 10:05:00 7.3 C 85 % 4.95 C
3291 08-02-2019 10:10:00 7.3 C 85 % 4.95 C
3292 08-02-2019 10:15:00 7.3 C 85 % 4.95 C
3293 08-02-2019 10:20:00 7.3 C 85 % 4.95 C
3294 08-02-2019 10:25:00 7.3 C 85 % 4.95 C
3295 08-02-2019 10:30:00 7.4 C 86 % 5.22 C
3296 08-02-2019 10:35:00 7.4 C 85 % 5.05 C
3297 08-02-2019 10:40:00 7.5 C 85 % 5.15 C
3298 08-02-2019 10:45:00 7.6 C 85 % 5.24 C
3299 08-02-2019 10:50:00 7.7 C 85 % 5.34 C
3300 08-02-2019 10:55:00 7.8 C 85 % 5.44 C
Sensor: Nr:Datum:Temp:Feuchte:Taupunkt:
Aussen-T/F 3301 08-02-2019 11:00:00 7.9 C 84 % 5.37 C
3302 08-02-2019 11:05:00 8 C 84 % 5.47 C
3303 08-02-2019 11:10:00 8.1 C 84 % 5.56 C
3304 08-02-2019 11:15:00 8.3 C 83 % 5.59 C
3305 08-02-2019 11:20:00 8.3 C 83 % 5.59 C
3306 08-02-2019 11:25:00 8.5 C 83 % 5.78 C
3307 08-02-2019 11:30:00 8.6 C 82 % 5.71 C
3308 08-02-2019 11:35:00 8.7 C 82 % 5.8 C
3309 08-02-2019 11:40:00 8.7 C 81 % 5.63 C
3310 08-02-2019 11:45:00 8.7 C 81 % 5.63 C
3311 08-02-2019 11:50:00 8.8 C 81 % 5.72 C
3312 08-02-2019 11:55:00 8.8 C 81 % 5.72 C
3313 08-02-2019 12:00:00 8.9 C 82 % 6 C
3314 08-02-2019 12:05:00 9.1 C 80 % 5.84 C
3315 08-02-2019 12:10:00 9.2 C 80 % 5.94 C
3316 08-02-2019 12:15:00 9.3 C 80 % 6.03 C
3317 08-02-2019 12:20:00 9.4 C 80 % 6.13 C
3318 08-02-2019 12:25:00 9.4 C 79 % 5.95 C
3319 08-02-2019 12:30:00 9.6 C 79 % 6.14 C
3320 08-02-2019 12:35:00 9.6 C 79 % 6.14 C
3321 08-02-2019 12:40:00 9.7 C 79 % 6.24 C
3322 08-02-2019 12:45:00 9.7 C 79 % 6.24 C
3323 08-02-2019 12:50:00 9.7 C 78 % 6.06 C
3324 08-02-2019 12:55:00 9.7 C 79 % 6.24 C
3325 08-02-2019 13:00:00 9.7 C 78 % 6.06 C
Sensor: Nr:Datum:Temp:Feuchte:Taupunkt:
Aussen-T/F 3326 08-02-2019 13:05:00 9.7 C 79 % 6.24 C
3327 08-02-2019 13:10:00 9.6 C 79 % 6.14 C
3328 08-02-2019 13:15:00 9.5 C 78 % 5.86 C
3329 08-02-2019 13:20:00 9.4 C 79 % 5.95 C
3330 08-02-2019 13:25:00 9.3 C 79 % 5.85 C
3331 08-02-2019 13:30:00 9.2 C 80 % 5.94 C
3332 08-02-2019 13:35:00 9.1 C 80 % 5.84 C
3333 08-02-2019 13:40:00 8.9 C 80 % 5.64 C
3334 08-02-2019 13:45:00 8.8 C 81 % 5.72 C
3335 08-02-2019 13:50:00 8.7 C 81 % 5.63 C
3336 08-02-2019 13:55:00 8.7 C 81 % 5.63 C
3337 08-02-2019 14:00:00 8.6 C 81 % 5.53 C
3338 08-02-2019 14:05:00 8.5 C 81 % 5.43 C
3339 08-02-2019 14:10:00 8.4 C 81 % 5.33 C
3340 08-02-2019 14:15:00 8.4 C 82 % 5.51 C
3341 08-02-2019 14:20:00 8.4 C 82 % 5.51 C
3342 08-02-2019 14:25:00 8.4 C 82 % 5.51 C
3343 08-02-2019 14:30:00 8.4 C 82 % 5.51 C
3344 08-02-2019 14:35:00 8.4 C 82 % 5.51 C
3345 08-02-2019 14:40:00 8.4 C 82 % 5.51 C
3346 08-02-2019 14:45:00 8.4 C 82 % 5.51 C
3347 08-02-2019 14:50:00 8.3 C 82 % 5.41 C
3348 08-02-2019 14:55:00 8.3 C 82 % 5.41 C
3349 08-02-2019 15:00:00 8.3 C 83 % 5.59 C
3350 08-02-2019 15:05:00 8.3 C 82 % 5.41 C
Sensor: Nr:Datum:Temp:Feuchte:Taupunkt:
Aussen-T/F 3351 08-02-2019 15:10:00 8.3 C 82 % 5.41 C
3352 08-02-2019 15:15:00 8.3 C 82 % 5.41 C
3353 08-02-2019 15:20:00 8.3 C 82 % 5.41 C
3354 08-02-2019 15:25:00 8.3 C 83 % 5.59 C
3355 08-02-2019 15:30:00 8.2 C 83 % 5.49 C
3356 08-02-2019 15:35:00 8.2 C 83 % 5.49 C
3357 08-02-2019 15:40:00 8.2 C 83 % 5.49 C
3358 08-02-2019 15:45:00 8.2 C 83 % 5.49 C
3359 08-02-2019 15:50:00 8.2 C 83 % 5.49 C
3360 08-02-2019 15:55:00 8.2 C 83 % 5.49 C
3361 08-02-2019 16:00:00 8.2 C 83 % 5.49 C
3362 08-02-2019 16:05:00 8.2 C 83 % 5.49 C
3363 08-02-2019 16:10:00 8.3 C 83 % 5.59 C
3364 08-02-2019 16:15:00 8.3 C 83 % 5.59 C
3365 08-02-2019 16:20:00 8.3 C 82 % 5.41 C
3366 08-02-2019 16:25:00 8.3 C 82 % 5.41 C
3367 08-02-2019 16:30:00 8.3 C 83 % 5.59 C
3368 08-02-2019 16:35:00 8.3 C 83 % 5.59 C
3369 08-02-2019 16:40:00 8.3 C 83 % 5.59 C
3370 08-02-2019 16:45:00 8.3 C 83 % 5.59 C
3371 08-02-2019 16:50:00 8.3 C 83 % 5.59 C
3372 08-02-2019 16:55:00 8.3 C 82 % 5.41 C
3373 08-02-2019 17:00:00 8.3 C 82 % 5.41 C
3374 08-02-2019 17:05:00 8.3 C 82 % 5.41 C
3375 08-02-2019 17:10:00 8.3 C 82 % 5.41 C
Sensor: Nr:Datum:Temp:Feuchte:Taupunkt:
Aussen-T/F 3376 08-02-2019 17:15:00 8.3 C 82 % 5.41 C
3377 08-02-2019 17:20:00 8.3 C 82 % 5.41 C
3378 08-02-2019 17:25:00 8.2 C 82 % 5.32 C
3379 08-02-2019 17:30:00 8.2 C 82 % 5.32 C
3380 08-02-2019 17:35:00 8.2 C 82 % 5.32 C
3381 08-02-2019 17:40:00 8.2 C 82 % 5.32 C
3382 08-02-2019 17:45:00 8.1 C 82 % 5.22 C
3383 08-02-2019 17:50:00 8.1 C 82 % 5.22 C
3384 08-02-2019 17:55:00 8.1 C 82 % 5.22 C
3385 08-02-2019 18:00:00 8 C 83 % 5.29 C
3386 08-02-2019 18:05:00 8 C 83 % 5.29 C
3387 08-02-2019 18:10:00 7.9 C 83 % 5.2 C
3388 08-02-2019 18:15:00 7.9 C 83 % 5.2 C
3389 08-02-2019 18:20:00 8 C 83 % 5.29 C
3390 08-02-2019 18:25:00 8 C 83 % 5.29 C
3391 08-02-2019 18:30:00 8.1 C 82 % 5.22 C
3392 08-02-2019 18:35:00 8.1 C 82 % 5.22 C
3393 08-02-2019 18:40:00 8.2 C 82 % 5.32 C
3394 08-02-2019 18:45:00 8.2 C 81 % 5.14 C
3395 08-02-2019 18:50:00 8.2 C 81 % 5.14 C
3396 08-02-2019 18:55:00 8.2 C 82 % 5.32 C
3397 08-02-2019 19:00:00 8.2 C 81 % 5.14 C
3398 08-02-2019 19:05:00 8.2 C 81 % 5.14 C
3399 08-02-2019 19:10:00 8.2 C 81 % 5.14 C
3400 08-02-2019 19:15:00 8.2 C 81 % 5.14 C
Sensor: Nr:Datum:Temp:Feuchte:Taupunkt:
Aussen-T/F 3401 08-02-2019 19:20:00 8.2 C 81 % 5.14 C
3402 08-02-2019 19:25:00 8.2 C 81 % 5.14 C
3403 08-02-2019 19:30:00 8.2 C 81 % 5.14 C
3404 08-02-2019 19:35:00 8.2 C 81 % 5.14 C
3405 08-02-2019 19:40:00 8.2 C 81 % 5.14 C
3406 08-02-2019 19:45:00 8.2 C 81 % 5.14 C
3407 08-02-2019 19:50:00 8.3 C 81 % 5.24 C
3408 08-02-2019 19:55:00 8.3 C 81 % 5.24 C
3409 08-02-2019 20:00:00 8.3 C 81 % 5.24 C
3410 08-02-2019 20:05:00 8.3 C 81 % 5.24 C
3411 08-02-2019 20:10:00 8.3 C 80 % 5.06 C
3412 08-02-2019 20:15:00 8.3 C 81 % 5.24 C
3413 08-02-2019 20:20:00 8.2 C 80 % 4.96 C
3414 08-02-2019 20:25:00 8.2 C 80 % 4.96 C
3415 08-02-2019 20:30:00 8.3 C 80 % 5.06 C
3416 08-02-2019 20:35:00 8.2 C 80 % 4.96 C
3417 08-02-2019 20:40:00 8.2 C 80 % 4.96 C
3418 08-02-2019 20:45:00 8.2 C 80 % 4.96 C
3419 08-02-2019 20:50:00 8.2 C 80 % 4.96 C
3420 08-02-2019 20:55:00 8.1 C 81 % 5.04 C
3421 08-02-2019 21:00:00 8.1 C 80 % 4.86 C
3422 08-02-2019 21:05:00 8.2 C 80 % 4.96 C
3423 08-02-2019 21:10:00 8.2 C 80 % 4.96 C
3424 08-02-2019 21:15:00 8.1 C 80 % 4.86 C
3425 08-02-2019 21:20:00 8.1 C 80 % 4.86 C
Sensor: Nr:Datum:Temp:Feuchte:Taupunkt:
Aussen-T/F 3426 08-02-2019 21:25:00 8.1 C 80 % 4.86 C
3427 08-02-2019 21:30:00 8.1 C 81 % 5.04 C
3428 08-02-2019 21:35:00 8.1 C 80 % 4.86 C
3429 08-02-2019 21:40:00 8.1 C 80 % 4.86 C
3430 08-02-2019 21:45:00 8 C 80 % 4.77 C
3431 08-02-2019 21:50:00 7.9 C 80 % 4.67 C
3432 08-02-2019 21:55:00 7.9 C 80 % 4.67 C
3433 08-02-2019 22:00:00 7.9 C 80 % 4.67 C
3434 08-02-2019 22:05:00 7.8 C 80 % 4.57 C
3435 08-02-2019 22:10:00 7.8 C 81 % 4.75 C
3436 08-02-2019 22:15:00 7.7 C 81 % 4.65 C
3437 08-02-2019 22:20:00 7.6 C 81 % 4.55 C
3438 08-02-2019 22:25:00 7.7 C 81 % 4.65 C
3439 08-02-2019 22:30:00 7.7 C 81 % 4.65 C
3440 08-02-2019 22:35:00 7.8 C 81 % 4.75 C
3441 08-02-2019 22:40:00 7.8 C 81 % 4.75 C
3442 08-02-2019 22:45:00 7.7 C 81 % 4.65 C
3443 08-02-2019 22:50:00 7.8 C 80 % 4.57 C
3444 08-02-2019 22:55:00 7.8 C 80 % 4.57 C
3445 08-02-2019 23:00:00 7.9 C 80 % 4.67 C
3446 08-02-2019 23:05:00 7.9 C 80 % 4.67 C
3447 08-02-2019 23:10:00 8.1 C 80 % 4.86 C
3448 08-02-2019 23:15:00 8.1 C 79 % 4.68 C
3449 08-02-2019 23:20:00 8.1 C 79 % 4.68 C
3450 08-02-2019 23:25:00 8.1 C 79 % 4.68 C
Sensor: Nr:Datum:Temp:Feuchte:Taupunkt:
Aussen-T/F 3451 08-02-2019 23:30:00 8.1 C 79 % 4.68 C
3452 08-02-2019 23:35:00 8.1 C 80 % 4.86 C
3453 08-02-2019 23:40:00 8.1 C 79 % 4.68 C
3454 08-02-2019 23:45:00 8.2 C 79 % 4.78 C
3455 08-02-2019 23:50:00 8.2 C 79 % 4.78 C
3456 08-02-2019 23:55:00 8.3 C 78 % 4.7 C
3457 09-02-2019 00:00:00 8.3 C 79 % 4.88 C
3458 09-02-2019 00:05:00 8.2 C 78 % 4.6 C
3459 09-02-2019 00:10:00 8.2 C 79 % 4.78 C
3460 09-02-2019 00:15:00 8.2 C 79 % 4.78 C
3461 09-02-2019 00:20:00 8.2 C 78 % 4.6 C
3462 09-02-2019 00:25:00 8.3 C 78 % 4.7 C
3463 09-02-2019 00:30:00 8.3 C 78 % 4.7 C
3464 09-02-2019 00:35:00 8.4 C 78 % 4.79 C
3465 09-02-2019 00:40:00 8.4 C 77 % 4.61 C
3466 09-02-2019 00:45:00 8.4 C 77 % 4.61 C
3467 09-02-2019 00:50:00 8.3 C 77 % 4.51 C
3468 09-02-2019 00:55:00 8.3 C 77 % 4.51 C
3469 09-02-2019 01:00:00 8.3 C 78 % 4.7 C
3470 09-02-2019 01:05:00 8.3 C 78 % 4.7 C
3471 09-02-2019 01:10:00 8.2 C 79 % 4.78 C
3472 09-02-2019 01:15:00 8.1 C 82 % 5.22 C
3473 09-02-2019 01:20:00 7.9 C 81 % 4.85 C
3474 09-02-2019 01:25:00 7.8 C 81 % 4.75 C
3475 09-02-2019 01:30:00 7.7 C 82 % 4.83 C
Sensor: Nr:Datum:Temp:Feuchte:Taupunkt:
Aussen-T/F 3476 09-02-2019 01:35:00 7.6 C 82 % 4.73 C
3477 09-02-2019 01:40:00 7.5 C 83 % 4.81 C
3478 09-02-2019 01:45:00 7.4 C 83 % 4.71 C
3479 09-02-2019 01:50:00 7.4 C 84 % 4.88 C
3480 09-02-2019 01:55:00 7.3 C 84 % 4.78 C
3481 09-02-2019 02:00:00 7.3 C 85 % 4.95 C
3482 09-02-2019 02:05:00 7.3 C 85 % 4.95 C
3483 09-02-2019 02:10:00 7.3 C 86 % 5.12 C
3484 09-02-2019 02:15:00 7.3 C 86 % 5.12 C
3485 09-02-2019 02:20:00 7.4 C 86 % 5.22 C
3486 09-02-2019 02:25:00 7.4 C 86 % 5.22 C
3487 09-02-2019 02:30:00 7.5 C 86 % 5.31 C
3488 09-02-2019 02:35:00 7.6 C 86 % 5.41 C
3489 09-02-2019 02:40:00 7.6 C 85 % 5.24 C
3490 09-02-2019 02:45:00 7.6 C 85 % 5.24 C
3491 09-02-2019 02:50:00 7.7 C 85 % 5.34 C
3492 09-02-2019 02:55:00 7.7 C 85 % 5.34 C
3493 09-02-2019 03:00:00 7.7 C 85 % 5.34 C
3494 09-02-2019 03:05:00 7.8 C 85 % 5.44 C
3495 09-02-2019 03:10:00 7.8 C 85 % 5.44 C
3496 09-02-2019 03:15:00 7.9 C 85 % 5.54 C
3497 09-02-2019 03:20:00 8 C 84 % 5.47 C
3498 09-02-2019 03:25:00 8.1 C 84 % 5.56 C
3499 09-02-2019 03:30:00 8.1 C 84 % 5.56 C
3500 09-02-2019 03:35:00 8.2 C 84 % 5.66 C
Sensor: Nr:Datum:Temp:Feuchte:Taupunkt:
Aussen-T/F 3501 09-02-2019 03:40:00 8.3 C 84 % 5.76 C
3502 09-02-2019 03:45:00 8.3 C 84 % 5.76 C
3503 09-02-2019 03:50:00 8.3 C 84 % 5.76 C
3504 09-02-2019 03:55:00 8.4 C 83 % 5.69 C
3505 09-02-2019 04:00:00 8.6 C 83 % 5.88 C
3506 09-02-2019 04:05:00 8.7 C 82 % 5.8 C
3507 09-02-2019 04:10:00 8.8 C 81 % 5.72 C
3508 09-02-2019 04:15:00 8.9 C 81 % 5.82 C
3509 09-02-2019 04:20:00 8.9 C 81 % 5.82 C
3510 09-02-2019 04:25:00 9.1 C 81 % 6.02 C
3511 09-02-2019 04:30:00 9.1 C 82 % 6.19 C
3512 09-02-2019 04:35:00 9.1 C 82 % 6.19 C
3513 09-02-2019 04:40:00 9.1 C 83 % 6.37 C
3514 09-02-2019 04:45:00 8.9 C 83 % 6.17 C
3515 09-02-2019 04:50:00 8.9 C 83 % 6.17 C
3516 09-02-2019 04:55:00 8.8 C 83 % 6.08 C
3517 09-02-2019 05:00:00 8.7 C 83 % 5.98 C
3518 09-02-2019 05:05:00 8.6 C 83 % 5.88 C
3519 09-02-2019 05:10:00 8.5 C 84 % 5.96 C
3520 09-02-2019 05:15:00 8.4 C 84 % 5.86 C
3521 09-02-2019 05:20:00 8.3 C 84 % 5.76 C
3522 09-02-2019 05:25:00 8.3 C 84 % 5.76 C
3523 09-02-2019 05:30:00 8.2 C 84 % 5.66 C
3524 09-02-2019 05:35:00 8.1 C 84 % 5.56 C
3525 09-02-2019 05:40:00 8 C 84 % 5.47 C
Sensor: Nr:Datum:Temp:Feuchte:Taupunkt:
Aussen-T/F 3526 09-02-2019 05:45:00 7.9 C 84 % 5.37 C
3527 09-02-2019 05:50:00 8 C 83 % 5.29 C
3528 09-02-2019 05:55:00 8.1 C 83 % 5.39 C
3529 09-02-2019 06:00:00 8.1 C 83 % 5.39 C
3530 09-02-2019 06:05:00 8 C 83 % 5.29 C
3531 09-02-2019 06:10:00 7.9 C 83 % 5.2 C
3532 09-02-2019 06:15:00 7.8 C 83 % 5.1 C
3533 09-02-2019 06:20:00 7.8 C 83 % 5.1 C
3534 09-02-2019 06:25:00 7.7 C 83 % 5 C
3535 09-02-2019 06:30:00 7.7 C 83 % 5 C
3536 09-02-2019 06:35:00 7.7 C 82 % 4.83 C
3537 09-02-2019 06:40:00 7.7 C 82 % 4.83 C
3538 09-02-2019 06:45:00 7.7 C 83 % 5 C
3539 09-02-2019 06:50:00 7.7 C 83 % 5 C
3540 09-02-2019 06:55:00 7.8 C 83 % 5.1 C
3541 09-02-2019 07:00:00 7.8 C 83 % 5.1 C
3542 09-02-2019 07:05:00 7.8 C 84 % 5.27 C
3543 09-02-2019 07:10:00 7.8 C 84 % 5.27 C
3544 09-02-2019 07:15:00 7.7 C 85 % 5.34 C
3545 09-02-2019 07:20:00 7.7 C 85 % 5.34 C
3546 09-02-2019 07:25:00 7.5 C 86 % 5.31 C
3547 09-02-2019 07:30:00 7.4 C 86 % 5.22 C
3548 09-02-2019 07:35:00 7.3 C 86 % 5.12 C
3549 09-02-2019 07:40:00 7.3 C 87 % 5.28 C
3550 09-02-2019 07:45:00 7.2 C 87 % 5.19 C
Sensor: Nr:Datum:Temp:Feuchte:Taupunkt:
Aussen-T/F 3551 09-02-2019 07:50:00 7.2 C 87 % 5.19 C
3552 09-02-2019 07:55:00 7.2 C 87 % 5.19 C
3553 09-02-2019 08:00:00 7.3 C 87 % 5.28 C
3554 09-02-2019 08:05:00 7.4 C 86 % 5.22 C
3555 09-02-2019 08:10:00 7.4 C 86 % 5.22 C
3556 09-02-2019 08:15:00 7.4 C 86 % 5.22 C
3557 09-02-2019 08:20:00 7.3 C 86 % 5.12 C
3558 09-02-2019 08:25:00 7.3 C 87 % 5.28 C
3559 09-02-2019 08:30:00 7.2 C 87 % 5.19 C
3560 09-02-2019 08:35:00 7.1 C 87 % 5.09 C
3561 09-02-2019 08:40:00 7 C 87 % 4.99 C
3562 09-02-2019 08:45:00 7 C 87 % 4.99 C
3563 09-02-2019 08:50:00 7.1 C 86 % 4.92 C
3564 09-02-2019 08:55:00 7.2 C 85 % 4.85 C
3565 09-02-2019 09:00:00 7.3 C 84 % 4.78 C
3566 09-02-2019 09:05:00 7.3 C 84 % 4.78 C
3567 09-02-2019 09:10:00 7.3 C 84 % 4.78 C
3568 09-02-2019 09:15:00 7.3 C 83 % 4.61 C
3569 09-02-2019 09:20:00 7.6 C 83 % 4.9 C
3570 09-02-2019 09:25:00 7.6 C 83 % 4.9 C
3571 09-02-2019 09:30:00 7.8 C 82 % 4.92 C
3572 09-02-2019 09:35:00 7.9 C 81 % 4.85 C
3573 09-02-2019 09:40:00 8.1 C 81 % 5.04 C
3574 09-02-2019 09:45:00 8.1 C 81 % 5.04 C
3575 09-02-2019 09:50:00 8.2 C 81 % 5.14 C
Sensor: Nr:Datum:Temp:Feuchte:Taupunkt:
Aussen-T/F 3576 09-02-2019 09:55:00 8.3 C 81 % 5.24 C
3577 09-02-2019 10:00:00 8.4 C 81 % 5.33 C
3578 09-02-2019 10:05:00 8.6 C 80 % 5.35 C
3579 09-02-2019 10:10:00 8.7 C 80 % 5.45 C
3580 09-02-2019 10:15:00 8.8 C 79 % 5.36 C
3581 09-02-2019 10:20:00 8.9 C 79 % 5.46 C
3582 09-02-2019 10:25:00 8.9 C 79 % 5.46 C
3583 09-02-2019 10:30:00 8.9 C 79 % 5.46 C
3584 09-02-2019 10:35:00 9 C 79 % 5.56 C
3585 09-02-2019 10:40:00 9 C 79 % 5.56 C
3586 09-02-2019 10:45:00 9 C 79 % 5.56 C
3587 09-02-2019 10:50:00 9 C 79 % 5.56 C
3588 09-02-2019 10:55:00 9 C 79 % 5.56 C
3589 09-02-2019 11:00:00 9.1 C 79 % 5.66 C
3590 09-02-2019 11:05:00 9.1 C 79 % 5.66 C
3591 09-02-2019 11:10:00 9.1 C 79 % 5.66 C
3592 09-02-2019 11:15:00 9.2 C 79 % 5.75 C
3593 09-02-2019 11:20:00 9.2 C 78 % 5.57 C
3594 09-02-2019 11:25:00 9.2 C 78 % 5.57 C
3595 09-02-2019 11:30:00 9.2 C 77 % 5.38 C
3596 09-02-2019 11:35:00 9.3 C 77 % 5.48 C
3597 09-02-2019 11:40:00 9.4 C 77 % 5.58 C
3598 09-02-2019 11:45:00 9.6 C 77 % 5.77 C
3599 09-02-2019 11:50:00 9.6 C 76 % 5.58 C
3600 09-02-2019 11:55:00 9.7 C 76 % 5.68 C
Sensor: Nr:Datum:Temp:Feuchte:Taupunkt:
Aussen-T/F 3601 09-02-2019 12:00:00 9.7 C 76 % 5.68 C
3602 09-02-2019 12:05:00 9.7 C 76 % 5.68 C
3603 09-02-2019 12:10:00 9.8 C 75 % 5.59 C
3604 09-02-2019 12:15:00 9.8 C 75 % 5.59 C
3605 09-02-2019 12:20:00 9.8 C 74 % 5.39 C
3606 09-02-2019 12:25:00 9.9 C 74 % 5.49 C
3607 09-02-2019 12:30:00 9.9 C 74 % 5.49 C
3608 09-02-2019 12:35:00 10 C 74 % 5.59 C
3609 09-02-2019 12:40:00 10.1 C 73 % 5.49 C
3610 09-02-2019 12:45:00 10.2 C 73 % 5.58 C
3611 09-02-2019 12:50:00 10.3 C 72 % 5.48 C
3612 09-02-2019 12:55:00 10.5 C 71 % 5.47 C
3613 09-02-2019 13:00:00 10.6 C 71 % 5.57 C
3614 09-02-2019 13:05:00 10.6 C 70 % 5.36 C
3615 09-02-2019 13:10:00 10.6 C 71 % 5.57 C
3616 09-02-2019 13:15:00 10.6 C 72 % 5.77 C
3617 09-02-2019 13:20:00 10.6 C 71 % 5.57 C
3618 09-02-2019 13:25:00 10.7 C 72 % 5.87 C
3619 09-02-2019 13:30:00 10.7 C 70 % 5.46 C
3620 09-02-2019 13:35:00 10.8 C 69 % 5.35 C
3621 09-02-2019 13:40:00 10.9 C 68 % 5.23 C
3622 09-02-2019 13:45:00 10.9 C 69 % 5.44 C
3623 09-02-2019 13:50:00 10.9 C 69 % 5.44 C
3624 09-02-2019 13:55:00 10.9 C 69 % 5.44 C
3625 09-02-2019 14:00:00 11 C 68 % 5.33 C
Sensor: Nr:Datum:Temp:Feuchte:Taupunkt:
Aussen-T/F 3626 09-02-2019 14:05:00 11.1 C 68 % 5.43 C
3627 09-02-2019 14:10:00 11.2 C 68 % 5.52 C
3628 09-02-2019 14:15:00 11.2 C 67 % 5.31 C
3629 09-02-2019 14:20:00 11.2 C 68 % 5.52 C
3630 09-02-2019 14:25:00 11.2 C 68 % 5.52 C
3631 09-02-2019 14:30:00 11.1 C 68 % 5.43 C
3632 09-02-2019 14:35:00 11.1 C 67 % 5.21 C
3633 09-02-2019 14:40:00 11.1 C 68 % 5.43 C
3634 09-02-2019 14:45:00 11.1 C 68 % 5.43 C
3635 09-02-2019 14:50:00 11.1 C 67 % 5.21 C
3636 09-02-2019 14:55:00 11.1 C 67 % 5.21 C
3637 09-02-2019 15:00:00 10.9 C 67 % 5.02 C
3638 09-02-2019 15:05:00 10.9 C 67 % 5.02 C
3639 09-02-2019 15:10:00 10.8 C 67 % 4.93 C
3640 09-02-2019 15:15:00 10.7 C 67 % 4.83 C
3641 09-02-2019 15:20:00 10.7 C 68 % 5.04 C
3642 09-02-2019 15:25:00 10.6 C 69 % 5.16 C
3643 09-02-2019 15:30:00 10.5 C 69 % 5.06 C
3644 09-02-2019 15:35:00 10.5 C 69 % 5.06 C
3645 09-02-2019 15:40:00 10.5 C 69 % 5.06 C
3646 09-02-2019 15:45:00 10.4 C 69 % 4.97 C
3647 09-02-2019 15:50:00 10.4 C 70 % 5.17 C
3648 09-02-2019 15:55:00 10.4 C 70 % 5.17 C
3649 09-02-2019 16:00:00 10.4 C 69 % 4.97 C
3650 09-02-2019 16:05:00 10.4 C 70 % 5.17 C
Sensor: Nr:Datum:Temp:Feuchte:Taupunkt:
Aussen-T/F 3651 09-02-2019 16:10:00 10.3 C 71 % 5.28 C
3652 09-02-2019 16:15:00 10.2 C 72 % 5.39 C
3653 09-02-2019 16:20:00 10.1 C 72 % 5.29 C
3654 09-02-2019 16:25:00 10.1 C 72 % 5.29 C
3655 09-02-2019 16:30:00 10 C 73 % 5.39 C
3656 09-02-2019 16:35:00 9.9 C 73 % 5.29 C
3657 09-02-2019 16:40:00 9.9 C 72 % 5.1 C
3658 09-02-2019 16:45:00 9.9 C 73 % 5.29 C
3659 09-02-2019 16:50:00 9.8 C 73 % 5.2 C
3660 09-02-2019 16:55:00 9.8 C 73 % 5.2 C
3661 09-02-2019 17:00:00 9.8 C 72 % 5 C
3662 09-02-2019 17:05:00 9.7 C 72 % 4.9 C
3663 09-02-2019 17:10:00 9.7 C 73 % 5.1 C
3664 09-02-2019 17:15:00 9.6 C 74 % 5.2 C
3665 09-02-2019 17:20:00 9.5 C 74 % 5.1 C
3666 09-02-2019 17:25:00 9.4 C 74 % 5.01 C
3667 09-02-2019 17:30:00 9.3 C 74 % 4.91 C
3668 09-02-2019 17:35:00 9.3 C 74 % 4.91 C
3669 09-02-2019 17:40:00 9.2 C 75 % 5.01 C
3670 09-02-2019 17:45:00 9.1 C 75 % 4.91 C
3671 09-02-2019 17:50:00 9 C 75 % 4.81 C
3672 09-02-2019 17:55:00 8.9 C 76 % 4.91 C
3673 09-02-2019 18:00:00 8.8 C 76 % 4.81 C
3674 09-02-2019 18:05:00 8.8 C 77 % 5 C
3675 09-02-2019 18:10:00 8.7 C 77 % 4.9 C
Sensor: Nr:Datum:Temp:Feuchte:Taupunkt:
Aussen-T/F 3676 09-02-2019 18:15:00 8.6 C 78 % 4.99 C
3677 09-02-2019 18:20:00 8.6 C 78 % 4.99 C
3678 09-02-2019 18:25:00 8.5 C 78 % 4.89 C
3679 09-02-2019 18:30:00 8.4 C 79 % 4.98 C
3680 09-02-2019 18:35:00 8.4 C 79 % 4.98 C
3681 09-02-2019 18:40:00 8.4 C 78 % 4.79 C
3682 09-02-2019 18:45:00 8.4 C 79 % 4.98 C
3683 09-02-2019 18:50:00 8.4 C 79 % 4.98 C
3684 09-02-2019 18:55:00 8.5 C 80 % 5.25 C
3685 09-02-2019 19:00:00 8.6 C 81 % 5.53 C
3686 09-02-2019 19:05:00 8.4 C 84 % 5.86 C
3687 09-02-2019 19:10:00 8.2 C 85 % 5.83 C
3688 09-02-2019 19:15:00 8 C 86 % 5.81 C
3689 09-02-2019 19:20:00 7.8 C 86 % 5.61 C
3690 09-02-2019 19:25:00 7.7 C 86 % 5.51 C
3691 09-02-2019 19:30:00 7.7 C 86 % 5.51 C
3692 09-02-2019 19:35:00 7.6 C 86 % 5.41 C
3693 09-02-2019 19:40:00 7.6 C 85 % 5.24 C
3694 09-02-2019 19:45:00 7.6 C 84 % 5.07 C
3695 09-02-2019 19:50:00 7.6 C 84 % 5.07 C
3696 09-02-2019 19:55:00 7.6 C 84 % 5.07 C
3697 09-02-2019 20:00:00 7.5 C 84 % 4.98 C
3698 09-02-2019 20:05:00 7.4 C 84 % 4.88 C
3699 09-02-2019 20:10:00 7.3 C 84 % 4.78 C
3700 09-02-2019 20:15:00 7.2 C 85 % 4.85 C
Sensor: Nr:Datum:Temp:Feuchte:Taupunkt:
Aussen-T/F 3701 09-02-2019 20:20:00 7.2 C 85 % 4.85 C
3702 09-02-2019 20:25:00 7.1 C 86 % 4.92 C
3703 09-02-2019 20:30:00 7.1 C 86 % 4.92 C
3704 09-02-2019 20:35:00 7.2 C 87 % 5.19 C
3705 09-02-2019 20:40:00 7.2 C 87 % 5.19 C
3706 09-02-2019 20:45:00 7.2 C 87 % 5.19 C
3707 09-02-2019 20:50:00 7.3 C 87 % 5.28 C
3708 09-02-2019 20:55:00 7.3 C 87 % 5.28 C
3709 09-02-2019 21:00:00 7.4 C 87 % 5.38 C
3710 09-02-2019 21:05:00 7.5 C 86 % 5.31 C
3711 09-02-2019 21:10:00 7.5 C 86 % 5.31 C
3712 09-02-2019 21:15:00 7.5 C 86 % 5.31 C
3713 09-02-2019 21:20:00 7.6 C 86 % 5.41 C
3714 09-02-2019 21:25:00 7.6 C 86 % 5.41 C
3715 09-02-2019 21:30:00 7.6 C 86 % 5.41 C
3716 09-02-2019 21:35:00 7.6 C 86 % 5.41 C
3717 09-02-2019 21:40:00 7.7 C 86 % 5.51 C
3718 09-02-2019 21:45:00 7.7 C 86 % 5.51 C
3719 09-02-2019 21:50:00 7.8 C 85 % 5.44 C
3720 09-02-2019 21:55:00 7.8 C 85 % 5.44 C
3721 09-02-2019 22:00:00 7.9 C 85 % 5.54 C
3722 09-02-2019 22:05:00 7.9 C 85 % 5.54 C
3723 09-02-2019 22:10:00 7.9 C 85 % 5.54 C
3724 09-02-2019 22:15:00 8.1 C 84 % 5.56 C
3725 09-02-2019 22:20:00 8.1 C 84 % 5.56 C
Sensor: Nr:Datum:Temp:Feuchte:Taupunkt:
Aussen-T/F 3726 09-02-2019 22:25:00 8.1 C 84 % 5.56 C
3727 09-02-2019 22:30:00 8.2 C 84 % 5.66 C
3728 09-02-2019 22:35:00 8.3 C 83 % 5.59 C
3729 09-02-2019 22:40:00 8.3 C 83 % 5.59 C
3730 09-02-2019 22:45:00 8.3 C 83 % 5.59 C
3731 09-02-2019 22:50:00 8.4 C 83 % 5.69 C
3732 09-02-2019 22:55:00 8.4 C 82 % 5.51 C
3733 09-02-2019 23:00:00 8.6 C 82 % 5.71 C
3734 09-02-2019 23:05:00 8.6 C 82 % 5.71 C
3735 09-02-2019 23:10:00 8.6 C 82 % 5.71 C
3736 09-02-2019 23:15:00 8.6 C 82 % 5.71 C
3737 09-02-2019 23:20:00 8.6 C 82 % 5.71 C
3738 09-02-2019 23:25:00 8.6 C 82 % 5.71 C
3739 09-02-2019 23:30:00 8.6 C 82 % 5.71 C
3740 09-02-2019 23:35:00 8.6 C 82 % 5.71 C
3741 09-02-2019 23:40:00 8.6 C 82 % 5.71 C
3742 09-02-2019 23:45:00 8.7 C 82 % 5.8 C
3743 09-02-2019 23:50:00 8.7 C 82 % 5.8 C
3744 09-02-2019 23:55:00 8.7 C 82 % 5.8 C
3745 10-02-2019 00:00:00 8.7 C 82 % 5.8 C
3746 10-02-2019 00:05:00 8.7 C 82 % 5.8 C
3747 10-02-2019 00:10:00 8.7 C 82 % 5.8 C
3748 10-02-2019 00:15:00 8.7 C 82 % 5.8 C
3749 10-02-2019 00:20:00 8.7 C 82 % 5.8 C
3750 10-02-2019 00:25:00 8.7 C 82 % 5.8 C
Sensor: Nr:Datum:Temp:Feuchte:Taupunkt:
Aussen-T/F 3751 10-02-2019 00:30:00 8.7 C 82 % 5.8 C
3752 10-02-2019 00:35:00 8.6 C 82 % 5.71 C
3753 10-02-2019 00:40:00 8.6 C 82 % 5.71 C
3754 10-02-2019 00:45:00 8.5 C 82 % 5.61 C
3755 10-02-2019 00:50:00 8.4 C 82 % 5.51 C
3756 10-02-2019 00:55:00 8.4 C 82 % 5.51 C
3757 10-02-2019 01:00:00 8.3 C 83 % 5.59 C
3758 10-02-2019 01:05:00 8.2 C 83 % 5.49 C
3759 10-02-2019 01:10:00 8.1 C 83 % 5.39 C
3760 10-02-2019 01:15:00 8.1 C 83 % 5.39 C
3761 10-02-2019 01:20:00 7.9 C 83 % 5.2 C
3762 10-02-2019 01:25:00 7.9 C 84 % 5.37 C
3763 10-02-2019 01:30:00 7.8 C 84 % 5.27 C
3764 10-02-2019 01:35:00 7.7 C 84 % 5.17 C
3765 10-02-2019 01:40:00 7.6 C 85 % 5.24 C
3766 10-02-2019 01:45:00 7.5 C 85 % 5.15 C
3767 10-02-2019 01:50:00 7.6 C 85 % 5.24 C
3768 10-02-2019 01:55:00 7.5 C 85 % 5.15 C
3769 10-02-2019 02:00:00 7.4 C 85 % 5.05 C
3770 10-02-2019 02:05:00 7.4 C 85 % 5.05 C
3771 10-02-2019 02:10:00 7.4 C 85 % 5.05 C
3772 10-02-2019 02:15:00 7.3 C 85 % 4.95 C
3773 10-02-2019 02:20:00 7.3 C 85 % 4.95 C
3774 10-02-2019 02:25:00 7.3 C 85 % 4.95 C
3775 10-02-2019 02:30:00 7.4 C 85 % 5.05 C
Sensor: Nr:Datum:Temp:Feuchte:Taupunkt:
Aussen-T/F 3776 10-02-2019 02:35:00 7.4 C 85 % 5.05 C
3777 10-02-2019 02:40:00 7.5 C 84 % 4.98 C
3778 10-02-2019 02:45:00 7.6 C 84 % 5.07 C
3779 10-02-2019 02:50:00 7.5 C 84 % 4.98 C
3780 10-02-2019 02:55:00 7.5 C 84 % 4.98 C
3781 10-02-2019 03:00:00 7.5 C 84 % 4.98 C
3782 10-02-2019 03:05:00 7.4 C 84 % 4.88 C
3783 10-02-2019 03:10:00 7.6 C 84 % 5.07 C
3784 10-02-2019 03:15:00 7.7 C 83 % 5 C
3785 10-02-2019 03:20:00 7.7 C 83 % 5 C
3786 10-02-2019 03:25:00 7.7 C 83 % 5 C
3787 10-02-2019 03:30:00 7.6 C 83 % 4.9 C
3788 10-02-2019 03:35:00 7.6 C 84 % 5.07 C
3789 10-02-2019 03:40:00 7.7 C 84 % 5.17 C
3790 10-02-2019 03:45:00 7.7 C 85 % 5.34 C
3791 10-02-2019 03:50:00 7.6 C 86 % 5.41 C
3792 10-02-2019 03:55:00 7.5 C 87 % 5.48 C
3793 10-02-2019 04:00:00 7.4 C 88 % 5.55 C
3794 10-02-2019 04:05:00 7.3 C 89 % 5.61 C
3795 10-02-2019 04:10:00 7.2 C 90 % 5.67 C
3796 10-02-2019 04:15:00 7.1 C 90 % 5.57 C
3797 10-02-2019 04:20:00 6.9 C 90 % 5.38 C
3798 10-02-2019 04:25:00 6.9 C 90 % 5.38 C
3799 10-02-2019 04:30:00 6.9 C 90 % 5.38 C
3800 10-02-2019 04:35:00 6.9 C 91 % 5.54 C
Sensor: Nr:Datum:Temp:Feuchte:Taupunkt:
Aussen-T/F 3801 10-02-2019 04:40:00 6.8 C 91 % 5.44 C
3802 10-02-2019 04:45:00 6.8 C 92 % 5.59 C
3803 10-02-2019 04:50:00 6.8 C 92 % 5.59 C
3804 10-02-2019 04:55:00 6.8 C 92 % 5.59 C
3805 10-02-2019 05:00:00 6.8 C 93 % 5.75 C
3806 10-02-2019 05:05:00 6.8 C 93 % 5.75 C
3807 10-02-2019 05:10:00 6.8 C 93 % 5.75 C
3808 10-02-2019 05:15:00 6.8 C 93 % 5.75 C
3809 10-02-2019 05:20:00 6.8 C 94 % 5.9 C
3810 10-02-2019 05:25:00 6.9 C 94 % 6 C
3811 10-02-2019 05:30:00 6.9 C 94 % 6 C
3812 10-02-2019 05:35:00 7 C 94 % 6.1 C
3813 10-02-2019 05:40:00 7.1 C 94 % 6.2 C
3814 10-02-2019 05:45:00 7.1 C 94 % 6.2 C
3815 10-02-2019 05:50:00 7.2 C 94 % 6.3 C
3816 10-02-2019 05:55:00 7.3 C 94 % 6.4 C
3817 10-02-2019 06:00:00 7.3 C 94 % 6.4 C
3818 10-02-2019 06:05:00 7.3 C 94 % 6.4 C
3819 10-02-2019 06:10:00 7.3 C 94 % 6.4 C
3820 10-02-2019 06:15:00 7.4 C 94 % 6.5 C
3821 10-02-2019 06:20:00 7.5 C 94 % 6.6 C
3822 10-02-2019 06:25:00 7.6 C 94 % 6.7 C
3823 10-02-2019 06:30:00 7.7 C 94 % 6.8 C
3824 10-02-2019 06:35:00 7.7 C 94 % 6.8 C
3825 10-02-2019 06:40:00 7.8 C 94 % 6.9 C
Sensor: Nr:Datum:Temp:Feuchte:Taupunkt:
Aussen-T/F 3826 10-02-2019 06:45:00 7.9 C 94 % 7 C
3827 10-02-2019 06:50:00 7.9 C 94 % 7 C
3828 10-02-2019 06:55:00 8.1 C 94 % 7.19 C
3829 10-02-2019 07:00:00 8.1 C 94 % 7.19 C
3830 10-02-2019 07:05:00 8.1 C 94 % 7.19 C
3831 10-02-2019 07:10:00 8.2 C 94 % 7.29 C
3832 10-02-2019 07:15:00 8.2 C 94 % 7.29 C
3833 10-02-2019 07:20:00 8.3 C 93 % 7.24 C
3834 10-02-2019 07:25:00 8.4 C 93 % 7.34 C
3835 10-02-2019 07:30:00 8.4 C 93 % 7.34 C
3836 10-02-2019 07:35:00 8.5 C 93 % 7.43 C
3837 10-02-2019 07:40:00 8.5 C 93 % 7.43 C
3838 10-02-2019 07:45:00 8.6 C 93 % 7.53 C
3839 10-02-2019 07:50:00 8.6 C 93 % 7.53 C
3840 10-02-2019 07:55:00 8.7 C 93 % 7.63 C
3841 10-02-2019 08:00:00 8.7 C 92 % 7.47 C
3842 10-02-2019 08:05:00 8.7 C 92 % 7.47 C
3843 10-02-2019 08:10:00 8.7 C 92 % 7.47 C
3844 10-02-2019 08:15:00 8.8 C 92 % 7.57 C
3845 10-02-2019 08:20:00 8.8 C 92 % 7.57 C
3846 10-02-2019 08:25:00 8.8 C 92 % 7.57 C
3847 10-02-2019 08:30:00 8.8 C 92 % 7.57 C
3848 10-02-2019 08:35:00 8.8 C 92 % 7.57 C
3849 10-02-2019 08:40:00 8.8 C 92 % 7.57 C
3850 10-02-2019 08:45:00 8.8 C 91 % 7.41 C
Sensor: Nr:Datum:Temp:Feuchte:Taupunkt:
Aussen-T/F 3851 10-02-2019 08:50:00 8.9 C 91 % 7.51 C
3852 10-02-2019 08:55:00 8.9 C 91 % 7.51 C
3853 10-02-2019 09:00:00 9 C 91 % 7.61 C
3854 10-02-2019 09:05:00 9.1 C 90 % 7.55 C
3855 10-02-2019 09:10:00 9.2 C 90 % 7.65 C
3856 10-02-2019 09:15:00 9.3 C 90 % 7.75 C
3857 10-02-2019 09:20:00 9.3 C 89 % 7.58 C
3858 10-02-2019 09:25:00 9.4 C 89 % 7.68 C
3859 10-02-2019 09:30:00 9.6 C 89 % 7.88 C
3860 10-02-2019 09:35:00 9.7 C 89 % 7.98 C
3861 10-02-2019 09:40:00 9.7 C 88 % 7.81 C
3862 10-02-2019 09:45:00 9.8 C 88 % 7.91 C
3863 10-02-2019 09:50:00 9.9 C 88 % 8.01 C
3864 10-02-2019 09:55:00 9.9 C 88 % 8.01 C
3865 10-02-2019 10:00:00 10 C 88 % 8.11 C
3866 10-02-2019 10:05:00 10.1 C 88 % 8.21 C
3867 10-02-2019 10:10:00 10.1 C 88 % 8.21 C
3868 10-02-2019 10:15:00 10.1 C 88 % 8.21 C
3869 10-02-2019 10:20:00 10.2 C 88 % 8.3 C
3870 10-02-2019 10:25:00 10.2 C 88 % 8.3 C
3871 10-02-2019 10:30:00 10.2 C 88 % 8.3 C
3872 10-02-2019 10:35:00 10.2 C 89 % 8.47 C
3873 10-02-2019 10:40:00 10 C 89 % 8.27 C
3874 10-02-2019 10:45:00 9.9 C 90 % 8.34 C
3875 10-02-2019 10:50:00 9.9 C 90 % 8.34 C
Sensor: Nr:Datum:Temp:Feuchte:Taupunkt:
Aussen-T/F 3876 10-02-2019 10:55:00 9.8 C 90 % 8.24 C
3877 10-02-2019 11:00:00 9.8 C 90 % 8.24 C
3878 10-02-2019 11:05:00 9.8 C 90 % 8.24 C
3879 10-02-2019 11:10:00 9.8 C 90 % 8.24 C
3880 10-02-2019 11:15:00 9.7 C 90 % 8.14 C
3881 10-02-2019 11:20:00 9.7 C 91 % 8.3 C
3882 10-02-2019 11:25:00 9.7 C 91 % 8.3 C
3883 10-02-2019 11:30:00 9.7 C 91 % 8.3 C
3884 10-02-2019 11:35:00 9.7 C 91 % 8.3 C
3885 10-02-2019 11:40:00 9.7 C 91 % 8.3 C
3886 10-02-2019 11:45:00 9.7 C 91 % 8.3 C
3887 10-02-2019 11:50:00 9.7 C 91 % 8.3 C
3888 10-02-2019 11:55:00 9.7 C 92 % 8.46 C
3889 10-02-2019 12:00:00 9.7 C 92 % 8.46 C
3890 10-02-2019 12:05:00 9.7 C 91 % 8.3 C
3891 10-02-2019 12:10:00 9.7 C 91 % 8.3 C
3892 10-02-2019 12:15:00 9.7 C 92 % 8.46 C
3893 10-02-2019 12:20:00 9.7 C 92 % 8.46 C
3894 10-02-2019 12:25:00 9.7 C 92 % 8.46 C
3895 10-02-2019 12:30:00 9.7 C 92 % 8.46 C
3896 10-02-2019 12:35:00 9.6 C 92 % 8.37 C
3897 10-02-2019 12:40:00 9.6 C 92 % 8.37 C
3898 10-02-2019 12:45:00 9.6 C 92 % 8.37 C
3899 10-02-2019 12:50:00 9.6 C 91 % 8.21 C
3900 10-02-2019 12:55:00 9.6 C 91 % 8.21 C
Sensor: Nr:Datum:Temp:Feuchte: